Provisional Data: Young Woman's Creek near North Bend, PA


Please select a monitoring station.
Please select start date.
Please select start date.

Toggle Unit: C/F Toggle Unit: C/F
Sample Time Temperature (C) Temperature (F) Specific Conductivity (mS/cm) pH   Turbidity (NTU+) DO (mg/L)
5/17/2022 12:00:00 AM 11.64 52.952 0.036 6.75 2.72 10.25
5/17/2022 12:15:00 AM 11.58 52.844 0.036 6.74 2.76 10.26
5/17/2022 12:30:00 AM 11.52 52.736 0.036 6.74 2.85 10.28
5/17/2022 12:45:00 AM 11.47 52.646 0.036 6.74 2.74 10.29
5/17/2022 1:00:00 AM 11.42 52.556 0.035 6.74 2.67 10.31
5/17/2022 1:15:00 AM 11.36 52.448 0.035 6.75 2.57 10.32
5/17/2022 1:30:00 AM 11.31 52.358 0.035 6.74 2.58 10.34
5/17/2022 1:45:00 AM 11.26 52.268 0.035 6.74 3.04 10.35
5/17/2022 2:00:00 AM 11.21 52.178 0.035 6.75 2.65 10.36
5/17/2022 2:15:00 AM 11.16 52.088 0.035 6.74 2.56 10.38
5/17/2022 2:30:00 AM 11.11 51.998 0.035 6.74 2.67 10.39
5/17/2022 2:45:00 AM 11.06 51.908 0.035 6.75 2.5 10.4
5/17/2022 3:00:00 AM 11.01 51.818 0.035 6.73 2.52 10.42
5/17/2022 3:15:00 AM 10.96 51.728 0.035 6.75 2.47 10.43
5/17/2022 3:30:00 AM 10.92 51.656 0.035 6.74 2.46 10.44
5/17/2022 3:45:00 AM 10.88 51.584 0.035 6.75 2.52 10.45
5/17/2022 4:00:00 AM 10.85 51.53 0.035 6.75 2.46 10.46
5/17/2022 4:15:00 AM 10.82 51.476 0.035 6.74 2.68 10.46
5/17/2022 4:30:00 AM 10.78 51.404 0.035 6.74 2.33 10.47
5/17/2022 4:45:00 AM 10.74 51.332 0.035 6.74 2.5 10.48
5/17/2022 5:00:00 AM 10.71 51.278 0.035 6.74 2.46 10.49
5/17/2022 5:15:00 AM 10.68 51.224 0.035 6.75 2.38 10.51
5/17/2022 5:30:00 AM 10.65 51.17 0.035 6.73 2.55 10.51
5/17/2022 5:45:00 AM 10.62 51.116 0.035 6.75 2.33 10.52
5/17/2022 6:00:00 AM 10.59 51.062 0.035 6.74 2.39 10.53
5/17/2022 6:15:00 AM 10.56 51.008 0.035 6.75 2.32 10.55
5/17/2022 6:30:00 AM 10.53 50.954 0.035 6.75 2.44 10.57
5/17/2022 6:45:00 AM 10.5 50.9 0.035 6.75 2.23 10.59
5/17/2022 7:00:00 AM 10.47 50.846 0.035 6.76 2.22 10.61
5/17/2022 7:15:00 AM 10.45 50.81 0.035 6.77 2.18 10.63
5/17/2022 7:30:00 AM 10.43 50.774 0.035 6.77 2.09 10.64
5/17/2022 7:45:00 AM 10.41 50.738 0.035 6.78 2.12 10.68
5/17/2022 8:00:00 AM 10.41 50.738 0.035 6.78 2.17 10.71
5/17/2022 8:15:00 AM 10.4 50.72 0.035 6.79 2.08 10.75
5/17/2022 8:30:00 AM 10.41 50.738 0.035 6.81 2.11 10.75
5/17/2022 8:45:00 AM 10.4 50.72 0.035 6.81 2.07 10.75
5/17/2022 9:00:00 AM 10.41 50.738 0.035 6.81 2.02 10.74
5/17/2022 9:15:00 AM 10.43 50.774 0.035 6.8 2.51 10.73
5/17/2022 9:30:00 AM 10.46 50.828 0.035 6.79 2.04 10.73
5/17/2022 9:45:00 AM 10.5 50.9 0.035 6.81 2.14 10.73
5/17/2022 10:00:00 AM 10.54 50.972 0.035 6.81 1.96 10.73
5/17/2022 10:15:00 AM 10.6 51.08 0.035 6.83 1.94 10.73
5/17/2022 10:30:00 AM 10.68 51.224 0.035 6.84 1.99 10.73
5/17/2022 10:45:00 AM 10.79 51.422 0.035 6.84 1.94 10.72
5/17/2022 11:00:00 AM 10.9 51.62 0.034 6.85 2.05 10.73
5/17/2022 11:15:00 AM 11.03 51.854 0.034 6.86 1.92 10.7
5/17/2022 11:30:00 AM 11.17 52.106 0.034 6.87 2.04 10.69
5/17/2022 11:45:00 AM 11.36 52.448 0.034 6.88 2.01 10.67
5/17/2022 12:00:00 PM 11.54 52.772 0.034 6.88 1.96 10.64
5/17/2022 12:15:00 PM 11.75 53.15 0.034 6.89 2.29 10.6
5/17/2022 12:30:00 PM 11.96 53.528 0.034 6.9 1.81 10.57
5/17/2022 12:45:00 PM 12.23 54.014 0.034 6.91 1.92 10.52
5/17/2022 1:00:00 PM 12.46 54.428 0.034 6.92 1.93 10.49
5/17/2022 1:15:00 PM 12.67 54.806 0.034 6.92 2.02 10.45
5/17/2022 1:30:00 PM 12.87 55.166 0.034 6.93 1.87 10.39
5/17/2022 1:45:00 PM 12.98 55.364 0.034 6.92 2.38 10.37
5/17/2022 2:00:00 PM 13.03 55.454 0.034 6.93 2.03 10.33
5/17/2022 2:15:00 PM 13.13 55.634 0.034 6.92 1.9 10.31
5/17/2022 2:30:00 PM 13.29 55.922 0.034 6.92 1.85 10.28
5/17/2022 2:45:00 PM 13.42 56.156 0.034 6.93 2.05 10.25
5/17/2022 3:00:00 PM 13.52 56.336 0.034 6.92 1.87 10.18
5/17/2022 3:15:00 PM 13.56 56.408 0.034 6.91 1.93 10.14
5/17/2022 3:30:00 PM 13.65 56.57 0.034 6.92 1.89 10.13
5/17/2022 3:45:00 PM 13.72 56.696 0.034 6.92 1.87 10.09
5/17/2022 4:00:00 PM 13.79 56.822 0.034 6.92 1.83 10.07
5/17/2022 4:15:00 PM 13.8 56.84 0.034 6.9 2.19 10.05
5/17/2022 4:30:00 PM 13.85 56.93 0.034 6.9 1.9 10.02
5/17/2022 4:45:00 PM 13.94 57.092 0.034 6.91 2.08 10.02
5/17/2022 5:00:00 PM 13.99 57.182 0.034 6.91 1.96 10
5/17/2022 5:15:00 PM 13.99 57.182 0.034 6.9 1.94 9.97
5/17/2022 5:30:00 PM 13.98 57.164 0.034 6.88 1.94 9.95
5/17/2022 5:45:00 PM 13.93 57.074 0.034 6.88 1.9 9.94
5/17/2022 6:00:00 PM 13.88 56.984 0.034 6.87 1.89 9.92
5/17/2022 6:15:00 PM 13.79 56.822 0.034 6.84 1.94 9.88
5/17/2022 6:30:00 PM 13.7 56.66 0.034 6.84 2.06 9.88
5/17/2022 6:45:00 PM 13.62 56.516 0.035 6.83 2.09 9.88
5/17/2022 7:00:00 PM 13.54 56.372 0.035 6.82 1.92 9.89
5/17/2022 7:15:00 PM 13.45 56.21 0.035 6.81 1.99 9.9
5/17/2022 7:30:00 PM 13.37 56.066 0.035 6.81 2.25 9.93
5/17/2022 7:45:00 PM 13.27 55.886 0.035 6.8 1.94 9.94
5/17/2022 8:00:00 PM 13.18 55.724 0.035 6.8 1.89 9.95
5/17/2022 8:15:00 PM 13.09 55.562 0.035 6.79 1.98 9.97
5/17/2022 8:30:00 PM 12.99 55.382 0.035 6.8 1.91 9.98
5/17/2022 8:45:00 PM 12.89 55.202 0.035 6.79 2.21 10
5/17/2022 9:00:00 PM 12.79 55.022 0.035 6.79 2.05 10.02
5/17/2022 9:15:00 PM 12.68 54.824 0.035 6.78 2.08 10.05
5/17/2022 9:30:00 PM 12.57 54.626 0.035 6.79 2.18 10.06
5/17/2022 9:45:00 PM 12.46 54.428 0.035 6.78 3.15 10.09
5/17/2022 10:00:00 PM 12.35 54.23 0.035 6.78 2.19 10.12
5/17/2022 10:15:00 PM 12.24 54.032 0.035 6.79 2.15 10.14
5/17/2022 10:30:00 PM 12.13 53.834 0.035 6.78 2.05 10.18
5/17/2022 10:45:00 PM 12.02 53.636 0.035 6.77 3.18 10.21
5/17/2022 11:00:00 PM 11.91 53.438 0.035 6.78 2.18 10.24
5/17/2022 11:15:00 PM 11.8 53.24 0.035 6.78 2.22 10.27
5/17/2022 11:30:00 PM 11.7 53.06 0.035 6.78 2.07 10.29
5/17/2022 11:45:00 PM 11.59 52.862 0.035 6.77 2.51 10.32
5/18/2022 12:00:00 AM 11.49 52.682 0.035 6.77 2.09 10.35
5/18/2022 12:15:00 AM 11.4 52.52 0.035 6.77 2.08 10.36
5/18/2022 12:30:00 AM 11.31 52.358 0.035 6.77 2.01 10.4
5/18/2022 12:45:00 AM 11.21 52.178 0.035 6.77 2.22 10.43
5/18/2022 1:00:00 AM 11.11 51.998 0.035 6.77 1.99 10.45
5/18/2022 1:15:00 AM 11.02 51.836 0.035 6.77 2.91 10.47
5/18/2022 1:30:00 AM 10.94 51.692 0.035 6.77 2.11 10.49
5/18/2022 1:45:00 AM 10.86 51.548 0.035 6.77 1.98 10.51
5/18/2022 2:00:00 AM 10.76 51.368 0.035 6.77 2.24 10.54
5/18/2022 2:15:00 AM 10.69 51.242 0.035 6.77 2.11 10.56
5/18/2022 2:30:00 AM 10.61 51.098 0.035 6.76 2.32 10.58
5/18/2022 2:45:00 AM 10.52 50.936 0.035 6.77 2.19 10.61
5/18/2022 3:00:00 AM 10.44 50.792 0.035 6.76 2.14 10.63
5/18/2022 3:15:00 AM 10.36 50.648 0.035 6.76 2.14 10.64
5/18/2022 3:30:00 AM 10.27 50.486 0.035 6.77 2.21 10.67
5/18/2022 3:45:00 AM 10.19 50.342 0.035 6.77 2.08 10.69
5/18/2022 4:00:00 AM 10.12 50.216 0.035 6.76 2.16 10.72
5/18/2022 4:15:00 AM 10.04 50.072 0.035 6.76 2.13 10.74
5/18/2022 4:30:00 AM 9.97 49.946 0.035 6.76 2.11 10.75
5/18/2022 4:45:00 AM 9.89 49.802 0.035 6.76 2.39 10.78
5/18/2022 5:00:00 AM 9.82 49.676 0.035 6.76 2.06 10.8
5/18/2022 5:15:00 AM 9.75 49.55 0.035 6.75 2.23 10.82
5/18/2022 5:30:00 AM 9.68 49.424 0.035 6.75 2.14 10.84
5/18/2022 5:45:00 AM 9.6 49.28 0.035 6.75 2.22 10.87
5/18/2022 6:00:00 AM 9.53 49.154 0.035 6.75 2.1 10.89
5/18/2022 6:15:00 AM 9.47 49.046 0.035 6.76 2.09 10.91
5/18/2022 6:30:00 AM 9.4 48.92 0.035 6.76 2.09 10.94
5/18/2022 6:45:00 AM 9.34 48.812 0.035 6.76 2 10.98
5/18/2022 7:00:00 AM 9.29 48.722 0.035 6.76 2.19 10.99
5/18/2022 7:15:00 AM 9.23 48.614 0.035 6.77 2.01 11.04
5/18/2022 7:30:00 AM 9.19 48.542 0.035 6.77 1.99 11.07
5/18/2022 7:45:00 AM 9.15 48.47 0.035 6.78 2.01 11.1
5/18/2022 8:00:00 AM 9.12 48.416 0.035 6.79 1.94 11.13
5/18/2022 8:15:00 AM 9.11 48.398 0.035 6.79 2.01 11.15
5/18/2022 8:30:00 AM 9.11 48.398 0.035 6.8 2.06 11.16
5/18/2022 8:45:00 AM 9.1 48.38 0.035 6.81 1.97 11.17
5/18/2022 9:00:00 AM 9.1 48.38 0.035 6.81 1.98 11.18
5/18/2022 9:15:00 AM 9.12 48.416 0.035 6.82 1.92 11.19
5/18/2022 9:30:00 AM 9.15 48.47 0.035 6.82 1.98 11.19
5/18/2022 9:45:00 AM 9.19 48.542 0.035 6.81 1.91 11.17
5/18/2022 10:00:00 AM 9.25 48.65 0.035 6.83 1.91 11.17
5/18/2022 10:15:00 AM 9.32 48.776 0.034 6.83 1.81 11.17
5/18/2022 10:30:00 AM 9.41 48.938 0.034 6.84 2.28 11.16
5/18/2022 10:45:00 AM 9.52 49.136 0.034 6.85 1.9 11.16
5/18/2022 11:00:00 AM 9.63 49.334 0.034 6.86 1.82 11.14
5/18/2022 11:15:00 AM 9.77 49.586 0.034 6.87 1.84 11.12
5/18/2022 11:30:00 AM 9.91 49.838 0.034 6.88 1.91 11.11
5/18/2022 11:45:00 AM 10.05 50.09 0.034 6.89 1.87 11.08
5/18/2022 12:00:00 PM 10.19 50.342 0.034 6.88 2.29 11.04
5/18/2022 12:15:00 PM 10.32 50.576 0.034 6.9 1.86 11.03
5/18/2022 12:30:00 PM 10.45 50.81 0.034 6.89 1.82 10.98
5/18/2022 12:45:00 PM 10.62 51.116 0.034 6.89 1.94 10.95
5/18/2022 1:00:00 PM 10.86 51.548 0.034 6.92 1.92 10.92
5/18/2022 1:15:00 PM 11.08 51.944 0.034 6.93 1.85 10.89
5/18/2022 1:30:00 PM 11.23 52.214 0.034 6.92 1.9 10.83
5/18/2022 1:45:00 PM 11.43 52.574 0.034 6.94 1.87 10.79
5/18/2022 2:00:00 PM 11.56 52.808 0.034 6.94 1.85 10.75
5/18/2022 2:15:00 PM 11.8 53.24 0.034 6.94 1.89 10.71
5/18/2022 2:30:00 PM 12.01 53.618 0.034 6.94 1.93 10.66
5/18/2022 2:45:00 PM 12.21 53.978 0.034 6.96 1.88 10.61
5/18/2022 3:00:00 PM 12.14 53.852 0.034 6.93 1.88 10.55
5/18/2022 3:15:00 PM 12.13 53.834 0.034 6.92 1.85 10.5
5/18/2022 3:30:00 PM 12.16 53.888 0.034 6.9 1.88 10.44
5/18/2022 3:45:00 PM 12.25 54.05 0.034 6.9 1.83 10.43
5/18/2022 4:00:00 PM 12.24 54.032 0.034 6.87 1.83 10.38
5/18/2022 4:15:00 PM 12.24 54.032 0.034 6.88 1.86 10.35
5/18/2022 4:30:00 PM 12.23 54.014 0.034 6.85 1.92 10.31
5/18/2022 4:45:00 PM 12.25 54.05 0.034 6.84 2.01 10.27
5/18/2022 5:00:00 PM 12.24 54.032 0.034 6.81 1.98 10.23
5/18/2022 5:15:00 PM 12.23 54.014 0.034 6.8 2 10.21
5/18/2022 5:30:00 PM 12.25 54.05 0.034 6.81 1.85 10.23
5/18/2022 5:45:00 PM 12.23 54.014 0.034 6.8 1.82 10.22
5/18/2022 6:00:00 PM 12.2 53.96 0.034 6.78 1.94 10.21
5/18/2022 6:15:00 PM 12.17 53.906 0.034 6.79 1.94 10.21
5/18/2022 6:30:00 PM 12.15 53.87 0.034 6.79 1.96 10.22
5/18/2022 6:45:00 PM 12.11 53.798 0.035 6.79 1.94 10.22
5/18/2022 7:00:00 PM 12.07 53.726 0.035 6.78 1.94 10.21
5/18/2022 7:15:00 PM 12.04 53.672 0.035 6.78 1.98 10.21
5/18/2022 7:30:00 PM 11.99 53.582 0.035 6.78 1.98 10.2
5/18/2022 7:45:00 PM 11.95 53.51 0.035 6.77 1.94 10.22
5/18/2022 8:00:00 PM 11.9 53.42 0.035 6.76 2.02 10.21
5/18/2022 8:15:00 PM 11.84 53.312 0.035 6.76 2.1 10.23
5/18/2022 8:30:00 PM 11.77 53.186 0.035 6.76 1.96 10.21
5/18/2022 8:45:00 PM 11.72 53.096 0.035 6.77 2.11 10.24
5/18/2022 9:00:00 PM 11.67 53.006 0.035 6.77 2.02 10.26
5/18/2022 9:15:00 PM 11.61 52.898 0.035 6.78 2.16 10.27
5/18/2022 9:30:00 PM 11.55 52.79 0.035 6.77 2.41 10.29
5/18/2022 9:45:00 PM 11.5 52.7 0.035 6.76 2.35 10.28
5/18/2022 10:00:00 PM 11.45 52.61 0.035 6.77 2.08 10.3
5/18/2022 10:15:00 PM 11.41 52.538 0.035 6.77 2.37 10.31
5/18/2022 10:30:00 PM 11.36 52.448 0.035 6.77 2.4 10.33
5/18/2022 10:45:00 PM 11.32 52.376 0.035 6.76 2.33 10.34
5/18/2022 11:00:00 PM 11.27 52.286 0.035 6.76 2.29 10.35
5/18/2022 11:15:00 PM 11.23 52.214 0.035 6.77 2.19 10.36
5/18/2022 11:30:00 PM 11.2 52.16 0.035 6.77 2.16 10.36
5/18/2022 11:45:00 PM 11.16 52.088 0.035 6.76 2.33 10.37
5/19/2022 12:00:00 AM 11.13 52.034 0.035 6.76 2.22 10.37
5/19/2022 12:15:00 AM 11.09 51.962 0.035 6.76 2.32 10.38
5/19/2022 12:30:00 AM 11.06 51.908 0.035 6.76 2.34 10.4
5/19/2022 12:45:00 AM 11.03 51.854 0.035 6.76 2.38 10.41
5/19/2022 1:00:00 AM 11 51.8 0.035 6.76 2.28 10.41
5/19/2022 1:15:00 AM 10.97 51.746 0.035 6.76 2.46 10.42
5/19/2022 1:30:00 AM 10.93 51.674 0.035 6.77 2.22 10.43
5/19/2022 1:45:00 AM 10.91 51.638 0.035 6.76 2.23 10.44
5/19/2022 2:00:00 AM 10.88 51.584 0.035 6.76 2.23 10.44
5/19/2022 2:15:00 AM 10.85 51.53 0.035 6.75 2.21 10.44
5/19/2022 2:30:00 AM 10.83 51.494 0.035 6.75 2.13 10.44
5/19/2022 2:45:00 AM 10.81 51.458 0.035 6.76 2.38 10.46
5/19/2022 3:00:00 AM 10.78 51.404 0.035 6.76 2.22 10.46
5/19/2022 3:15:00 AM 10.76 51.368 0.035 6.75 2.21 10.46
5/19/2022 3:30:00 AM 10.74 51.332 0.035 6.75 2.19 10.47
5/19/2022 3:45:00 AM 10.72 51.296 0.035 6.75 2.27 10.48
5/19/2022 4:00:00 AM 10.7 51.26 0.035 6.75 2.32 10.48
5/19/2022 4:15:00 AM 10.69 51.242 0.035 6.75 2.32 10.48
5/19/2022 4:30:00 AM 10.67 51.206 0.035 6.75 2.14 10.49
5/19/2022 4:45:00 AM 10.65 51.17 0.035 6.75 2.13 10.49
5/19/2022 5:00:00 AM 10.63 51.134 0.035 6.75 2.2 10.49
5/19/2022 5:15:00 AM 10.62 51.116 0.035 6.74 2.2 10.5
5/19/2022 5:30:00 AM 10.6 51.08 0.035 6.75 2.14 10.5
5/19/2022 5:45:00 AM 10.59 51.062 0.035 6.74 2.2 10.5
5/19/2022 6:00:00 AM 10.57 51.026 0.035 6.74 2.23 10.5
5/19/2022 6:15:00 AM 10.56 51.008 0.035 6.74 2.71 10.48
5/19/2022 6:30:00 AM 10.55 50.99 0.035 6.75 2.19 10.51
5/19/2022 6:45:00 AM 10.53 50.954 0.035 6.74 2.23 10.52
5/19/2022 7:00:00 AM 10.52 50.936 0.035 6.75 2.34 10.53
5/19/2022 7:15:00 AM 10.52 50.936 0.035 6.75 2.09 10.54
5/19/2022 7:30:00 AM 10.51 50.918 0.035 6.75 2.02 10.55
5/19/2022 7:45:00 AM 10.5 50.9 0.035 6.75 2.01 10.57
5/19/2022 8:00:00 AM 10.49 50.882 0.035 6.75 1.99 10.56
5/19/2022 8:15:00 AM 10.49 50.882 0.035 6.75 2.04 10.57
5/19/2022 8:30:00 AM 10.49 50.882 0.035 6.76 2.06 10.59
5/19/2022 8:45:00 AM 10.49 50.882 0.035 6.76 2.08 10.62
5/19/2022 9:00:00 AM 10.5 50.9 0.035 6.76 1.99 10.63
5/19/2022 9:15:00 AM 10.51 50.918 0.035 6.77 3.16 10.65
5/19/2022 9:30:00 AM 10.52 50.936 0.035 6.78 2.14 10.67
5/19/2022 9:45:00 AM 10.53 50.954 0.035 6.79 1.94 10.68
5/19/2022 10:00:00 AM 10.55 50.99 0.035 6.79 2.1 10.68
5/19/2022 10:15:00 AM 10.57 51.026 0.035 6.79 2 10.69
5/19/2022 10:30:00 AM 10.59 51.062 0.035 6.81 1.95 10.69
5/19/2022 10:45:00 AM 10.61 51.098 0.035 6.82 2.31 10.68
5/19/2022 11:00:00 AM 10.62 51.116 0.035 6.81 1.89 10.67
5/19/2022 11:15:00 AM 10.63 51.134 0.035 6.81 2.03 10.67
5/19/2022 11:30:00 AM 10.65 51.17 0.035 6.81 2.02 10.67
5/19/2022 11:45:00 AM 10.67 51.206 0.035 6.81 1.99 10.67
5/19/2022 12:00:00 PM 10.7 51.26 0.035 6.82 2.04 10.69
5/19/2022 12:15:00 PM 10.73 51.314 0.035 6.82 1.93 10.7
5/19/2022 12:30:00 PM 10.76 51.368 0.035 6.83 2.02 10.69
5/19/2022 12:45:00 PM 10.8 51.44 0.035 6.83 2 10.7
5/19/2022 1:00:00 PM 10.9 51.62 0.034 6.85 3.1 10.72
5/19/2022 1:15:00 PM 10.96 51.728 0.034 6.87 2.44 10.72
5/19/2022 1:30:00 PM 11.13 52.034 0.034 6.87 1.91 10.73
5/19/2022 1:45:00 PM 11.22 52.196 0.034 6.89 1.86 10.72
5/19/2022 2:00:00 PM 11.41 52.538 0.034 6.9 2.02 10.67
5/19/2022 2:15:00 PM 11.4 52.52 0.034 6.89 1.89 10.65
5/19/2022 2:30:00 PM 11.5 52.7 0.034 6.89 1.99 10.6
5/19/2022 2:45:00 PM 11.66 52.988 0.034 6.9 2.05 10.57
5/19/2022 3:00:00 PM 11.81 53.258 0.034 6.9 2.68 10.54
5/19/2022 3:15:00 PM 12.03 53.654 0.034 6.91 2.64 10.51
5/19/2022 3:30:00 PM 12.17 53.906 0.034 6.9 2.69 10.47
5/19/2022 3:45:00 PM 12.31 54.158 0.034 6.91 2.55 10.43
5/19/2022 4:00:00 PM 12.48 54.464 0.034 6.9 2.71 10.39
5/19/2022 4:15:00 PM 12.61 54.698 0.034 6.92 3.14 10.33
5/19/2022 4:30:00 PM 12.68 54.824 0.034 6.9 1.93 10.27
5/19/2022 4:45:00 PM 12.74 54.932 0.034 6.89 5.01 10.24
5/19/2022 5:00:00 PM 12.82 55.076 0.034 6.88 2.07 10.21
5/19/2022 5:15:00 PM 12.89 55.202 0.034 6.88 1.94 10.18
5/19/2022 5:30:00 PM 12.91 55.238 0.034 6.86 1.82 10.14
5/19/2022 5:45:00 PM 12.95 55.31 0.034 6.85 2.29 10.11
5/19/2022 6:00:00 PM 12.99 55.382 0.034 6.85 1.99 10.1
5/19/2022 6:15:00 PM 12.97 55.346 0.034 6.83 1.92 10.05
5/19/2022 6:30:00 PM 12.96 55.328 0.034 6.82 1.86 10.02
5/19/2022 6:45:00 PM 12.97 55.346 0.034 6.82 1.88 10.02
5/19/2022 7:00:00 PM 12.95 55.31 0.034 6.8 2.38 9.99
5/19/2022 7:15:00 PM 12.93 55.274 0.034 6.8 2.05 9.98
5/19/2022 7:30:00 PM 12.89 55.202 0.035 6.79 1.9 9.99
5/19/2022 7:45:00 PM 12.85 55.13 0.035 6.79 2.01 10
5/19/2022 8:00:00 PM 12.79 55.022 0.035 6.78 1.9 10
5/19/2022 8:15:00 PM 12.72 54.896 0.035 6.77 2.44 9.99
5/19/2022 8:30:00 PM 12.67 54.806 0.035 6.77 1.89 10
5/19/2022 8:45:00 PM 12.61 54.698 0.035 6.76 1.87 10.01
5/19/2022 9:00:00 PM 12.55 54.59 0.035 6.76 1.99 10.02
5/19/2022 9:15:00 PM 12.49 54.482 0.035 6.76 1.95 10.04
5/19/2022 9:30:00 PM 12.44 54.392 0.035 6.75 2.02 10.05
5/19/2022 9:45:00 PM 12.37 54.266 0.035 6.75 2.15 10.06
5/19/2022 10:00:00 PM 12.3 54.14 0.035 6.75 2 10.07
5/19/2022 10:15:00 PM 12.24 54.032 0.035 6.74 2.33 10.09
5/19/2022 10:30:00 PM 12.17 53.906 0.035 6.74 2.04 10.11
5/19/2022 10:45:00 PM 12.11 53.798 0.035 6.75 2.01 10.12
5/19/2022 11:00:00 PM 12.05 53.69 0.035 6.75 2.39 10.14
5/19/2022 11:15:00 PM 11.99 53.582 0.035 6.75 2.01 10.17
5/19/2022 11:30:00 PM 11.93 53.474 0.035 6.74 2.07 10.16
5/19/2022 11:45:00 PM 11.88 53.384 0.035 6.74 2.03 10.2
5/20/2022 12:00:00 AM 11.82 53.276 0.035 6.75 2.11 10.2
5/20/2022 12:15:00 AM 11.77 53.186 0.035 6.73 2.11 10.21
5/20/2022 12:30:00 AM 11.72 53.096 0.035 6.74 2.19 10.22
5/20/2022 12:45:00 AM 11.66 52.988 0.035 6.74 2.08 10.24
5/20/2022 1:00:00 AM 11.61 52.898 0.035 6.75 2.09 10.27
5/20/2022 1:15:00 AM 11.56 52.808 0.035 6.74 2.05 10.26
5/20/2022 1:30:00 AM 11.51 52.718 0.035 6.74 2 10.27
5/20/2022 1:45:00 AM 11.46 52.628 0.035 6.73 2.17 10.28
5/20/2022 2:00:00 AM 11.41 52.538 0.035 6.75 2.05 10.31
5/20/2022 2:15:00 AM 11.36 52.448 0.035 6.74 2.04 10.32
5/20/2022 2:30:00 AM 11.3 52.34 0.035 6.74 2.2 10.33
5/20/2022 2:45:00 AM 11.26 52.268 0.035 6.73 2.12 10.32
5/20/2022 3:00:00 AM 11.21 52.178 0.035 6.73 2.08 10.33
5/20/2022 3:15:00 AM 11.15 52.07 0.035 6.74 2.27 10.37
5/20/2022 3:30:00 AM 11.11 51.998 0.035 6.73 2.09 10.37
5/20/2022 3:45:00 AM 11.05 51.89 0.035 6.73 2.15 10.38
5/20/2022 4:00:00 AM 11 51.8 0.035 6.72 2.04 10.4
5/20/2022 4:15:00 AM 10.95 51.71 0.035 6.73 2.1 10.41
5/20/2022 4:30:00 AM 10.91 51.638 0.035 6.73 2.15 10.43
5/20/2022 4:45:00 AM 10.86 51.548 0.035 6.73 2.11 10.44
5/20/2022 5:00:00 AM 10.81 51.458 0.035 6.73 2 10.47
5/20/2022 5:15:00 AM 10.76 51.368 0.035 6.73 2.15 10.48
5/20/2022 5:30:00 AM 10.71 51.278 0.035 6.72 2.08 10.49
5/20/2022 5:45:00 AM 10.67 51.206 0.035 6.72 2.49 10.49
5/20/2022 6:00:00 AM 10.63 51.134 0.035 6.72 2.1 10.5
5/20/2022 6:15:00 AM 10.6 51.08 0.035 6.72 2.02 10.52
5/20/2022 6:30:00 AM 10.57 51.026 0.035 6.72 2.1 10.54
5/20/2022 6:45:00 AM 10.54 50.972 0.035 6.73 1.98 10.56
5/20/2022 7:00:00 AM 10.51 50.918 0.035 6.73 2.11 10.59
5/20/2022 7:15:00 AM 10.5 50.9 0.035 6.74 2.14 10.62
5/20/2022 7:30:00 AM 10.48 50.864 0.035 6.73 1.91 10.61
5/20/2022 7:45:00 AM 10.48 50.864 0.035 6.75 1.96 10.64
5/20/2022 8:00:00 AM 10.47 50.846 0.035 6.76 1.95 10.7
5/20/2022 8:15:00 AM 10.48 50.864 0.035 6.76 2.01 10.7
5/20/2022 8:30:00 AM 10.48 50.864 0.035 6.76 1.9 10.71
5/20/2022 8:45:00 AM 10.49 50.882 0.035 6.77 1.96 10.73
5/20/2022 9:00:00 AM 10.51 50.918 0.035 6.78 2.03 10.74
5/20/2022 9:15:00 AM 10.54 50.972 0.035 6.79 1.92 10.76
5/20/2022 9:30:00 AM 10.58 51.044 0.035 6.81 1.93 10.79
5/20/2022 9:45:00 AM 10.63 51.134 0.035 6.81 1.93 10.79
5/20/2022 10:00:00 AM 10.69 51.242 0.035 6.82 1.98 10.8
5/20/2022 10:15:00 AM 10.71 51.278 0.035 6.81 1.93 10.75
5/20/2022 10:30:00 AM 10.76 51.368 0.035 6.82 1.96 10.75
5/20/2022 10:45:00 AM 10.82 51.476 0.035 6.82 1.94 10.73
5/20/2022 11:00:00 AM 10.89 51.602 0.034 6.83 1.95 10.76
5/20/2022 11:15:00 AM 10.98 51.764 0.034 6.84 2.03 10.76
5/20/2022 11:30:00 AM 11.07 51.926 0.034 6.86 1.95 10.75
5/20/2022 11:45:00 AM 11.2 52.16 0.034 6.87 1.95 10.73
5/20/2022 12:00:00 PM 11.29 52.322 0.034 6.87 2.06 10.71
5/20/2022 12:15:00 PM 11.38 52.484 0.034 6.89 1.86 10.68
5/20/2022 12:30:00 PM 11.46 52.628 0.034 6.87 1.85 10.6
5/20/2022 12:45:00 PM 11.53 52.754 0.034 6.85 1.96 10.52
5/20/2022 1:00:00 PM 11.68 53.024 0.034 6.86 2.13 10.57
5/20/2022 1:15:00 PM 11.86 53.348 0.034 6.87 2.39 10.55
5/20/2022 1:30:00 PM 11.89 53.402 0.034 6.88 2.02 10.52
5/20/2022 1:45:00 PM 12.01 53.618 0.034 6.88 2.03 10.52
5/20/2022 2:00:00 PM 12.08 53.744 0.034 6.89 1.89 10.49
5/20/2022 2:15:00 PM 12.15 53.87 0.034 6.88 1.94 10.45
5/20/2022 2:30:00 PM 12.2 53.96 0.034 6.85 1.89 10.33
5/20/2022 2:45:00 PM 12.27 54.086 0.034 6.84 1.87 10.3
5/20/2022 3:00:00 PM 12.31 54.158 0.034 6.84 1.89 10.33
5/20/2022 3:15:00 PM 12.36 54.248 0.034 6.85 1.88 10.3
5/20/2022 3:30:00 PM 12.38 54.284 0.034 6.83 1.9 10.25
5/20/2022 3:45:00 PM 12.4 54.32 0.034 6.83 1.93 10.24
5/20/2022 4:00:00 PM 12.4 54.32 0.034 6.82 1.87 10.24
5/20/2022 4:15:00 PM 12.44 54.392 0.034 6.82 1.93 10.22
5/20/2022 4:30:00 PM 12.46 54.428 0.034 6.81 1.9 10.22
5/20/2022 4:45:00 PM 12.49 54.482 0.034 6.8 1.93 10.2
5/20/2022 5:00:00 PM 12.49 54.482 0.034 6.79 1.94 10.17
5/20/2022 5:15:00 PM 12.51 54.518 0.034 6.79 1.91 10.16
5/20/2022 5:30:00 PM 12.53 54.554 0.034 6.78 2.01 10.15
5/20/2022 5:45:00 PM 12.52 54.536 0.035 6.76 2.09 10.14
5/20/2022 6:00:00 PM 12.52 54.536 0.035 6.76 2.01 10.15
5/20/2022 6:15:00 PM 12.56 54.608 0.035 6.78 2.18 10.2
5/20/2022 6:30:00 PM 12.55 54.59 0.035 6.77 2.01 10.2
5/20/2022 6:45:00 PM 12.55 54.59 0.035 6.77 2.42 10.19
5/20/2022 7:00:00 PM 12.55 54.59 0.035 6.77 1.91 10.17
5/20/2022 7:15:00 PM 12.53 54.554 0.035 6.76 1.98 10.14
5/20/2022 7:30:00 PM 12.52 54.536 0.035 6.75 2.33 10.15
5/20/2022 7:45:00 PM 12.49 54.482 0.035 6.74 2 10.11
5/20/2022 8:00:00 PM 12.47 54.446 0.035 6.72 2.08 10.11
5/20/2022 8:15:00 PM 12.46 54.428 0.035 6.72 1.98 10.09
5/20/2022 8:30:00 PM 12.43 54.374 0.035 6.71 2.23 10.08
5/20/2022 8:45:00 PM 12.4 54.32 0.035 6.69 2.02 10.07
5/20/2022 9:00:00 PM 12.37 54.266 0.035 6.69 2.21 10.06
5/20/2022 9:15:00 PM 12.37 54.266 0.035 6.69 2.16 10.07
5/20/2022 9:30:00 PM 12.34 54.212 0.035 6.68 2.12 10.08
5/20/2022 9:45:00 PM 12.3 54.14 0.035 6.67 2.03 10.05
5/20/2022 10:00:00 PM 12.28 54.104 0.035 6.67 2.11 10.08
5/20/2022 10:15:00 PM 12.25 54.05 0.035 6.66 2.06 10.09
5/20/2022 10:30:00 PM 12.23 54.014 0.035 6.67 2.33 10.09
5/20/2022 10:45:00 PM 12.2 53.96 0.036 6.66 2.29 10.09
5/20/2022 11:00:00 PM 12.18 53.924 0.036 6.65 2.33 10.12
5/20/2022 11:15:00 PM 12.15 53.87 0.036 6.65 2.27 10.11
5/20/2022 11:30:00 PM 12.12 53.816 0.036 6.65 2.05 10.12
5/20/2022 11:45:00 PM 12.09 53.762 0.036 6.64 2.06 10.12
5/21/2022 12:00:00 AM 12.08 53.744 0.036 6.65 2.09 10.15
5/21/2022 12:15:00 AM 12.04 53.672 0.036 6.64 2.11 10.15
5/21/2022 12:30:00 AM 12.02 53.636 0.036 6.64 2.16 10.15
5/21/2022 12:45:00 AM 11.99 53.582 0.036 6.64 2.07 10.17
5/21/2022 1:00:00 AM 11.97 53.546 0.036 6.64 2.09 10.17
5/21/2022 1:15:00 AM 11.94 53.492 0.036 6.64 2.26 10.18
5/21/2022 1:30:00 AM 11.91 53.438 0.036 6.64 2.34 10.19
5/21/2022 1:45:00 AM 11.89 53.402 0.036 6.63 2.32 10.19
5/21/2022 2:00:00 AM 11.86 53.348 0.036 6.64 2.05 10.21
5/21/2022 2:15:00 AM 11.84 53.312 0.036 6.64 2.1 10.21
5/21/2022 2:30:00 AM 11.82 53.276 0.036 6.63 2.06 10.21
5/21/2022 2:45:00 AM 11.79 53.222 0.036 6.62 2.17 10.23
5/21/2022 3:00:00 AM 11.76 53.168 0.036 6.61 1.99 10.2
5/21/2022 3:15:00 AM 11.76 53.168 0.036 6.63 2.4 10.24
5/21/2022 3:30:00 AM 11.73 53.114 0.036 6.62 2.27 10.23
5/21/2022 3:45:00 AM 11.71 53.078 0.036 6.62 2.28 10.24
5/21/2022 4:00:00 AM 11.7 53.06 0.036 6.62 2.12 10.25
5/21/2022 4:15:00 AM 11.68 53.024 0.036 6.62 2.06 10.24
5/21/2022 4:30:00 AM 11.66 52.988 0.036 6.62 2.4 10.26
5/21/2022 4:45:00 AM 11.64 52.952 0.036 6.61 2.22 10.25
5/21/2022 5:00:00 AM 11.62 52.916 0.036 6.61 2.22 10.26
5/21/2022 5:15:00 AM 11.61 52.898 0.036 6.61 2.18 10.27
5/21/2022 5:30:00 AM 11.59 52.862 0.036 6.6 2.16 10.26
5/21/2022 5:45:00 AM 11.58 52.844 0.036 6.6 2.09 10.27
5/21/2022 6:00:00 AM 11.57 52.826 0.036 6.6 2.4 10.29
5/21/2022 6:15:00 AM 11.55 52.79 0.036 6.59 2.15 10.28
5/21/2022 6:30:00 AM 11.55 52.79 0.036 6.6 2.1 10.32
5/21/2022 6:45:00 AM 11.54 52.772 0.036 6.59 2.2 10.32
5/21/2022 7:00:00 AM 11.54 52.772 0.036 6.6 2.19 10.35
5/21/2022 7:15:00 AM 11.53 52.754 0.036 6.61 2.08 10.37
5/21/2022 7:30:00 AM 11.53 52.754 0.036 6.61 2.01 10.37
5/21/2022 7:45:00 AM 11.53 52.754 0.036 6.62 2.12 10.4
5/21/2022 8:00:00 AM 11.53 52.754 0.036 6.62 2.14 10.41
5/21/2022 8:15:00 AM 11.53 52.754 0.036 6.62 2.28 10.43
5/21/2022 8:30:00 AM 11.55 52.79 0.036 6.62 2.06 10.44
5/21/2022 8:45:00 AM 11.56 52.808 0.036 6.65 2.17 10.44
5/21/2022 9:00:00 AM 11.58 52.844 0.036 6.69 2.07 10.43
5/21/2022 9:15:00 AM 11.62 52.916 0.036 6.71 2 10.44
5/21/2022 9:30:00 AM 11.68 53.024 0.036 6.74 2.11 10.45
5/21/2022 9:45:00 AM 11.7 53.06 0.036 6.73 2.14 10.42
5/21/2022 10:00:00 AM 11.78 53.204 0.036 6.76 2.11 10.44
5/21/2022 10:15:00 AM 11.82 53.276 0.035 6.76 2.14 10.42
5/21/2022 10:30:00 AM 11.91 53.438 0.035 6.78 1.99 10.41
5/21/2022 10:45:00 AM 12.04 53.672 0.035 6.79 2.03 10.41
5/21/2022 11:00:00 AM 12.19 53.942 0.035 6.82 2.05 10.42
5/21/2022 11:15:00 AM 12.31 54.158 0.035 6.82 2.25 10.4
5/21/2022 11:30:00 AM 12.49 54.482 0.035 6.83 2.03 10.4
5/21/2022 11:45:00 AM 12.66 54.788 0.035 6.85 2.08 10.36
5/21/2022 12:00:00 PM 12.86 55.148 0.035 6.85 3.57 10.37
5/21/2022 12:15:00 PM 13.07 55.526 0.035 6.87 2.34 10.34
5/21/2022 12:30:00 PM 13.23 55.814 0.035 6.88 2.8 10.31
5/21/2022 12:45:00 PM 13.46 56.228 0.035 6.88 2.1 10.26
5/21/2022 1:00:00 PM 13.73 56.714 0.034 6.9 2.02 10.23
5/21/2022 1:15:00 PM 13.99 57.182 0.034 6.91 1.96 10.19
5/21/2022 1:30:00 PM 14.24 57.632 0.034 6.91 1.89 10.13
5/21/2022 1:45:00 PM 14.48 58.064 0.034 6.91 2.01 10.11
5/21/2022 2:00:00 PM 14.69 58.442 0.034 6.93 1.94 10.06
5/21/2022 2:15:00 PM 14.83 58.694 0.034 6.92 2 9.99
5/21/2022 2:30:00 PM 15.04 59.072 0.034 6.92 2.02 9.96
5/21/2022 2:45:00 PM 15.25 59.45 0.034 6.93 1.91 9.9
5/21/2022 3:00:00 PM 15.32 59.576 0.034 6.92 2.01 9.85
5/21/2022 3:15:00 PM 15.38 59.684 0.034 6.92 1.95 9.83
5/21/2022 3:30:00 PM 15.44 59.792 0.034 6.92 1.91 9.79
5/21/2022 3:45:00 PM 15.48 59.864 0.034 6.91 1.92 9.75
5/21/2022 4:00:00 PM 15.54 59.972 0.034 6.9 2.04 9.72
5/21/2022 4:15:00 PM 15.6 60.08 0.034 6.9 2.02 9.71
5/21/2022 4:30:00 PM 15.6 60.08 0.034 6.89 1.9 9.68
5/21/2022 4:45:00 PM 15.65 60.17 0.034 6.89 2 9.67
5/21/2022 5:00:00 PM 15.66 60.188 0.034 6.88 2.04 9.64
5/21/2022 5:15:00 PM 15.71 60.278 0.034 6.88 2.11 9.64
5/21/2022 5:30:00 PM 15.7 60.26 0.034 6.87 1.86 9.61
5/21/2022 5:45:00 PM 15.66 60.188 0.034 6.85 2 9.57
5/21/2022 6:00:00 PM 15.65 60.17 0.035 6.85 2.01 9.55
5/21/2022 6:15:00 PM 15.65 60.17 0.035 6.83 2.04 9.52
5/21/2022 6:30:00 PM 15.57 60.026 0.035 6.81 2.71 9.49
5/21/2022 6:45:00 PM 15.54 59.972 0.035 6.8 1.91 9.48
5/21/2022 7:00:00 PM 15.47 59.846 0.035 6.78 2.18 9.45
5/21/2022 7:15:00 PM 15.44 59.792 0.035 6.78 2.29 9.45
5/21/2022 7:30:00 PM 15.38 59.684 0.035 6.76 2.16 9.43
5/21/2022 7:45:00 PM 15.33 59.594 0.035 6.75 2.01 9.43
5/21/2022 8:00:00 PM 15.28 59.504 0.035 6.74 2.07 9.45
5/21/2022 8:15:00 PM 15.21 59.378 0.035 6.74 2.02 9.45
5/21/2022 8:30:00 PM 15.14 59.252 0.035 6.72 2.1 9.46
5/21/2022 8:45:00 PM 15.06 59.108 0.035 6.72 2.13 9.47
5/21/2022 9:00:00 PM 15.01 59.018 0.036 6.71 2.37 9.49
5/21/2022 9:15:00 PM 14.91 58.838 0.036 6.7 2.34 9.49
5/21/2022 9:30:00 PM 14.85 58.73 0.036 6.7 2.11 9.52
5/21/2022 9:45:00 PM 14.78 58.604 0.036 6.69 2.26 9.52
5/21/2022 10:00:00 PM 14.69 58.442 0.036 6.69 2.2 9.54
5/21/2022 10:15:00 PM 14.63 58.334 0.036 6.69 2.24 9.57
5/21/2022 10:30:00 PM 14.57 58.226 0.036 6.7 2.24 9.59
5/21/2022 10:45:00 PM 14.5 58.1 0.036 6.69 2.45 9.6
5/21/2022 11:00:00 PM 14.43 57.974 0.036 6.69 2.22 9.62
5/21/2022 11:15:00 PM 14.36 57.848 0.036 6.69 2.72 9.63
5/21/2022 11:30:00 PM 14.32 57.776 0.036 6.71 2.3 9.66
5/21/2022 11:45:00 PM 14.25 57.65 0.036 6.71 2.36 9.67
5/22/2022 12:00:00 AM 14.19 57.542 0.036 6.7 2.42 9.68
5/22/2022 12:15:00 AM 14.12 57.416 0.036 6.7 2.46 9.69
5/22/2022 12:30:00 AM 14.06 57.308 0.036 6.7 2.28 9.71
5/22/2022 12:45:00 AM 14 57.2 0.036 6.69 2.34 9.73
5/22/2022 1:00:00 AM 13.94 57.092 0.036 6.7 2.36 9.74
5/22/2022 1:15:00 AM 13.89 57.002 0.036 6.7 2.55 9.76
5/22/2022 1:30:00 AM 13.83 56.894 0.036 6.69 2.48 9.76
5/22/2022 1:45:00 AM 13.77 56.786 0.036 6.69 2.31 9.77
5/22/2022 2:00:00 AM 13.71 56.678 0.036 6.67 2.36 9.78
5/22/2022 2:15:00 AM 13.67 56.606 0.036 6.68 2.35 9.79
5/22/2022 2:30:00 AM 13.62 56.516 0.036 6.69 2.37 9.81
5/22/2022 2:45:00 AM 13.57 56.426 0.036 6.69 2.56 9.84
5/22/2022 3:00:00 AM 13.5 56.3 0.036 6.69 2.67 9.83
5/22/2022 3:15:00 AM 13.46 56.228 0.036 6.69 2.6 9.84
5/22/2022 3:30:00 AM 13.41 56.138 0.036 6.7 2.55 9.86
5/22/2022 3:45:00 AM 13.36 56.048 0.036 6.7 2.37 9.87
5/22/2022 4:00:00 AM 13.31 55.958 0.036 6.7 2.37 9.87
5/22/2022 4:15:00 AM 13.26 55.868 0.036 6.7 2.4 9.89
5/22/2022 4:30:00 AM 13.21 55.778 0.036 6.7 2.4 9.9
5/22/2022 4:45:00 AM 13.16 55.688 0.036 6.7 2.39 9.91
5/22/2022 5:00:00 AM 13.11 55.598 0.036 6.71 2.44 9.93
5/22/2022 5:15:00 AM 13.07 55.526 0.036 6.71 2.41 9.94
5/22/2022 5:30:00 AM 13.01 55.418 0.036 6.7 2.52 9.94
5/22/2022 5:45:00 AM 12.97 55.346 0.036 6.72 2.53 9.98
5/22/2022 6:00:00 AM 12.92 55.256 0.036 6.72 2.41 9.98
5/22/2022 6:15:00 AM 12.88 55.184 0.036 6.72 2.46 10.01
5/22/2022 6:30:00 AM 12.83 55.094 0.036 6.72 2.5 10.02
5/22/2022 6:45:00 AM 12.79 55.022 0.036 6.72 2.4 10.04
5/22/2022 7:00:00 AM 12.76 54.968 0.036 6.73 2.44 10.07
5/22/2022 7:15:00 AM 12.72 54.896 0.036 6.74 2.31 10.09
5/22/2022 7:30:00 AM 12.68 54.824 0.036 6.73 2.55 10.1
5/22/2022 7:45:00 AM 12.66 54.788 0.036 6.74 2.36 10.12
5/22/2022 8:00:00 AM 12.64 54.752 0.036 6.75 2.39 10.17
5/22/2022 8:15:00 AM 12.63 54.734 0.036 6.75 2.4 10.17
5/22/2022 8:30:00 AM 12.62 54.716 0.036 6.76 2.26 10.21
5/22/2022 8:45:00 AM 12.63 54.734 0.036 6.76 2.34 10.25
5/22/2022 9:00:00 AM 12.64 54.752 0.036 6.76 2.34 10.26
5/22/2022 9:15:00 AM 12.67 54.806 0.036 6.78 2.26 10.28
5/22/2022 9:30:00 AM 12.67 54.806 0.036 6.76 2.23 10.25
5/22/2022 9:45:00 AM 12.72 54.896 0.035 6.79 2.3 10.28
5/22/2022 10:00:00 AM 12.78 55.004 0.035 6.8 2.28 10.31
5/22/2022 10:15:00 AM 12.84 55.112 0.035 6.82 2.24 10.32
5/22/2022 10:30:00 AM 12.89 55.202 0.035 6.83 2.3 10.31
5/22/2022 10:45:00 AM 12.94 55.292 0.035 6.84 2.26 10.3
5/22/2022 11:00:00 AM 13.01 55.418 0.035 6.85 2.33 10.27
5/22/2022 11:15:00 AM 13.09 55.562 0.035 6.84 2.41 10.23
5/22/2022 11:30:00 AM 13.19 55.742 0.035 6.85 2.3 10.24
5/22/2022 11:45:00 AM 13.36 56.048 0.035 6.87 2.31 10.25
5/22/2022 12:00:00 PM 13.55 56.39 0.035 6.89 2.31 10.22
5/22/2022 12:15:00 PM 13.65 56.57 0.035 6.88 2.21 10.18
5/22/2022 12:30:00 PM 13.81 56.858 0.035 6.88 2.28 10.14
5/22/2022 12:45:00 PM 14.08 57.344 0.035 6.9 2.28 10.11
5/22/2022 1:00:00 PM 14.31 57.758 0.035 6.91 2.14 10.04
5/22/2022 1:15:00 PM 14.27 57.686 0.035 6.85 2.32 9.9
5/22/2022 1:30:00 PM 14.56 58.208 0.035 6.89 2.29 9.97
5/22/2022 1:45:00 PM 14.71 58.478 0.035 6.91 2.3 9.93
5/22/2022 2:00:00 PM 14.9 58.82 0.034 6.91 2.39 9.93
5/22/2022 2:15:00 PM 15.1 59.18 0.034 6.92 2.24 9.9
5/22/2022 2:30:00 PM 15.2 59.36 0.035 6.91 2.23 9.86
5/22/2022 2:45:00 PM 15.38 59.684 0.034 6.93 2.5 9.87
5/22/2022 3:00:00 PM 15.4 59.72 0.035 6.92 2.28 9.82
5/22/2022 3:15:00 PM 15.53 59.954 0.035 6.92 2.16 9.8
5/22/2022 3:30:00 PM 15.57 60.026 0.035 6.91 2.09 9.74
5/22/2022 3:45:00 PM 15.52 59.936 0.035 6.9 2.46 9.67
5/22/2022 4:00:00 PM 15.55 59.99 0.035 6.89 2.4 9.7
5/22/2022 4:15:00 PM 15.56 60.008 0.035 6.87 2.23 9.62
5/22/2022 4:30:00 PM 15.54 59.972 0.035 6.85 2.3 9.53
5/22/2022 4:45:00 PM 15.48 59.864 0.035 6.81 2.36 9.49
5/22/2022 5:00:00 PM 15.49 59.882 0.035 6.84 2.42 9.53
5/22/2022 5:15:00 PM 15.46 59.828 0.035 6.84 2.43 9.58
5/22/2022 5:30:00 PM 15.42 59.756 0.035 6.83 2.28 9.53
5/22/2022 5:45:00 PM 15.4 59.72 0.035 6.81 2.28 9.5
5/22/2022 6:00:00 PM 15.38 59.684 0.035 6.8 2.23 9.47
5/22/2022 6:15:00 PM 15.4 59.72 0.035 6.8 2.2 9.48
5/22/2022 6:30:00 PM 15.38 59.684 0.035 6.8 2.26 9.48
5/22/2022 6:45:00 PM 15.35 59.63 0.035 6.8 2.15 9.5
5/22/2022 7:00:00 PM 15.32 59.576 0.035 6.8 2.23 9.47
5/22/2022 7:15:00 PM 15.28 59.504 0.035 6.81 2.38 9.49
5/22/2022 7:30:00 PM 15.23 59.414 0.035 6.79 2.25 9.48
5/22/2022 7:45:00 PM 15.19 59.342 0.036 6.79 2.28 9.49
5/22/2022 8:00:00 PM 15.14 59.252 0.036 6.78 2.3 9.49
5/22/2022 8:15:00 PM 15.09 59.162 0.036 6.78 2.2 9.5
5/22/2022 8:30:00 PM 15.05 59.09 0.036 6.79 2.33 9.51
5/22/2022 8:45:00 PM 14.99 58.982 0.036 6.78 2.43 9.52
5/22/2022 9:00:00 PM 14.92 58.856 0.036 6.77 2.28 9.52
5/22/2022 9:15:00 PM 14.87 58.766 0.036 6.77 2.3 9.53
5/22/2022 9:30:00 PM 14.8 58.64 0.036 6.77 2.46 9.56
5/22/2022 9:45:00 PM 14.73 58.514 0.036 6.79 2.49 9.58
5/22/2022 10:00:00 PM 14.65 58.37 0.036 6.79 2.6 9.6
5/22/2022 10:15:00 PM 14.56 58.208 0.036 6.79 2.53 9.62
5/22/2022 10:30:00 PM 14.48 58.064 0.036 6.79 2.69 9.64
5/22/2022 10:45:00 PM 14.39 57.902 0.036 6.79 2.54 9.66
5/22/2022 11:00:00 PM 14.32 57.776 0.036 6.79 2.32 9.69
5/22/2022 11:15:00 PM 14.23 57.614 0.036 6.78 2.36 9.69
5/22/2022 11:30:00 PM 14.16 57.488 0.036 6.79 2.25 9.73
5/22/2022 11:45:00 PM 14.05 57.29 0.036 6.8 2.24 9.76
5/23/2022 12:00:00 AM 13.95 57.11 0.036 6.8 2.28 9.78
5/23/2022 12:15:00 AM 13.85 56.93 0.036 6.8 2.44 9.8
5/23/2022 12:30:00 AM 13.76 56.768 0.036 6.8 2.23 9.83
5/23/2022 12:45:00 AM 13.65 56.57 0.036 6.8 2.22 9.85
5/23/2022 1:00:00 AM 13.57 56.426 0.036 6.8 2.28 9.87
5/23/2022 1:15:00 AM 13.46 56.228 0.036 6.8 2.35 9.9
5/23/2022 1:30:00 AM 13.37 56.066 0.036 6.8 2.29 9.93
5/23/2022 1:45:00 AM 13.28 55.904 0.036 6.8 2.31 9.94
5/23/2022 2:00:00 AM 13.18 55.724 0.036 6.8 2.28 9.97
5/23/2022 2:15:00 AM 13.08 55.544 0.036 6.8 2.3 9.99
5/23/2022 2:30:00 AM 12.99 55.382 0.036 6.8 2.42 10.02
5/23/2022 2:45:00 AM 12.91 55.238 0.036 6.8 2.22 10.04
5/23/2022 3:00:00 AM 12.82 55.076 0.036 6.8 2.34 10.07
5/23/2022 3:15:00 AM 12.75 54.95 0.036 6.8 2.31 10.08
5/23/2022 3:30:00 AM 12.66 54.788 0.036 6.8 2.38 10.1
5/23/2022 3:45:00 AM 12.59 54.662 0.036 6.8 2.47 10.13
5/23/2022 4:00:00 AM 12.51 54.518 0.036 6.8 2.51 10.14
5/23/2022 4:15:00 AM 12.43 54.374 0.036 6.8 2.27 10.16
5/23/2022 4:30:00 AM 12.35 54.23 0.036 6.79 2.19 10.18
5/23/2022 4:45:00 AM 12.28 54.104 0.036 6.79 2.36 10.2
5/23/2022 5:00:00 AM 12.19 53.942 0.036 6.79 2.33 10.22
5/23/2022 5:15:00 AM 12.12 53.816 0.036 6.79 3.13 10.24
5/23/2022 5:30:00 AM 12.04 53.672 0.036 6.79 2.52 10.26
5/23/2022 5:45:00 AM 11.97 53.546 0.036 6.79 2.31 10.27
5/23/2022 6:00:00 AM 11.89 53.402 0.036 6.78 2.61 10.3
5/23/2022 6:15:00 AM 11.82 53.276 0.036 6.79 2.27 10.32
5/23/2022 6:30:00 AM 11.75 53.15 0.036 6.79 2.88 10.35
5/23/2022 6:45:00 AM 11.69 53.042 0.036 6.79 2.3 10.39
5/23/2022 7:00:00 AM 11.63 52.934 0.036 6.8 2.41 10.41
5/23/2022 7:15:00 AM 11.58 52.844 0.036 6.8 2.26 10.45
5/23/2022 7:30:00 AM 11.55 52.79 0.036 6.81 2.31 10.48
5/23/2022 7:45:00 AM 11.5 52.7 0.036 6.82 2.35 10.52
5/23/2022 8:00:00 AM 11.48 52.664 0.036 6.83 2.22 10.53
5/23/2022 8:15:00 AM 11.45 52.61 0.036 6.82 2.47 10.53
5/23/2022 8:30:00 AM 11.44 52.592 0.036 6.83 2.32 10.57
5/23/2022 8:45:00 AM 11.45 52.61 0.036 6.84 2.3 10.59
5/23/2022 9:00:00 AM 11.44 52.592 0.036 6.85 2.23 10.59
5/23/2022 9:15:00 AM 11.45 52.61 0.036 6.86 2.21 10.6
5/23/2022 9:30:00 AM 11.45 52.61 0.035 6.86 2.22 10.61
5/23/2022 9:45:00 AM 11.46 52.628 0.035 6.86 2.19 10.61
5/23/2022 10:00:00 AM 11.49 52.682 0.035 6.87 2.25 10.62
5/23/2022 10:15:00 AM 11.53 52.754 0.035 6.87 2.14 10.63
5/23/2022 10:30:00 AM 11.58 52.844 0.035 6.88 2.36 10.64
5/23/2022 10:45:00 AM 11.64 52.952 0.035 6.89 2.2 10.65
5/23/2022 11:00:00 AM 11.72 53.096 0.035 6.91 2.15 10.67
5/23/2022 11:15:00 AM 11.79 53.222 0.035 6.92 2.21 10.67
5/23/2022 11:30:00 AM 11.87 53.366 0.035 6.93 2.3 10.67
5/23/2022 11:45:00 AM 11.95 53.51 0.035 6.94 2.16 10.67
5/23/2022 12:00:00 PM 12.03 53.654 0.035 6.95 2.17 10.67
5/23/2022 12:15:00 PM 12.11 53.798 0.035 6.96 2.15 10.66
5/23/2022 12:30:00 PM 12.19 53.942 0.035 6.96 2.16 10.63
5/23/2022 12:45:00 PM 12.31 54.158 0.035 6.97 2.2 10.63
5/23/2022 1:00:00 PM 12.4 54.32 0.035 6.97 2.16 10.62
5/23/2022 1:15:00 PM 12.51 54.518 0.034 6.98 2.1 10.6
5/23/2022 1:30:00 PM 12.6 54.68 0.034 6.98 2.33 10.58
5/23/2022 1:45:00 PM 12.69 54.842 0.034 6.98 2.25 10.56
5/23/2022 2:00:00 PM 12.79 55.022 0.034 6.99 2.33 10.53
5/23/2022 2:15:00 PM 12.89 55.202 0.034 6.99 2.31 10.5
5/23/2022 2:30:00 PM 13 55.4 0.034 6.99 2.11 10.48
5/23/2022 2:45:00 PM 13.06 55.508 0.034 6.99 2.02 10.45
5/23/2022 3:00:00 PM 13.08 55.544 0.034 6.99 2.1 10.42
5/23/2022 3:15:00 PM 13.1 55.58 0.034 6.98 2.13 10.39
5/23/2022 3:30:00 PM 13.12 55.616 0.034 6.97 2.12 10.36
5/23/2022 3:45:00 PM 13.15 55.67 0.034 6.97 2.12 10.35
5/23/2022 4:00:00 PM 13.18 55.724 0.034 6.96 2.18 10.33
5/23/2022 4:15:00 PM 13.19 55.742 0.034 6.96 2.2 10.31
5/23/2022 4:30:00 PM 13.2 55.76 0.034 6.95 2.2 10.29
5/23/2022 4:45:00 PM 13.21 55.778 0.034 6.95 2.13 10.28
5/23/2022 5:00:00 PM 13.22 55.796 0.034 6.93 2.06 10.27
5/23/2022 5:15:00 PM 13.23 55.814 0.035 6.93 2.23 10.25
5/23/2022 5:30:00 PM 13.24 55.832 0.035 6.92 2.08 10.22
5/23/2022 5:45:00 PM 13.24 55.832 0.035 6.91 2.2 10.19
5/23/2022 6:00:00 PM 13.24 55.832 0.035 6.9 2.08 10.17
5/23/2022 6:15:00 PM 13.23 55.814 0.035 6.88 2.03 10.16
5/23/2022 6:30:00 PM 13.22 55.796 0.035 6.88 2.13 10.14
5/23/2022 6:45:00 PM 13.21 55.778 0.035 6.87 2.23 10.12
5/23/2022 7:00:00 PM 13.19 55.742 0.035 6.85 2.3 10.11
5/23/2022 7:15:00 PM 13.17 55.706 0.035 6.85 2.18 10.09
5/23/2022 7:30:00 PM 13.14 55.652 0.035 6.84 2.11 10.09
5/23/2022 7:45:00 PM 13.11 55.598 0.035 6.83 2.17 10.07
5/23/2022 8:00:00 PM 13.08 55.544 0.035 6.83 2.22 10.05
5/23/2022 8:15:00 PM 13.03 55.454 0.035 6.82 2.41 10.04
5/23/2022 8:30:00 PM 12.99 55.382 0.036 6.82 2.09 10.04
5/23/2022 8:45:00 PM 12.94 55.292 0.036 6.82 2.19 10.04
5/23/2022 9:00:00 PM 12.9 55.22 0.036 6.82 2.57 10.04
5/23/2022 9:15:00 PM 12.85 55.13 0.036 6.81 3.85 10.05
5/23/2022 9:30:00 PM 12.8 55.04 0.036 6.81 2.43 10.06
5/23/2022 9:45:00 PM 12.75 54.95 0.036 6.81 2.35 10.08
5/23/2022 10:00:00 PM 12.7 54.86 0.036 6.81 2.34 10.08
5/23/2022 10:15:00 PM 12.65 54.77 0.036 6.81 2.5 10.1
5/23/2022 10:30:00 PM 12.6 54.68 0.036 6.81 2.2 10.11
5/23/2022 10:45:00 PM 12.56 54.608 0.036 6.81 2.26 10.12
5/23/2022 11:00:00 PM 12.51 54.518 0.036 6.81 2.32 10.14
5/23/2022 11:15:00 PM 12.46 54.428 0.036 6.81 2.21 10.15
5/23/2022 11:30:00 PM 12.41 54.338 0.036 6.8 2.3 10.17
5/23/2022 11:45:00 PM 12.37 54.266 0.036 6.8 2.13 10.17
5/24/2022 12:00:00 AM 12.32 54.176 0.036 6.8 2.16 10.18
5/24/2022 12:15:00 AM 12.28 54.104 0.036 6.8 2.45 10.19
5/24/2022 12:30:00 AM 12.23 54.014 0.036 6.81 2.21 10.21
5/24/2022 12:45:00 AM 12.18 53.924 0.036 6.8 2.25 10.23
5/24/2022 1:00:00 AM 12.13 53.834 0.036 6.8 2.38 10.23
5/24/2022 1:15:00 AM 12.09 53.762 0.036 6.8 2.29 10.24
5/24/2022 1:30:00 AM 12.04 53.672 0.036 6.8 2.26 10.27
5/24/2022 1:45:00 AM 11.99 53.582 0.036 6.8 2.21 10.27
5/24/2022 2:00:00 AM 11.93 53.474 0.036 6.8 2.39 10.28
5/24/2022 2:15:00 AM 11.88 53.384 0.036 6.8 2.25 10.29
5/24/2022 2:30:00 AM 11.82 53.276 0.036 6.8 2.29 10.31
5/24/2022 2:45:00 AM 11.77 53.186 0.036 6.8 2.25 10.32
5/24/2022 3:00:00 AM 11.71 53.078 0.036 6.8 2.25 10.34
5/24/2022 3:15:00 AM 11.65 52.97 0.036 6.8 2.24 10.35
5/24/2022 3:30:00 AM 11.6 52.88 0.036 6.8 2.19 10.36
5/24/2022 3:45:00 AM 11.55 52.79 0.036 6.8 2.3 10.37
5/24/2022 4:00:00 AM 11.49 52.682 0.036 6.8 2.19 10.39
5/24/2022 4:15:00 AM 11.43 52.574 0.036 6.8 2.46 10.4
5/24/2022 4:30:00 AM 11.38 52.484 0.036 6.8 2.33 10.41
5/24/2022 4:45:00 AM 11.32 52.376 0.036 6.8 2.24 10.42
5/24/2022 5:00:00 AM 11.27 52.286 0.036 6.8 2.27 10.44
5/24/2022 5:15:00 AM 11.22 52.196 0.036 6.8 2.23 10.46
5/24/2022 5:30:00 AM 11.17 52.106 0.036 6.8 2.28 10.47
5/24/2022 5:45:00 AM 11.12 52.016 0.036 6.8 2.33 10.49
5/24/2022 6:00:00 AM 11.09 51.962 0.036 6.8 2.27 10.5
5/24/2022 6:15:00 AM 11.05 51.89 0.036 6.81 2.28 10.52
5/24/2022 6:30:00 AM 11.03 51.854 0.036 6.81 2.24 10.54
5/24/2022 6:45:00 AM 11.01 51.818 0.036 6.81 2.3 10.56
5/24/2022 7:00:00 AM 10.99 51.782 0.036 6.81 2.24 10.58
5/24/2022 7:15:00 AM 10.98 51.764 0.036 6.82 2.29 10.61
5/24/2022 7:30:00 AM 10.97 51.746 0.036 6.83 2.21 10.63
5/24/2022 7:45:00 AM 10.97 51.746 0.036 6.83 2.17 10.65
5/24/2022 8:00:00 AM 10.97 51.746 0.036 6.84 2.26 10.66
5/24/2022 8:15:00 AM 10.97 51.746 0.036 6.84 2.11 10.67
5/24/2022 8:30:00 AM 10.98 51.764 0.036 6.84 2.11 10.68
5/24/2022 8:45:00 AM 10.99 51.782 0.036 6.85 2.23 10.69
5/24/2022 9:00:00 AM 10.99 51.782 0.036 6.85 2.29 10.69
5/24/2022 9:15:00 AM 11 51.8 0.036 6.85 2.11 10.7
5/24/2022 9:30:00 AM 11.02 51.836 0.036 6.86 2.01 10.71
5/24/2022 9:45:00 AM 11.04 51.872 0.036 6.87 2.31 10.75
5/24/2022 10:00:00 AM 11.09 51.962 0.036 6.89 2.06 10.78
5/24/2022 10:15:00 AM 11.13 52.034 0.035 6.9 2.17 10.79
5/24/2022 10:30:00 AM 11.17 52.106 0.035 6.91 2.42 10.79
5/24/2022 10:45:00 AM 11.22 52.196 0.035 6.91 2.22 10.79
5/24/2022 11:00:00 AM 11.26 52.268 0.035 6.92 2.3 10.78
5/24/2022 11:15:00 AM 11.31 52.358 0.035 6.93 2.11 10.79
5/24/2022 11:30:00 AM 11.37 52.466 0.035 6.93 2.32 10.79
5/24/2022 11:45:00 AM 11.42 52.556 0.035 6.94 2.42 10.77
5/24/2022 12:00:00 PM 11.47 52.646 0.035 6.94 2.28 10.76
5/24/2022 12:15:00 PM 11.51 52.718 0.035 6.94 2.25 10.73
5/24/2022 12:30:00 PM 11.55 52.79 0.035 6.93 2.17 10.71
5/24/2022 12:45:00 PM 11.59 52.862 0.035 6.94 2.08 10.71
5/24/2022 1:00:00 PM 11.64 52.952 0.035 6.94 2.06 10.7
5/24/2022 1:15:00 PM 11.68 53.024 0.035 6.94 2.15 10.68
5/24/2022 1:30:00 PM 11.69 53.042 0.035 6.94 2.4 10.66
5/24/2022 1:45:00 PM 11.73 53.114 0.035 6.93 2.23 10.64
5/24/2022 2:00:00 PM 11.77 53.186 0.035 6.93 2.08 10.64
5/24/2022 2:15:00 PM 11.81 53.258 0.035 6.94 2.17 10.62
5/24/2022 2:30:00 PM 11.83 53.294 0.035 6.93 2.07 10.6
5/24/2022 2:45:00 PM 11.84 53.312 0.035 6.91 1.99 10.54
5/24/2022 3:00:00 PM 11.85 53.33 0.035 6.9 2.13 10.53
5/24/2022 3:15:00 PM 11.87 53.366 0.035 6.89 2.04 10.51
5/24/2022 3:30:00 PM 11.88 53.384 0.035 6.89 2.03 10.51
5/24/2022 3:45:00 PM 11.89 53.402 0.035 6.88 2.1 10.49
5/24/2022 4:00:00 PM 11.9 53.42 0.035 6.87 2.15 10.48
5/24/2022 4:15:00 PM 11.92 53.456 0.035 6.88 2.65 10.49
5/24/2022 4:30:00 PM 11.94 53.492 0.035 6.87 2.16 10.47
5/24/2022 4:45:00 PM 11.95 53.51 0.035 6.87 2.18 10.46
5/24/2022 5:00:00 PM 11.97 53.546 0.035 6.88 2.09 10.47
5/24/2022 5:15:00 PM 11.98 53.564 0.035 6.88 2.4 10.47
5/24/2022 5:30:00 PM 12 53.6 0.035 6.88 2.25 10.47
5/24/2022 5:45:00 PM 12.01 53.618 0.035 6.87 1.97 10.43
5/24/2022 6:00:00 PM 12.02 53.636 0.035 6.87 2.24 10.42
5/24/2022 6:15:00 PM 12.03 53.654 0.035 6.86 2.24 10.4
5/24/2022 6:30:00 PM 12.03 53.654 0.035 6.85 2.18 10.38
5/24/2022 6:45:00 PM 12.02 53.636 0.036 6.84 2.4 10.36
5/24/2022 7:00:00 PM 12.02 53.636 0.036 6.84 2.12 10.33
5/24/2022 7:15:00 PM 12.01 53.618 0.036 6.82 2.08 10.35
5/24/2022 7:30:00 PM 12 53.6 0.036 6.81 2.34 10.33
5/24/2022 7:45:00 PM 11.99 53.582 0.036 6.8 2.11 10.32
5/24/2022 8:00:00 PM 11.98 53.564 0.036 6.8 2.14 10.31
5/24/2022 8:15:00 PM 11.97 53.546 0.036 6.78 2.05 10.3
5/24/2022 8:30:00 PM 11.95 53.51 0.036 6.77 2.19 10.3
5/24/2022 8:45:00 PM 11.94 53.492 0.036 6.77 2.16 10.29
5/24/2022 9:00:00 PM 11.93 53.474 0.036 6.77 2.15 10.3
5/24/2022 9:15:00 PM 11.92 53.456 0.036 6.76 2.61 10.29
5/24/2022 9:30:00 PM 11.91 53.438 0.036 6.76 2.26 10.29
5/24/2022 9:45:00 PM 11.89 53.402 0.036 6.77 2.26 10.3
5/24/2022 10:00:00 PM 11.88 53.384 0.036 6.76 2.39 10.3
5/24/2022 10:15:00 PM 11.87 53.366 0.036 6.76 2.26 10.31
5/24/2022 10:30:00 PM 11.86 53.348 0.036 6.76 2.25 10.31
5/24/2022 10:45:00 PM 11.84 53.312 0.036 6.76 2.23 10.31
5/24/2022 11:00:00 PM 11.83 53.294 0.036 6.77 2.2 10.32
5/24/2022 11:15:00 PM 11.82 53.276 0.036 6.76 2.34 10.32
5/24/2022 11:30:00 PM 11.8 53.24 0.037 6.77 2.2 10.32
5/24/2022 11:45:00 PM 11.79 53.222 0.037 6.77 2.29 10.32
5/25/2022 12:00:00 AM 11.77 53.186 0.037 6.77 2.18 10.33
5/25/2022 12:15:00 AM 11.75 53.15 0.037 6.76 2.27 10.33
5/25/2022 12:30:00 AM 11.73 53.114 0.037 6.76 2.33 10.35
5/25/2022 12:45:00 AM 11.72 53.096 0.037 6.77 2.26 10.36
5/25/2022 1:00:00 AM 11.7 53.06 0.037 6.77 2.41 10.35
5/25/2022 1:15:00 AM 11.68 53.024 0.037 6.77 2.4 10.35
5/25/2022 1:30:00 AM 11.66 52.988 0.037 6.77 2.15 10.36
5/25/2022 1:45:00 AM 11.65 52.97 0.037 6.77 2.19 10.37
5/25/2022 2:00:00 AM 11.62 52.916 0.037 6.77 2.13 10.37
5/25/2022 2:15:00 AM 11.6 52.88 0.037 6.78 2.09 10.38
5/25/2022 2:30:00 AM 11.58 52.844 0.037 6.78 2.2 10.38
5/25/2022 2:45:00 AM 11.56 52.808 0.037 6.78 2.26 10.39
5/25/2022 3:00:00 AM 11.54 52.772 0.037 6.79 2.22 10.4
5/25/2022 3:15:00 AM 11.51 52.718 0.037 6.79 2.23 10.41
5/25/2022 3:30:00 AM 11.49 52.682 0.037 6.78 2.38 10.41
5/25/2022 3:45:00 AM 11.46 52.628 0.037 6.79 2.13 10.41
5/25/2022 4:00:00 AM 11.44 52.592 0.037 6.79 2.16 10.42
5/25/2022 4:15:00 AM 11.42 52.556 0.037 6.78 2.31 10.42
5/25/2022 4:30:00 AM 11.39 52.502 0.037 6.79 2.17 10.44
5/25/2022 4:45:00 AM 11.37 52.466 0.037 6.79 2.27 10.44
5/25/2022 5:00:00 AM 11.35 52.43 0.037 6.79 2.43 10.44
5/25/2022 5:15:00 AM 11.33 52.394 0.037 6.78 2.34 10.45
5/25/2022 5:30:00 AM 11.31 52.358 0.037 6.79 2.22 10.46
5/25/2022 5:45:00 AM 11.3 52.34 0.037 6.78 2.31 10.46
5/25/2022 6:00:00 AM 11.29 52.322 0.037 6.78 2.25 10.47
5/25/2022 6:15:00 AM 11.27 52.286 0.037 6.78 2.69 10.48
5/25/2022 6:30:00 AM 11.26 52.268 0.037 6.78 2.6 10.48
5/25/2022 6:45:00 AM 11.26 52.268 0.037 6.78 2.28 10.5
5/25/2022 7:00:00 AM 11.25 52.25 0.037 6.78 2.14 10.51
5/25/2022 7:15:00 AM 11.24 52.232 0.037 6.78 2.36 10.51
5/25/2022 7:30:00 AM 11.24 52.232 0.037 6.79 2.29 10.53
5/25/2022 7:45:00 AM 11.25 52.25 0.037 6.79 2.12 10.57
5/25/2022 8:00:00 AM 11.25 52.25 0.036 6.8 2.27 10.59
5/25/2022 8:15:00 AM 11.25 52.25 0.036 6.8 2.16 10.6
5/25/2022 8:30:00 AM 11.27 52.286 0.036 6.81 2.19 10.64
5/25/2022 8:45:00 AM 11.31 52.358 0.036 6.82 2.17 10.67
5/25/2022 9:00:00 AM 11.34 52.412 0.036 6.84 2.27 10.67
5/25/2022 9:15:00 AM 11.39 52.502 0.036 6.85 2.11 10.69
5/25/2022 9:30:00 AM 11.46 52.628 0.036 6.87 2.2 10.7
5/25/2022 9:45:00 AM 11.5 52.7 0.036 6.88 2 10.68
5/25/2022 10:00:00 AM 11.57 52.826 0.036 6.89 2.2 10.69
5/25/2022 10:15:00 AM 11.65 52.97 0.036 6.9 2.18 10.7
5/25/2022 10:30:00 AM 11.73 53.114 0.036 6.92 2.27 10.69
5/25/2022 10:45:00 AM 11.82 53.276 0.036 6.93 2.1 10.68
5/25/2022 11:00:00 AM 11.89 53.402 0.036 6.93 2.2 10.65
5/25/2022 11:15:00 AM 11.96 53.528 0.036 6.94 2.24 10.66
5/25/2022 11:30:00 AM 12.06 53.708 0.035 6.95 2.19 10.66
5/25/2022 11:45:00 AM 12.19 53.942 0.035 6.96 2.11 10.65
5/25/2022 12:00:00 PM 12.29 54.122 0.035 6.97 2.05 10.63
5/25/2022 12:15:00 PM 12.36 54.248 0.035 6.97 2.33 10.61
5/25/2022 12:30:00 PM 12.49 54.482 0.035 6.98 2.02 10.6
5/25/2022 12:45:00 PM 12.61 54.698 0.035 6.98 2.16 10.58
5/25/2022 1:00:00 PM 12.73 54.914 0.035 6.99 2.13 10.54
5/25/2022 1:15:00 PM 12.87 55.166 0.035 6.99 2.08 10.52
5/25/2022 1:30:00 PM 13 55.4 0.035 7 2.13 10.5
5/25/2022 1:45:00 PM 13.11 55.598 0.035 6.99 2.13 10.47
5/25/2022 2:00:00 PM 13.25 55.85 0.035 7 2.39 10.45
5/25/2022 2:15:00 PM 13.35 56.03 0.035 7 2.2 10.41
5/25/2022 2:30:00 PM 13.47 56.246 0.035 7 2.08 10.37
5/25/2022 2:45:00 PM 13.64 56.552 0.035 7 2.38 10.34
5/25/2022 3:00:00 PM 13.86 56.948 0.035 7 2.11 10.29
5/25/2022 3:15:00 PM 14.05 57.29 0.035 6.99 2.06 10.24
5/25/2022 3:30:00 PM 14.14 57.452 0.035 6.98 2.22 10.19
5/25/2022 3:45:00 PM 14.2 57.56 0.035 6.98 2 10.18
5/25/2022 4:00:00 PM 14.26 57.668 0.035 6.98 2.11 10.15
5/25/2022 4:15:00 PM 14.26 57.668 0.035 6.98 2.07 10.12
5/25/2022 4:30:00 PM 14.36 57.848 0.035 6.97 2.24 10.09
5/25/2022 4:45:00 PM 14.4 57.92 0.035 6.97 2 10.06
5/25/2022 5:00:00 PM 14.42 57.956 0.035 6.96 1.95 10.02
5/25/2022 5:15:00 PM 14.41 57.938 0.035 6.94 2.03 9.98
5/25/2022 5:30:00 PM 14.4 57.92 0.035 6.94 2.06 9.95
5/25/2022 5:45:00 PM 14.38 57.884 0.035 6.92 2.25 9.91
5/25/2022 6:00:00 PM 14.36 57.848 0.035 6.91 2.07 9.89
5/25/2022 6:15:00 PM 14.32 57.776 0.035 6.9 2.09 9.87
5/25/2022 6:30:00 PM 14.28 57.704 0.035 6.89 2.01 9.89
5/25/2022 6:45:00 PM 14.24 57.632 0.035 6.88 2.09 9.86
5/25/2022 7:00:00 PM 14.22 57.596 0.036 6.88 2.07 9.85
5/25/2022 7:15:00 PM 14.18 57.524 0.036 6.86 1.94 9.82
5/25/2022 7:30:00 PM 14.16 57.488 0.036 6.86 2.18 9.8
5/25/2022 7:45:00 PM 14.12 57.416 0.036 6.83 2.05 9.78
5/25/2022 8:00:00 PM 14.08 57.344 0.036 6.82 2.2 9.76
5/25/2022 8:15:00 PM 14.06 57.308 0.036 6.82 2.17 9.75
5/25/2022 8:30:00 PM 14.03 57.254 0.036 6.81 1.99 9.75
5/25/2022 8:45:00 PM 13.99 57.182 0.036 6.8 2.06 9.74
5/25/2022 9:00:00 PM 13.95 57.11 0.036 6.79 2.07 9.73
5/25/2022 9:15:00 PM 13.91 57.038 0.036 6.79 1.99 9.74
5/25/2022 9:30:00 PM 13.86 56.948 0.036 6.77 2.41 9.73
5/25/2022 9:45:00 PM 13.83 56.894 0.037 6.77 2.22 9.75
5/25/2022 10:00:00 PM 13.79 56.822 0.037 6.78 2.19 9.77
5/25/2022 10:15:00 PM 13.74 56.732 0.037 6.77 2.19 9.77
5/25/2022 10:30:00 PM 13.69 56.642 0.037 6.76 2.33 9.77
5/25/2022 10:45:00 PM 13.65 56.57 0.037 6.77 2.4 9.79
5/25/2022 11:00:00 PM 13.6 56.48 0.037 6.77 2.39 9.81
5/25/2022 11:15:00 PM 13.55 56.39 0.037 6.77 2.63 9.82
5/25/2022 11:30:00 PM 13.5 56.3 0.037 6.76 2.15 9.82
5/25/2022 11:45:00 PM 13.45 56.21 0.037 6.76 4.04 9.84
5/26/2022 12:00:00 AM 13.4 56.12 0.037 6.77 2.3 9.86
5/26/2022 12:15:00 AM 13.35 56.03 0.037 6.76 2.07 9.88
5/26/2022 12:30:00 AM 13.29 55.922 0.037 6.76 2.07 9.88
5/26/2022 12:45:00 AM 13.24 55.832 0.037 6.77 2.22 9.89
5/26/2022 1:00:00 AM 13.18 55.724 0.037 6.77 2.13 9.91
5/26/2022 1:15:00 AM 13.13 55.634 0.037 6.78 2.44 9.92
5/26/2022 1:30:00 AM 13.09 55.562 0.037 6.78 2.27 9.92
5/26/2022 1:45:00 AM 13.04 55.472 0.037 6.78 2.11 9.93
5/26/2022 2:00:00 AM 13 55.4 0.037 6.79 2.12 9.95
5/26/2022 2:15:00 AM 12.96 55.328 0.037 6.78 2.36 9.96
5/26/2022 2:30:00 AM 12.91 55.238 0.037 6.78 2.16 9.97
5/26/2022 2:45:00 AM 12.88 55.184 0.037 6.78 2.2 9.98
5/26/2022 3:00:00 AM 12.84 55.112 0.037 6.77 2.23 9.99
5/26/2022 3:15:00 AM 12.8 55.04 0.037 6.78 2.22 10
5/26/2022 3:30:00 AM 12.77 54.986 0.037 6.77 2.06 10.02
5/26/2022 3:45:00 AM 12.74 54.932 0.037 6.77 2.34 10.02
5/26/2022 4:00:00 AM 12.71 54.878 0.037 6.77 2.18 10.01
5/26/2022 4:15:00 AM 12.67 54.806 0.037 6.77 2.14 10.03
5/26/2022 4:30:00 AM 12.63 54.734 0.037 6.78 2.11 10.04
5/26/2022 4:45:00 AM 12.59 54.662 0.037 6.78 2.29 10.06
5/26/2022 5:00:00 AM 12.54 54.572 0.037 6.78 2.25 10.05
5/26/2022 5:15:00 AM 12.49 54.482 0.037 6.79 2.26 10.06
5/26/2022 5:30:00 AM 12.45 54.41 0.037 6.79 2.38 10.08
5/26/2022 5:45:00 AM 12.4 54.32 0.037 6.79 2.17 10.08
5/26/2022 6:00:00 AM 12.35 54.23 0.037 6.8 2.19 10.1
5/26/2022 6:15:00 AM 12.3 54.14 0.037 6.8 2.17 10.14
5/26/2022 6:30:00 AM 12.26 54.068 0.037 6.8 2.16 10.15
5/26/2022 6:45:00 AM 12.22 53.996 0.037 6.8 2.27 10.17
5/26/2022 7:00:00 AM 12.19 53.942 0.037 6.81 2.29 10.21
5/26/2022 7:15:00 AM 12.15 53.87 0.037 6.82 2.36 10.22
5/26/2022 7:30:00 AM 12.12 53.816 0.037 6.82 2.1 10.25
5/26/2022 7:45:00 AM 12.09 53.762 0.037 6.83 2.09 10.28
5/26/2022 8:00:00 AM 12.07 53.726 0.037 6.83 2.3 10.29
5/26/2022 8:15:00 AM 12.05 53.69 0.037 6.83 2.19 10.29
5/26/2022 8:30:00 AM 12.03 53.654 0.037 6.83 2.09 10.29
5/26/2022 8:45:00 AM 12.03 53.654 0.037 6.83 2.09 10.3
5/26/2022 9:00:00 AM 12.03 53.654 0.037 6.83 2.09 10.31
5/26/2022 9:15:00 AM 12.04 53.672 0.037 6.83 2.1 10.32
5/26/2022 9:30:00 AM 12.06 53.708 0.036 6.83 2.14 10.32
5/26/2022 9:45:00 AM 12.09 53.762 0.036 6.85 2.03 10.34
5/26/2022 10:00:00 AM 12.13 53.834 0.036 6.85 2.11 10.33
5/26/2022 10:15:00 AM 12.17 53.906 0.036 6.86 1.98 10.33
5/26/2022 10:30:00 AM 12.25 54.05 0.036 6.87 2.07 10.36
5/26/2022 10:45:00 AM 12.35 54.23 0.036 6.88 2.22 10.38
5/26/2022 11:00:00 AM 12.43 54.374 0.036 6.89 1.97 10.36
5/26/2022 11:15:00 AM 12.54 54.572 0.036 6.89 2 10.36
5/26/2022 11:30:00 AM 12.65 54.77 0.036 6.9 1.99 10.34
5/26/2022 11:45:00 AM 12.79 55.022 0.036 6.91 1.91 10.33
5/26/2022 12:00:00 PM 12.97 55.346 0.036 6.92 2 10.31
5/26/2022 12:15:00 PM 13.13 55.634 0.036 6.92 2.13 10.27
5/26/2022 12:30:00 PM 13.32 55.976 0.036 6.92 2.21 10.23
5/26/2022 12:45:00 PM 13.5 56.3 0.036 6.92 2.12 10.2
5/26/2022 1:00:00 PM 13.74 56.732 0.036 6.92 2.22 10.15
5/26/2022 1:15:00 PM 13.98 57.164 0.035 6.93 1.98 10.11
5/26/2022 1:30:00 PM 14.23 57.614 0.035 6.92 2.05 10.07
5/26/2022 1:45:00 PM 14.47 58.046 0.035 6.94 2.05 10.04
5/26/2022 2:00:00 PM 14.63 58.334 0.035 6.95 2.24 10
5/26/2022 2:15:00 PM 14.84 58.712 0.035 6.95 2.18 9.97
5/26/2022 2:30:00 PM 15.06 59.108 0.035 6.95 2.23 9.92
5/26/2022 2:45:00 PM 15.23 59.414 0.035 6.94 2.27 9.89
5/26/2022 3:00:00 PM 15.39 59.702 0.035 6.93 1.97 9.85
5/26/2022 3:15:00 PM 15.54 59.972 0.035 6.94 2 9.81
5/26/2022 3:30:00 PM 15.58 60.044 0.035 6.92 1.98 9.75
5/26/2022 3:45:00 PM 15.71 60.278 0.035 6.94 2.01 9.74
5/26/2022 4:00:00 PM 15.71 60.278 0.035 6.95 1.99 9.69
5/26/2022 4:15:00 PM 15.65 60.17 0.035 6.92 2.2 9.62
5/26/2022 4:30:00 PM 15.68 60.224 0.035 6.94 2.04 9.62
5/26/2022 4:45:00 PM 15.62 60.116 0.036 6.9 2.13 9.54
5/26/2022 5:00:00 PM 15.66 60.188 0.035 6.9 2.1 9.59
5/26/2022 5:15:00 PM 15.62 60.116 0.036 6.89 2.07 9.54
5/26/2022 5:30:00 PM 15.6 60.08 0.036 6.87 2.24 9.48
5/26/2022 5:45:00 PM 15.62 60.116 0.036 6.88 1.94 9.47
5/26/2022 6:00:00 PM 15.62 60.116 0.036 6.87 1.9 9.47
5/26/2022 6:15:00 PM 15.59 60.062 0.036 6.85 2.12 9.43
5/26/2022 6:30:00 PM 15.57 60.026 0.036 6.84 2.4 9.42
5/26/2022 6:45:00 PM 15.54 59.972 0.036 6.83 2.46 9.38
5/26/2022 7:00:00 PM 15.51 59.918 0.036 6.83 2.4 9.36
5/26/2022 7:15:00 PM 15.49 59.882 0.036 6.81 2 9.34
5/26/2022 7:30:00 PM 15.46 59.828 0.036 6.8 2.02 9.33
5/26/2022 7:45:00 PM 15.41 59.738 0.037 6.78 2.05 9.31
5/26/2022 8:00:00 PM 15.39 59.702 0.037 6.79 2.11 9.32
5/26/2022 8:15:00 PM 15.33 59.594 0.037 6.77 2.61 9.3
5/26/2022 8:30:00 PM 15.28 59.504 0.037 6.77 2.28 9.33
5/26/2022 8:45:00 PM 15.22 59.396 0.037 6.77 2.19 9.31
5/26/2022 9:00:00 PM 15.16 59.288 0.037 6.76 2.09 9.34
5/26/2022 9:15:00 PM 15.12 59.216 0.037 6.77 2.6 9.36
5/26/2022 9:30:00 PM 15.05 59.09 0.037 6.76 2.06 9.36
5/26/2022 9:45:00 PM 15 59 0.037 6.76 2.49 9.37
5/26/2022 10:00:00 PM 14.96 58.928 0.037 6.76 2.49 9.38
5/26/2022 10:15:00 PM 14.91 58.838 0.037 6.76 2.46 9.41
5/26/2022 10:30:00 PM 14.86 58.748 0.037 6.75 2.61 9.41
5/26/2022 10:45:00 PM 14.83 58.694 0.037 6.76 2.39 9.43
5/26/2022 11:00:00 PM 14.79 58.622 0.037 6.75 2.26 9.43
5/26/2022 11:15:00 PM 14.74 58.532 0.037 6.75 2.15 9.43
5/26/2022 11:30:00 PM 14.69 58.442 0.037 6.75 2.22 9.44
5/26/2022 11:45:00 PM 14.64 58.352 0.037 6.74 2.36 9.45
5/27/2022 12:00:00 AM 14.6 58.28 0.037 6.74 2.63 9.45
5/27/2022 12:15:00 AM 14.55 58.19 0.037 6.75 2.53 9.49
5/27/2022 12:30:00 AM 14.49 58.082 0.038 6.74 2.2 9.48
5/27/2022 12:45:00 AM 14.45 58.01 0.038 6.74 2.92 9.51
5/27/2022 1:00:00 AM 14.41 57.938 0.038 6.75 2.34 9.53
5/27/2022 1:15:00 AM 14.36 57.848 0.038 6.74 2.57 9.51
5/27/2022 1:30:00 AM 14.32 57.776 0.038 6.74 2.23 9.54
5/27/2022 1:45:00 AM 14.27 57.686 0.038 6.74 2.16 9.55
5/27/2022 2:00:00 AM 14.23 57.614 0.038 6.74 2.65 9.55
5/27/2022 2:15:00 AM 14.18 57.524 0.038 6.74 2.17 9.56
5/27/2022 2:30:00 AM 14.14 57.452 0.038 6.74 2.24 9.57
5/27/2022 2:45:00 AM 14.1 57.38 0.038 6.73 2.21 9.57
5/27/2022 3:00:00 AM 14.06 57.308 0.038 6.73 2.2 9.58
5/27/2022 3:15:00 AM 14.02 57.236 0.038 6.72 2.18 9.6
5/27/2022 3:30:00 AM 13.98 57.164 0.038 6.73 2.25 9.59
5/27/2022 3:45:00 AM 13.94 57.092 0.038 6.74 2.16 9.6
5/27/2022 4:00:00 AM 13.91 57.038 0.038 6.74 2.21 9.62
5/27/2022 4:15:00 AM 13.87 56.966 0.038 6.74 2.81 9.6
5/27/2022 4:30:00 AM 13.84 56.912 0.038 6.74 2.64 9.59
5/27/2022 4:45:00 AM 13.8 56.84 0.038 6.73 2.34 9.61
5/27/2022 5:00:00 AM 13.77 56.786 0.038 6.74 2.25 9.63
5/27/2022 5:15:00 AM 13.74 56.732 0.038 6.73 2.45 9.63
5/27/2022 5:30:00 AM 13.7 56.66 0.038 6.74 2.12 9.65
5/27/2022 5:45:00 AM 13.67 56.606 0.038 6.73 2.14 9.66
5/27/2022 6:00:00 AM 13.64 56.552 0.038 6.72 2.51 9.64
5/27/2022 6:15:00 AM 13.61 56.498 0.038 6.72 4.04 9.66
5/27/2022 6:30:00 AM 13.59 56.462 0.038 6.73 2.1 9.69
5/27/2022 6:45:00 AM 13.57 56.426 0.038 6.73 2.28 9.68
5/27/2022 7:00:00 AM 13.55 56.39 0.038 6.74 2.11 9.71
5/27/2022 7:15:00 AM 13.53 56.354 0.038 6.74 2.14 9.73
5/27/2022 7:30:00 AM 13.51 56.318 0.038 6.73 2 9.73
5/27/2022 7:45:00 AM 13.49 56.282 0.038 6.74 2.29 9.75
5/27/2022 8:00:00 AM 13.47 56.246 0.038 6.73 2.7 9.76
5/27/2022 8:15:00 AM 13.47 56.246 0.038 6.74 3.65 9.79
5/27/2022 8:30:00 AM 13.46 56.228 0.038 6.74 2.13 9.79
5/27/2022 8:45:00 AM 13.45 56.21 0.038 6.74 2.07 9.8
5/27/2022 9:00:00 AM 13.47 56.246 0.037 6.75 2.18 9.87
5/27/2022 9:15:00 AM 13.47 56.246 0.037 6.76 2.19 9.85
5/27/2022 9:30:00 AM 13.48 56.264 0.037 6.77 2.04 9.87
5/27/2022 9:45:00 AM 13.48 56.264 0.037 6.77 2.06 9.86
5/27/2022 10:00:00 AM 13.49 56.282 0.037 6.77 2.13 9.87
5/27/2022 10:15:00 AM 13.49 56.282 0.037 6.77 2.24 9.88
5/27/2022 10:30:00 AM 13.52 56.336 0.037 6.79 2.01 9.92
5/27/2022 10:45:00 AM 13.53 56.354 0.037 6.8 2.05 9.92
5/27/2022 11:00:00 AM 13.54 56.372 0.037 6.79 3.01 9.92
5/27/2022 11:15:00 AM 13.54 56.372 0.037 6.8 2.03 9.89
5/27/2022 11:30:00 AM 13.55 56.39 0.037 6.8 2.15 9.86
5/27/2022 11:45:00 AM 13.55 56.39 0.037 6.8 1.99 9.85
5/27/2022 12:00:00 PM 13.57 56.426 0.037 6.81 2.05 9.85
5/27/2022 12:15:00 PM 13.58 56.444 0.037 6.81 2.1 9.87
5/27/2022 12:30:00 PM 13.59 56.462 0.037 6.81 2.16 9.87
5/27/2022 12:45:00 PM 13.61 56.498 0.037 6.82 2.23 9.87
5/27/2022 1:00:00 PM 13.62 56.516 0.037 6.81 2.08 9.85
5/27/2022 1:15:00 PM 13.66 56.588 0.037 6.82 2.05 9.85
5/27/2022 1:30:00 PM 13.68 56.624 0.037 6.83 2.07 9.86
5/27/2022 1:45:00 PM 13.71 56.678 0.037 6.85 2.09 9.86
5/27/2022 2:00:00 PM 13.77 56.786 0.037 6.87 2.24 9.92
5/27/2022 2:15:00 PM 13.86 56.948 0.036 6.89 2.17 9.96
5/27/2022 2:30:00 PM 13.9 57.02 0.036 6.9 2.09 9.95
5/27/2022 2:45:00 PM 13.97 57.146 0.036 6.91 1.98 9.95
5/27/2022 3:00:00 PM 14.02 57.236 0.036 6.92 2.16 9.91
5/27/2022 3:15:00 PM 14.06 57.308 0.036 6.91 2.03 9.89
5/27/2022 3:30:00 PM 14.11 57.398 0.036 6.93 2 9.9
5/27/2022 3:45:00 PM 14.16 57.488 0.036 6.92 2.09 9.89
5/27/2022 4:00:00 PM 14.24 57.632 0.036 6.92 2.04 9.89
5/27/2022 4:15:00 PM 14.28 57.704 0.036 6.93 2.08 9.86
5/27/2022 4:30:00 PM 14.32 57.776 0.036 6.92 2.08 9.84
5/27/2022 4:45:00 PM 14.37 57.866 0.036 6.92 2.04 9.83
5/27/2022 5:00:00 PM 14.41 57.938 0.036 6.92 2.02 9.82
5/27/2022 5:15:00 PM 14.47 58.046 0.036 6.91 2.17 9.79
5/27/2022 5:30:00 PM 14.5 58.1 0.036 6.92 2.01 9.76
5/27/2022 5:45:00 PM 14.53 58.154 0.036 6.9 2.2 9.74
5/27/2022 6:00:00 PM 14.53 58.154 0.036 6.91 2.09 9.71
5/27/2022 6:15:00 PM 14.52 58.136 0.036 6.89 2.1 9.69
5/27/2022 6:30:00 PM 14.53 58.154 0.036 6.88 2.06 9.65
5/27/2022 6:45:00 PM 14.49 58.082 0.036 6.86 1.98 9.62
5/27/2022 7:00:00 PM 14.47 58.046 0.036 6.84 2.07 9.59
5/27/2022 7:15:00 PM 14.48 58.064 0.036 6.82 2.29 9.54
5/27/2022 7:30:00 PM 14.5 58.1 0.036 6.82 2.38 9.49
5/27/2022 7:45:00 PM 14.48 58.064 0.036 6.82 2.85 9.5
5/27/2022 8:00:00 PM 14.44 57.992 0.036 6.81 2.35 9.49
5/27/2022 8:15:00 PM 14.42 57.956 0.036 6.81 2.29 9.47
5/27/2022 8:30:00 PM 14.39 57.902 0.036 6.79 2.45 9.45
5/27/2022 8:45:00 PM 14.36 57.848 0.037 6.78 2.27 9.42
5/27/2022 9:00:00 PM 14.33 57.794 0.037 6.77 2.38 9.43
5/27/2022 9:15:00 PM 14.3 57.74 0.037 6.76 6.06 9.41
5/27/2022 9:30:00 PM 14.27 57.686 0.037 6.75 2.45 9.44
5/27/2022 9:45:00 PM 14.24 57.632 0.037 6.75 2.4 9.46
5/27/2022 10:00:00 PM 14.21 57.578 0.037 6.75 2.44 9.48
5/27/2022 10:15:00 PM 14.18 57.524 0.037 6.75 2.13 9.48
5/27/2022 10:30:00 PM 14.14 57.452 0.037 6.74 2.25 9.49
5/27/2022 10:45:00 PM 14.12 57.416 0.037 6.74 2.3 9.5
5/27/2022 11:00:00 PM 14.08 57.344 0.037 6.74 2.02 9.52
5/27/2022 11:15:00 PM 14.06 57.308 0.037 6.75 2.12 9.53
5/27/2022 11:30:00 PM 14.03 57.254 0.037 6.75 2.26 9.54
5/27/2022 11:45:00 PM 13.99 57.182 0.037 6.74 2.06 9.56
5/28/2022 12:00:00 AM 13.96 57.128 0.037 6.74 2.12 9.57
5/28/2022 12:15:00 AM 13.93 57.074 0.037 6.74 2.27 9.57
5/28/2022 12:30:00 AM 13.89 57.002 0.037 6.73 2.36 9.57
5/28/2022 12:45:00 AM 13.86 56.948 0.037 6.73 2.21 9.58
5/28/2022 1:00:00 AM 13.83 56.894 0.037 6.74 2.5 9.58
5/28/2022 1:15:00 AM 13.8 56.84 0.037 6.73 2.17 9.58
5/28/2022 1:30:00 AM 13.76 56.768 0.038 6.74 2.16 9.6
5/28/2022 1:45:00 AM 13.73 56.714 0.037 6.73 2.25 9.59
5/28/2022 2:00:00 AM 13.7 56.66 0.037 6.73 2.46 9.6
5/28/2022 2:15:00 AM 13.68 56.624 0.037 6.73 2.22 9.59
5/28/2022 2:30:00 AM 13.64 56.552 0.037 6.73 2.52 9.61
5/28/2022 2:45:00 AM 13.6 56.48 0.037 6.73 2.34 9.61
5/28/2022 3:00:00 AM 13.57 56.426 0.037 6.72 2.32 9.62
5/28/2022 3:15:00 AM 13.54 56.372 0.037 6.72 2.38 9.63
5/28/2022 3:30:00 AM 13.51 56.318 0.037 6.73 2.59 9.64
5/28/2022 3:45:00 AM 13.49 56.282 0.037 6.72 2.13 9.64
5/28/2022 4:00:00 AM 13.46 56.228 0.037 6.73 2.35 9.65
5/28/2022 4:15:00 AM 13.43 56.174 0.037 6.74 2.18 9.65
5/28/2022 4:30:00 AM 13.41 56.138 0.037 6.74 3.59 9.66
5/28/2022 4:45:00 AM 13.38 56.084 0.037 6.75 2.75 9.67
5/28/2022 5:00:00 AM 13.36 56.048 0.037 6.76 2.55 9.69
5/28/2022 5:15:00 AM 13.33 55.994 0.037 6.76 2.16 9.69
5/28/2022 5:30:00 AM 13.3 55.94 0.037 6.76 2.7 9.69
5/28/2022 5:45:00 AM 13.28 55.904 0.037 6.77 2.49 9.72
5/28/2022 6:00:00 AM 13.25 55.85 0.037 6.76 2.76 9.72
5/28/2022 6:15:00 AM 13.23 55.814 0.037 6.76 2.34 9.73
5/28/2022 6:30:00 AM 13.21 55.778 0.037 6.77 2.18 9.76
5/28/2022 6:45:00 AM 13.19 55.742 0.037 6.77 3.29 9.75
5/28/2022 7:00:00 AM 13.16 55.688 0.037 6.76 4.45 9.77
5/28/2022 7:15:00 AM 13.15 55.67 0.037 6.77 2.6 9.8
5/28/2022 7:30:00 AM 13.13 55.634 0.037 6.77 2.13 9.81
5/28/2022 7:45:00 AM 13.12 55.616 0.037 6.78 2.26 9.83
5/28/2022 8:00:00 AM 13.11 55.598 0.037 6.78 2.1 9.85
5/28/2022 8:15:00 AM 13.11 55.598 0.037 6.78 2.43 9.84
5/28/2022 8:30:00 AM 13.09 55.562 0.037 6.77 2.43 9.84
5/28/2022 8:45:00 AM 13.09 55.562 0.037 6.78 2.41 9.86
5/28/2022 9:00:00 AM 13.1 55.58 0.037 6.8 2.34 9.91
5/28/2022 9:15:00 AM 13.11 55.598 0.037 6.81 2.38 9.93
5/28/2022 9:30:00 AM 13.1 55.58 0.037 6.81 2.1 9.91
5/28/2022 9:45:00 AM 13.09 55.562 0.037 6.81 2.11 9.92
5/28/2022 10:00:00 AM 13.1 55.58 0.037 6.82 2.22 9.95
5/28/2022 10:15:00 AM 13.11 55.598 0.037 6.83 2.06 9.96
5/28/2022 10:30:00 AM 13.13 55.634 0.037 6.85 2.19 9.99
5/28/2022 10:45:00 AM 13.15 55.67 0.037 6.86 2.19 10
5/28/2022 11:00:00 AM 13.16 55.688 0.037 6.86 2.24 10.02
5/28/2022 11:15:00 AM 13.18 55.724 0.037 6.86 2.24 10.03
5/28/2022 11:30:00 AM 13.21 55.778 0.036 6.87 2.09 10.04
5/28/2022 11:45:00 AM 13.22 55.796 0.036 6.87 2.74 10
5/28/2022 12:00:00 PM 13.25 55.85 0.036 6.87 2.21 10.03
5/28/2022 12:15:00 PM 13.29 55.922 0.036 6.88 2.2 10.05
5/28/2022 12:30:00 PM 13.33 55.994 0.036 6.89 2.27 10.06
5/28/2022 12:45:00 PM 13.41 56.138 0.036 6.91 2.21 10.08
5/28/2022 1:00:00 PM 13.47 56.246 0.036 6.91 2.18 10.06
5/28/2022 1:15:00 PM 13.59 56.462 0.036 6.92 2.1 10.07
5/28/2022 1:30:00 PM 13.68 56.624 0.036 6.92 2.1 10.04
5/28/2022 1:45:00 PM 13.88 56.984 0.036 6.93 2.26 9.99
5/28/2022 2:00:00 PM 13.99 57.182 0.036 6.93 2.16 9.98
5/28/2022 2:15:00 PM 14.04 57.272 0.036 6.93 2.08 9.95
5/28/2022 2:30:00 PM 14.19 57.542 0.036 6.93 2.25 9.92
5/28/2022 2:45:00 PM 14.35 57.83 0.036 6.93 2.01 9.91
5/28/2022 3:00:00 PM 14.33 57.794 0.036 6.93 2.09 9.86
5/28/2022 3:15:00 PM 14.25 57.65 0.036 6.91 2.08 9.82
5/28/2022 3:30:00 PM 14.26 57.668 0.036 6.91 2.15 9.87
5/28/2022 3:45:00 PM 14.46 58.028 0.036 6.92 2.1 9.86
5/28/2022 4:00:00 PM 14.6 58.28 0.036 6.93 2.14 9.81
5/28/2022 4:15:00 PM 14.64 58.352 0.036 6.93 2.03 9.78
5/28/2022 4:30:00 PM 14.6 58.28 0.036 6.91 2.08 9.72
5/28/2022 4:45:00 PM 14.57 58.226 0.036 6.9 2.07 9.72
5/28/2022 5:00:00 PM 14.6 58.28 0.036 6.9 2.09 9.72
5/28/2022 5:15:00 PM 14.6 58.28 0.036 6.89 1.9 9.7
5/28/2022 5:30:00 PM 14.62 58.316 0.036 6.89 2.04 9.68
5/28/2022 5:45:00 PM 14.59 58.262 0.036 6.87 2.32 9.64
5/28/2022 6:00:00 PM 14.56 58.208 0.036 6.86 1.99 9.62
5/28/2022 6:15:00 PM 14.57 58.226 0.036 6.86 2.46 9.62
5/28/2022 6:30:00 PM 14.57 58.226 0.036 6.84 2.22 9.61
5/28/2022 6:45:00 PM 14.57 58.226 0.036 6.84 2.44 9.58
5/28/2022 7:00:00 PM 14.56 58.208 0.036 6.83 1.98 9.57
5/28/2022 7:15:00 PM 14.55 58.19 0.037 6.82 2.23 9.56
5/28/2022 7:30:00 PM 14.53 58.154 0.037 6.81 1.97 9.54
5/28/2022 7:45:00 PM 14.54 58.172 0.037 6.81 2.09 9.54
5/28/2022 8:00:00 PM 14.53 58.154 0.037 6.8 1.92 9.52
5/28/2022 8:15:00 PM 14.5 58.1 0.037 6.79 2.05 9.52
5/28/2022 8:30:00 PM 14.47 58.046 0.037 6.79 2.13 9.5
5/28/2022 8:45:00 PM 14.43 57.974 0.037 6.79 2.1 9.5
5/28/2022 9:00:00 PM 14.4 57.92 0.037 6.8 2.28 9.5
5/28/2022 9:15:00 PM 14.35 57.83 0.037 6.8 2.44 9.52
5/28/2022 9:30:00 PM 14.3 57.74 0.037 6.8 2.09 9.53
5/28/2022 9:45:00 PM 14.25 57.65 0.037 6.81 2.12 9.54
5/28/2022 10:00:00 PM 14.2 57.56 0.037 6.8 2.1 9.54
5/28/2022 10:15:00 PM 14.15 57.47 0.037 6.8 2.18 9.55
5/28/2022 10:30:00 PM 14.1 57.38 0.037 6.8 2.1 9.56
5/28/2022 10:45:00 PM 14.05 57.29 0.037 6.8 2.26 9.58
5/28/2022 11:00:00 PM 13.99 57.182 0.037 6.79 2 9.58
5/28/2022 11:15:00 PM 13.93 57.074 0.037 6.79 2.35 9.6
5/28/2022 11:30:00 PM 13.88 56.984 0.037 6.8 2.07 9.62
5/28/2022 11:45:00 PM 13.83 56.894 0.037 6.8 2.47 9.64
5/29/2022 12:00:00 AM 13.78 56.804 0.037 6.8 2.1 9.66
5/29/2022 12:15:00 AM 13.73 56.714 0.038 6.79 2.3 9.67
5/29/2022 12:30:00 AM 13.67 56.606 0.038 6.8 2.05 9.68
5/29/2022 12:45:00 AM 13.6 56.48 0.038 6.8 2.1 9.7
5/29/2022 1:00:00 AM 13.54 56.372 0.038 6.79 2.18 9.72
5/29/2022 1:15:00 AM 13.48 56.264 0.038 6.8 2.1 9.74
5/29/2022 1:30:00 AM 13.43 56.174 0.038 6.8 2.09 9.75
5/29/2022 1:45:00 AM 13.37 56.066 0.038 6.8 2.23 9.76
5/29/2022 2:00:00 AM 13.31 55.958 0.038 6.79 2.02 9.78
5/29/2022 2:15:00 AM 13.26 55.868 0.038 6.8 2.42 9.81
5/29/2022 2:30:00 AM 13.21 55.778 0.038 6.79 3.22 9.79
5/29/2022 2:45:00 AM 13.16 55.688 0.038 6.8 2.37 9.82
5/29/2022 3:00:00 AM 13.11 55.598 0.038 6.79 2.15 9.85
5/29/2022 3:15:00 AM 13.06 55.508 0.038 6.8 2.11 9.85
5/29/2022 3:30:00 AM 13.01 55.418 0.038 6.8 2.04 9.86
5/29/2022 3:45:00 AM 12.96 55.328 0.038 6.8 2.06 9.87
5/29/2022 4:00:00 AM 12.92 55.256 0.038 6.79 2.22 9.88
5/29/2022 4:15:00 AM 12.88 55.184 0.038 6.8 2.2 9.9
5/29/2022 4:30:00 AM 12.83 55.094 0.038 6.79 2.4 9.9
5/29/2022 4:45:00 AM 12.8 55.04 0.038 6.79 2.86 9.91
5/29/2022 5:00:00 AM 12.75 54.95 0.038 6.79 2.23 9.93
5/29/2022 5:15:00 AM 12.71 54.878 0.038 6.8 2.16 9.94
5/29/2022 5:30:00 AM 12.67 54.806 0.038 6.79 2.19 9.94
5/29/2022 5:45:00 AM 12.63 54.734 0.038 6.79 2.52 9.96
5/29/2022 6:00:00 AM 12.59 54.662 0.038 6.79 2.27 9.97
5/29/2022 6:15:00 AM 12.55 54.59 0.038 6.79 2.13 9.99
5/29/2022 6:30:00 AM 12.52 54.536 0.038 6.79 2.16 10.02
5/29/2022 6:45:00 AM 12.49 54.482 0.038 6.8 2.17 10.05
5/29/2022 7:00:00 AM 12.46 54.428 0.038 6.81 2.24 10.08
5/29/2022 7:15:00 AM 12.43 54.374 0.037 6.81 2.35 10.11
5/29/2022 7:30:00 AM 12.42 54.356 0.037 6.82 2.18 10.14
5/29/2022 7:45:00 AM 12.4 54.32 0.037 6.83 2.02 10.16
5/29/2022 8:00:00 AM 12.38 54.284 0.037 6.83 2.22 10.18
5/29/2022 8:15:00 AM 12.39 54.302 0.037 6.83 2.27 10.21
5/29/2022 8:30:00 AM 12.39 54.302 0.037 6.84 2.18 10.23
5/29/2022 8:45:00 AM 12.4 54.32 0.037 6.85 2.08 10.25
5/29/2022 9:00:00 AM 12.4 54.32 0.037 6.85 2.82 10.26
5/29/2022 9:15:00 AM 12.4 54.32 0.037 6.85 2.18 10.24
5/29/2022 9:30:00 AM 12.4 54.32 0.037 6.85 2.18 10.23
5/29/2022 9:45:00 AM 12.42 54.356 0.037 6.85 2.09 10.22
5/29/2022 10:00:00 AM 12.44 54.392 0.037 6.83 2.42 10.21
5/29/2022 10:15:00 AM 12.48 54.464 0.037 6.85 2.16 10.22
5/29/2022 10:30:00 AM 12.53 54.554 0.037 6.84 2.25 10.2
5/29/2022 10:45:00 AM 12.6 54.68 0.037 6.86 2.03 10.23
5/29/2022 11:00:00 AM 12.68 54.824 0.037 6.87 2.19 10.23
5/29/2022 11:15:00 AM 12.76 54.968 0.037 6.87 2.12 10.23
5/29/2022 11:30:00 AM 12.85 55.13 0.037 6.89 2.01 10.21
5/29/2022 11:45:00 AM 12.99 55.382 0.037 6.87 2.24 10.19
5/29/2022 12:00:00 PM 13.13 55.634 0.037 6.88 2.04 10.16
5/29/2022 12:15:00 PM 13.29 55.922 0.037 6.87 2.4 10.11
5/29/2022 12:30:00 PM 13.49 56.282 0.037 6.87 2.28 10.06
5/29/2022 12:45:00 PM 13.72 56.696 0.037 6.88 2.03 10.03
5/29/2022 1:00:00 PM 13.93 57.074 0.036 6.88 2.07 9.98
5/29/2022 1:15:00 PM 14.15 57.47 0.036 6.88 1.99 9.94
5/29/2022 1:30:00 PM 14.45 58.01 0.036 6.88 2.05 9.91
5/29/2022 1:45:00 PM 14.76 58.568 0.036 6.9 2.23 9.86
5/29/2022 2:00:00 PM 15.01 59.018 0.036 6.89 2.03 9.81
5/29/2022 2:15:00 PM 15.2 59.36 0.036 6.88 2.11 9.76
5/29/2022 2:30:00 PM 15.45 59.81 0.036 6.9 1.93 9.74
5/29/2022 2:45:00 PM 15.61 60.098 0.036 6.89 1.99 9.7
5/29/2022 3:00:00 PM 15.72 60.296 0.036 6.91 2.2 9.68
5/29/2022 3:15:00 PM 15.83 60.494 0.036 6.91 2.04 9.66
5/29/2022 3:30:00 PM 15.87 60.566 0.036 6.9 1.99 9.61
5/29/2022 3:45:00 PM 15.89 60.602 0.036 6.91 1.95 9.63
5/29/2022 4:00:00 PM 15.95 60.71 0.036 6.9 1.99 9.6
5/29/2022 4:15:00 PM 15.99 60.782 0.036 6.9 2.12 9.55
5/29/2022 4:30:00 PM 16.03 60.854 0.036 6.91 1.94 9.54
5/29/2022 4:45:00 PM 16.05 60.89 0.036 6.89 2.53 9.51
5/29/2022 5:00:00 PM 16.02 60.836 0.037 6.89 1.84 9.47
5/29/2022 5:15:00 PM 16.01 60.818 0.037 6.88 1.91 9.44
5/29/2022 5:30:00 PM 15.99 60.782 0.037 6.88 4.39 9.43
5/29/2022 5:45:00 PM 15.92 60.656 0.037 6.87 1.99 9.37
5/29/2022 6:00:00 PM 15.91 60.638 0.037 6.86 2.17 9.37
5/29/2022 6:15:00 PM 15.88 60.584 0.037 6.85 1.96 9.35
5/29/2022 6:30:00 PM 15.82 60.476 0.037 6.83 2.03 9.32
5/29/2022 6:45:00 PM 15.77 60.386 0.037 6.84 1.87 9.32
5/29/2022 7:00:00 PM 15.74 60.332 0.037 6.83 1.95 9.31
5/29/2022 7:15:00 PM 15.71 60.278 0.037 6.82 1.86 9.3
5/29/2022 7:30:00 PM 15.66 60.188 0.037 6.81 1.96 9.27
5/29/2022 7:45:00 PM 15.62 60.116 0.037 6.8 2.03 9.27
5/29/2022 8:00:00 PM 15.59 60.062 0.037 6.8 2 9.28
5/29/2022 8:15:00 PM 15.55 59.99 0.038 6.79 1.9 9.27
5/29/2022 8:30:00 PM 15.5 59.9 0.038 6.77 2.25 9.23
5/29/2022 8:45:00 PM 15.46 59.828 0.038 6.77 2.14 9.24
5/29/2022 9:00:00 PM 15.4 59.72 0.038 6.77 2.06 9.25
5/29/2022 9:15:00 PM 15.37 59.666 0.038 6.78 2.09 9.27
5/29/2022 9:30:00 PM 15.3 59.54 0.038 6.78 2.13 9.27
5/29/2022 9:45:00 PM 15.24 59.432 0.038 6.77 2.03 9.28
5/29/2022 10:00:00 PM 15.18 59.324 0.038 6.78 2.22 9.31
5/29/2022 10:15:00 PM 15.14 59.252 0.038 6.79 2.16 9.32
5/29/2022 10:30:00 PM 15.07 59.126 0.038 6.79 2.16 9.34
5/29/2022 10:45:00 PM 15.01 59.018 0.038 6.79 2.18 9.34
5/29/2022 11:00:00 PM 14.94 58.892 0.038 6.79 2.1 9.35
5/29/2022 11:15:00 PM 14.87 58.766 0.038 6.79 2.03 9.39
5/29/2022 11:30:00 PM 14.8 58.64 0.038 6.79 2.1 9.41
5/29/2022 11:45:00 PM 14.72 58.496 0.038 6.79 2.14 9.43
5/30/2022 12:00:00 AM 14.66 58.388 0.038 6.79 2.15 9.44
5/30/2022 12:15:00 AM 14.59 58.262 0.038 6.79 2.04 9.46
5/30/2022 12:30:00 AM 14.51 58.118 0.038 6.79 2.39 9.48
5/30/2022 12:45:00 AM 14.45 58.01 0.038 6.79 2.12 9.51
5/30/2022 1:00:00 AM 14.37 57.866 0.038 6.78 2.04 9.5
5/30/2022 1:15:00 AM 14.29 57.722 0.038 6.79 2.18 9.55
5/30/2022 1:30:00 AM 14.21 57.578 0.038 6.79 2.14 9.57
5/30/2022 1:45:00 AM 14.14 57.452 0.038 6.79 2.25 9.58
5/30/2022 2:00:00 AM 14.08 57.344 0.038 6.79 2.23 9.58
5/30/2022 2:15:00 AM 14 57.2 0.038 6.78 2.16 9.61
5/30/2022 2:30:00 AM 13.93 57.074 0.038 6.79 2.13 9.63
5/30/2022 2:45:00 AM 13.87 56.966 0.038 6.79 2.8 9.64
5/30/2022 3:00:00 AM 13.79 56.822 0.038 6.79 2.11 9.65
5/30/2022 3:15:00 AM 13.73 56.714 0.038 6.78 2.16 9.67
5/30/2022 3:30:00 AM 13.66 56.588 0.038 6.79 2.45 9.7
5/30/2022 3:45:00 AM 13.59 56.462 0.038 6.79 2.19 9.72
5/30/2022 4:00:00 AM 13.53 56.354 0.038 6.79 2.25 9.73
5/30/2022 4:15:00 AM 13.47 56.246 0.038 6.78 2.11 9.74
5/30/2022 4:30:00 AM 13.41 56.138 0.038 6.78 2.35 9.73
5/30/2022 4:45:00 AM 13.34 56.012 0.038 6.78 2.25 9.76
5/30/2022 5:00:00 AM 13.29 55.922 0.038 6.78 2.33 9.76
5/30/2022 5:15:00 AM 13.23 55.814 0.038 6.78 3.41 9.81
5/30/2022 5:30:00 AM 13.17 55.706 0.038 6.78 2.04 9.82
5/30/2022 5:45:00 AM 13.11 55.598 0.038 6.78 2.09 9.83
5/30/2022 6:00:00 AM 13.06 55.508 0.038 6.78 2.14 9.84
5/30/2022 6:15:00 AM 13.01 55.418 0.038 6.78 2.29 9.87
5/30/2022 6:30:00 AM 12.96 55.328 0.038 6.78 2.15 9.86
5/30/2022 6:45:00 AM 12.91 55.238 0.038 6.78 2.29 9.91
5/30/2022 7:00:00 AM 12.87 55.166 0.038 6.79 2.37 9.94
5/30/2022 7:15:00 AM 12.83 55.094 0.038 6.79 2.19 9.95
5/30/2022 7:30:00 AM 12.79 55.022 0.038 6.78 2.21 9.95
5/30/2022 7:45:00 AM 12.76 54.968 0.038 6.79 2.21 9.97
5/30/2022 8:00:00 AM 12.72 54.896 0.038 6.79 2.36 9.99
5/30/2022 8:15:00 AM 12.7 54.86 0.038 6.79 2.47 10.01
5/30/2022 8:30:00 AM 12.67 54.806 0.038 6.79 2.38 10.01
5/30/2022 8:45:00 AM 12.67 54.806 0.038 6.79 2.39 10.03
5/30/2022 9:00:00 AM 12.67 54.806 0.038 6.78 2.13 10.05
5/30/2022 9:15:00 AM 12.68 54.824 0.038 6.78 2.04 10.06
5/30/2022 9:30:00 AM 12.71 54.878 0.038 6.78 4.41 10.03
5/30/2022 9:45:00 AM 12.77 54.986 0.038 6.8 3.61 10.06
5/30/2022 10:00:00 AM 12.82 55.076 0.038 6.82 2.56 10.07
5/30/2022 10:15:00 AM 12.88 55.184 0.038 6.81 2.51 10.04
5/30/2022 10:30:00 AM 12.95 55.31 0.038 6.82 2.15 10.04
5/30/2022 10:45:00 AM 13.03 55.454 0.038 6.82 3.43 9.98
5/30/2022 11:00:00 AM 13.15 55.67 0.038 6.83 2.41 10.02
5/30/2022 11:15:00 AM 13.26 55.868 0.038 6.84 2.09 10.02
5/30/2022 11:30:00 AM 13.36 56.048 0.038 6.83 4.34 9.97
5/30/2022 11:45:00 AM 13.57 56.426 0.038 6.84 2.14 9.95
5/30/2022 12:00:00 PM 13.76 56.768 0.037 6.86 2.08 9.96
5/30/2022 12:15:00 PM 13.99 57.182 0.037 6.87 2.2 9.93
5/30/2022 12:30:00 PM 14.11 57.398 0.037 6.87 2.29 9.87
5/30/2022 12:45:00 PM 14.33 57.794 0.037 6.88 2.03 9.84
5/30/2022 1:00:00 PM 14.68 58.424 0.037 6.89 3.08 9.81
5/30/2022 1:15:00 PM 14.91 58.838 0.037 6.9 2.72 9.76
5/30/2022 1:30:00 PM 15.1 59.18 0.037 6.9 1.75 9.71
5/30/2022 1:45:00 PM 15.44 59.792 0.037 6.91 3.83 9.69
5/30/2022 2:00:00 PM 15.8 60.44 0.037 6.91 1.98 9.65
5/30/2022 2:15:00 PM 16.09 60.962 0.037 6.92 2.04 9.6
5/30/2022 2:30:00 PM 16.22 61.196 0.037 6.92 2.37 9.57
5/30/2022 2:45:00 PM 16.42 61.556 0.037 6.92 1.99 9.51
5/30/2022 3:00:00 PM 16.69 62.042 0.037 6.93 1.8 9.48
5/30/2022 3:15:00 PM 16.76 62.168 0.037 6.92 1.86 9.43
5/30/2022 3:30:00 PM 16.89 62.402 0.037 6.92 1.92 9.4
5/30/2022 3:45:00 PM 16.96 62.528 0.037 6.91 1.85 9.35
5/30/2022 4:00:00 PM 17.05 62.69 0.037 6.92 1.91 9.34
5/30/2022 4:15:00 PM 17.05 62.69 0.037 6.91 1.96 9.28
5/30/2022 4:30:00 PM 17.14 62.852 0.037 6.9 2.16 9.26
5/30/2022 4:45:00 PM 17.19 62.942 0.037 6.9 1.79 9.24
5/30/2022 5:00:00 PM 17.2 62.96 0.037 6.9 1.85 9.23
5/30/2022 5:15:00 PM 17.2 62.96 0.037 6.89 2.04 9.19
5/30/2022 5:30:00 PM 17.18 62.924 0.037 6.88 1.98 9.16
5/30/2022 5:45:00 PM 17.14 62.852 0.037 6.87 2.04 9.12
5/30/2022 6:00:00 PM 17.11 62.798 0.037 6.86 1.91 9.09
5/30/2022 6:15:00 PM 17.08 62.744 0.038 6.85 1.98 9.07
5/30/2022 6:30:00 PM 17.04 62.672 0.038 6.84 1.83 9.05
5/30/2022 6:45:00 PM 16.98 62.564 0.038 6.82 1.98 9.04
5/30/2022 7:00:00 PM 16.93 62.474 0.038 6.81 2 9.03
5/30/2022 7:15:00 PM 16.91 62.438 0.038 6.81 1.89 9.02
5/30/2022 7:30:00 PM 16.88 62.384 0.038 6.8 1.93 9.01
5/30/2022 7:45:00 PM 16.85 62.33 0.038 6.79 2.23 9.01
5/30/2022 8:00:00 PM 16.82 62.276 0.038 6.79 2.63 9.01
5/30/2022 8:15:00 PM 16.79 62.222 0.038 6.77 2.18 8.99
5/30/2022 8:30:00 PM 16.75 62.15 0.038 6.76 2.22 8.98
5/30/2022 8:45:00 PM 16.71 62.078 0.038 6.76 2.27 8.98
5/30/2022 9:00:00 PM 16.66 61.988 0.038 6.75 1.97 9
5/30/2022 9:15:00 PM 16.61 61.898 0.038 6.75 2.68 9
5/30/2022 9:30:00 PM 16.56 61.808 0.038 6.75 2.17 9.01
5/30/2022 9:45:00 PM 16.5 61.7 0.039 6.75 2.09 9
5/30/2022 10:00:00 PM 16.45 61.61 0.039 6.74 2.18 9.02
5/30/2022 10:15:00 PM 16.4 61.52 0.039 6.74 2.1 9.03
5/30/2022 10:30:00 PM 16.35 61.43 0.039 6.75 2.09 9.04
5/30/2022 10:45:00 PM 16.29 61.322 0.039 6.75 2.07 9.06
5/30/2022 11:00:00 PM 16.23 61.214 0.039 6.75 2.21 9.06
5/30/2022 11:15:00 PM 16.17 61.106 0.039 6.75 2.24 9.09
5/30/2022 11:30:00 PM 16.1 60.98 0.039 6.76 2.15 9.12
5/30/2022 11:45:00 PM 16.05 60.89 0.039 6.76 2.4 9.11
5/31/2022 12:00:00 AM 15.98 60.764 0.039 6.76 2.04 9.13
5/31/2022 12:15:00 AM 15.91 60.638 0.039 6.76 2.2 9.16
5/31/2022 12:30:00 AM 15.84 60.512 0.039 6.77 2.28 9.17
5/31/2022 12:45:00 AM 15.78 60.404 0.039 6.77 2.21 9.19
5/31/2022 1:00:00 AM 15.71 60.278 0.039 6.77 2.21 9.18
5/31/2022 1:15:00 AM 15.64 60.152 0.039 6.77 3.41 9.21
5/31/2022 1:30:00 AM 15.57 60.026 0.039 6.77 2.75 9.23
5/31/2022 1:45:00 AM 15.5 59.9 0.039 6.77 2.03 9.23
5/31/2022 2:00:00 AM 15.42 59.756 0.039 6.78 2.11 9.27
5/31/2022 2:15:00 AM 15.35 59.63 0.039 6.78 2.26 9.28
5/31/2022 2:30:00 AM 15.29 59.522 0.039 6.77 2.22 9.28
5/31/2022 2:45:00 AM 15.22 59.396 0.039 6.77 2.4 9.29
5/31/2022 3:00:00 AM 15.12 59.216 0.039 6.77 2.45 9.33
5/31/2022 3:15:00 AM 15.05 59.09 0.039 6.77 2.18 9.36
5/31/2022 3:30:00 AM 14.99 58.982 0.039 6.77 2.31 9.35
5/31/2022 3:45:00 AM 14.91 58.838 0.039 6.78 2.15 9.4
5/31/2022 4:00:00 AM 14.84 58.712 0.039 6.77 2.29 9.41
5/31/2022 4:15:00 AM 14.77 58.586 0.039 6.77 2.31 9.42
5/31/2022 4:30:00 AM 14.7 58.46 0.039 6.77 2.25 9.42
5/31/2022 4:45:00 AM 14.63 58.334 0.039 6.77 2.18 9.46
5/31/2022 5:00:00 AM 14.57 58.226 0.039 6.77 2.24 9.45
5/31/2022 5:15:00 AM 14.5 58.1 0.039 6.77 2.23 9.48
5/31/2022 5:30:00 AM 14.44 57.992 0.039 6.77 2.34 9.5
5/31/2022 5:45:00 AM 14.38 57.884 0.039 6.78 2.6 9.51
5/31/2022 6:00:00 AM 14.32 57.776 0.039 6.77 2.41 9.54
5/31/2022 6:15:00 AM 14.26 57.668 0.039 6.77 2.09 9.57
5/31/2022 6:30:00 AM 14.2 57.56 0.039 6.77 2.45 9.59
5/31/2022 6:45:00 AM 14.15 57.47 0.039 6.77 2.15 9.61
5/31/2022 7:00:00 AM 14.11 57.398 0.039 6.77 2.41 9.63
5/31/2022 7:15:00 AM 14.06 57.308 0.039 6.78 2.19 9.64
5/31/2022 7:30:00 AM 14.02 57.236 0.039 6.78 2.22 9.66
5/31/2022 7:45:00 AM 13.97 57.146 0.039 6.78 2.19 9.68
5/31/2022 8:00:00 AM 13.94 57.092 0.039 6.79 2.11 9.7
5/31/2022 8:15:00 AM 13.9 57.02 0.039 6.78 2.11 9.7
5/31/2022 8:30:00 AM 13.88 56.984 0.039 6.78 2.14 9.7
5/31/2022 8:45:00 AM 13.86 56.948 0.039 6.77 2.15 9.71
5/31/2022 9:00:00 AM 13.85 56.93 0.039 6.77 2.2 9.72
5/31/2022 9:15:00 AM 13.86 56.948 0.039 6.76 2.06 9.72
5/31/2022 9:30:00 AM 13.87 56.966 0.039 6.76 2.11 9.72
5/31/2022 9:45:00 AM 13.9 57.02 0.039 6.78 2.31 9.74
5/31/2022 10:00:00 AM 13.94 57.092 0.039 6.78 2.04 9.74
5/31/2022 10:15:00 AM 14 57.2 0.039 6.79 2.02 9.77
5/31/2022 10:30:00 AM 14.08 57.344 0.039 6.81 2.15 9.75
5/31/2022 10:45:00 AM 14.15 57.47 0.039 6.81 2.12 9.73
5/31/2022 11:00:00 AM 14.24 57.632 0.038 6.82 1.99 9.72
5/31/2022 11:15:00 AM 14.35 57.83 0.038 6.82 2.39 9.7
5/31/2022 11:30:00 AM 14.54 58.172 0.038 6.85 2.17 9.72
5/31/2022 11:45:00 AM 14.73 58.514 0.038 6.87 2.08 9.72
5/31/2022 12:00:00 PM 14.9 58.82 0.038 6.87 2.1 9.7
5/31/2022 12:15:00 PM 15.02 59.036 0.038 6.87 2.02 9.67
5/31/2022 12:30:00 PM 15.15 59.27 0.038 6.87 2.05 9.63
5/31/2022 12:45:00 PM 15.42 59.756 0.038 6.88 2.18 9.6
5/31/2022 1:00:00 PM 15.61 60.098 0.038 6.88 2.16 9.57
5/31/2022 1:15:00 PM 15.76 60.368 0.038 6.89 2.21 9.54
5/31/2022 1:30:00 PM 15.98 60.764 0.038 6.9 1.92 9.51
5/31/2022 1:45:00 PM 16.27 61.286 0.038 6.89 1.89 9.48
5/31/2022 2:00:00 PM 16.51 61.718 0.038 6.91 2.05 9.45
5/31/2022 2:15:00 PM 16.66 61.988 0.038 6.9 2.06 9.4
5/31/2022 2:30:00 PM 16.87 62.366 0.038 6.92 1.98 9.35
5/31/2022 2:45:00 PM 17.12 62.816 0.038 6.93 2.04 9.36
5/31/2022 3:00:00 PM 17.22 62.996 0.038 6.93 1.97 9.32
5/31/2022 3:15:00 PM 17.3 63.14 0.038 6.92 1.99 9.24
5/31/2022 3:30:00 PM 17.21 62.978 0.038 6.9 2.06 9.2
5/31/2022 3:45:00 PM 17.27 63.086 0.038 6.9 1.89 9.22
5/31/2022 4:00:00 PM 17.32 63.176 0.038 6.9 2.03 9.2
5/31/2022 4:15:00 PM 17.42 63.356 0.038 6.89 1.93 9.17
5/31/2022 4:30:00 PM 17.51 63.518 0.038 6.9 1.88 9.16
5/31/2022 4:45:00 PM 17.55 63.59 0.038 6.9 1.87 9.14
5/31/2022 5:00:00 PM 17.59 63.662 0.038 6.9 1.99 9.13
5/31/2022 5:15:00 PM 17.57 63.626 0.038 6.9 1.91 9.11
5/31/2022 5:30:00 PM 17.56 63.608 0.038 6.88 1.88 9.07
5/31/2022 5:45:00 PM 17.53 63.554 0.038 6.87 1.95 9.03
5/31/2022 6:00:00 PM 17.51 63.518 0.038 6.86 2.02 9.01
5/31/2022 6:15:00 PM 17.5 63.5 0.038 6.86 2.22 8.98
5/31/2022 6:30:00 PM 17.45 63.41 0.038 6.85 1.94 8.96
5/31/2022 6:45:00 PM 17.41 63.338 0.038 6.83 2.82 8.87
5/31/2022 7:00:00 PM 17.35 63.23 0.038 6.82 1.94 8.94
5/31/2022 7:15:00 PM 17.3 63.14 0.038 6.81 2.22 8.89
5/31/2022 7:30:00 PM 17.26 63.068 0.038 6.81 1.99 8.9
5/31/2022 7:45:00 PM 17.22 62.996 0.038 6.8 2.15 8.88
5/31/2022 8:00:00 PM 17.17 62.906 0.039 6.78 1.89 8.86
5/31/2022 8:15:00 PM 17.15 62.87 0.039 6.78 3.13 8.86
5/31/2022 8:30:00 PM 17.11 62.798 0.039 6.77 2 8.84
5/31/2022 8:45:00 PM 17.08 62.744 0.039 6.76 2.17 8.84
5/31/2022 9:00:00 PM 17.04 62.672 0.039 6.74 1.97 8.81
5/31/2022 9:15:00 PM 17.01 62.618 0.039 6.75 2.7 8.84
5/31/2022 9:30:00 PM 16.97 62.546 0.039 6.75 2.23 8.83
5/31/2022 9:45:00 PM 16.92 62.456 0.039 6.75 2.74 8.84
5/31/2022 10:00:00 PM 16.88 62.384 0.039 6.75 2.03 8.85
5/31/2022 10:15:00 PM 16.83 62.294 0.039 6.74 2.24 8.84
5/31/2022 10:30:00 PM 16.8 62.24 0.039 6.74 2.11 8.85
5/31/2022 10:45:00 PM 16.75 62.15 0.039 6.74 4.76 8.89
5/31/2022 11:00:00 PM 16.69 62.042 0.039 6.74 2.97 8.88
5/31/2022 11:15:00 PM 16.64 61.952 0.039 6.74 2.19 8.89
5/31/2022 11:30:00 PM 16.6 61.88 0.039 6.74 2.32 8.89
5/31/2022 11:45:00 PM 16.54 61.772 0.039 6.75 2.2 8.94
6/1/2022 12:00:00 AM 16.48 61.664 0.039 6.75 2.07 8.96
6/1/2022 12:15:00 AM 16.42 61.556 0.039 6.75 2.08 8.96
6/1/2022 12:30:00 AM 16.36 61.448 0.039 6.76 2.02 8.99
6/1/2022 12:45:00 AM 16.3 61.34 0.039 6.75 2.13 8.98
6/1/2022 1:00:00 AM 16.24 61.232 0.039 6.77 2.42 9.03
6/1/2022 1:15:00 AM 16.18 61.124 0.039 6.77 2.35 9.04
6/1/2022 1:30:00 AM 16.1 60.98 0.04 6.76 2 9.03
6/1/2022 1:45:00 AM 16.04 60.872 0.04 6.77 2.04 9.07
6/1/2022 2:00:00 AM 15.97 60.746 0.04 6.77 2.11 9.09
6/1/2022 2:15:00 AM 15.92 60.656 0.04 6.77 2.3 9.09
6/1/2022 2:30:00 AM 15.85 60.53 0.04 6.77 2.21 9.1
6/1/2022 2:45:00 AM 15.78 60.404 0.04 6.77 2.96 9.11
6/1/2022 3:00:00 AM 15.72 60.296 0.04 6.77 2.07 9.13
6/1/2022 3:15:00 AM 15.66 60.188 0.04 6.77 2.22 9.15
6/1/2022 3:30:00 AM 15.59 60.062 0.04 6.77 2.92 9.15
6/1/2022 3:45:00 AM 15.53 59.954 0.04 6.77 2.81 9.16
6/1/2022 4:00:00 AM 15.46 59.828 0.04 6.77 2.23 9.19
6/1/2022 4:15:00 AM 15.39 59.702 0.04 6.77 2.14 9.22
6/1/2022 4:30:00 AM 15.33 59.594 0.04 6.77 2.4 9.21
6/1/2022 4:45:00 AM 15.27 59.486 0.04 6.77 2.2 9.23
6/1/2022 5:00:00 AM 15.21 59.378 0.04 6.77 2.28 9.24
6/1/2022 5:15:00 AM 15.15 59.27 0.04 6.77 2.41 9.24
6/1/2022 5:30:00 AM 15.09 59.162 0.04 6.77 2.22 9.28
6/1/2022 5:45:00 AM 15.03 59.054 0.04 6.76 2.6 9.28
6/1/2022 6:00:00 AM 14.99 58.982 0.04 6.77 2.24 9.29
6/1/2022 6:15:00 AM 14.92 58.856 0.04 6.77 2.52 9.32
6/1/2022 6:30:00 AM 14.88 58.784 0.04 6.76 2.11 9.34
6/1/2022 6:45:00 AM 14.82 58.676 0.04 6.76 3.45 9.34
6/1/2022 7:00:00 AM 14.78 58.604 0.04 6.78 2.01 9.4
6/1/2022 7:15:00 AM 14.73 58.514 0.04 6.78 2.34 9.4
6/1/2022 7:30:00 AM 14.69 58.442 0.04 6.78 2.26 9.41
6/1/2022 7:45:00 AM 14.66 58.388 0.039 6.78 2.98 9.43
6/1/2022 8:00:00 AM 14.63 58.334 0.039 6.78 2.75 9.44
6/1/2022 8:15:00 AM 14.59 58.262 0.039 6.78 2.26 9.45
6/1/2022 8:30:00 AM 14.56 58.208 0.039 6.78 2.38 9.48
6/1/2022 8:45:00 AM 14.54 58.172 0.039 6.78 2.1 9.5
6/1/2022 9:00:00 AM 14.53 58.154 0.039 6.77 2.31 9.5
6/1/2022 9:15:00 AM 14.53 58.154 0.039 6.76 2.23 9.5
6/1/2022 9:30:00 AM 14.53 58.154 0.039 6.76 2.23 9.51
6/1/2022 9:45:00 AM 14.55 58.19 0.039 6.76 2.12 9.53
6/1/2022 10:00:00 AM 14.59 58.262 0.039 6.76 2.25 9.54
6/1/2022 10:15:00 AM 14.66 58.388 0.039 6.79 2.06 9.54
6/1/2022 10:30:00 AM 14.75 58.55 0.039 6.81 2.15 9.56
6/1/2022 10:45:00 AM 14.84 58.712 0.039 6.83 2.33 9.58
6/1/2022 11:00:00 AM 14.95 58.91 0.039 6.84 2.22 9.57
6/1/2022 11:15:00 AM 15.08 59.144 0.039 6.85 2.18 9.57
6/1/2022 11:30:00 AM 15.22 59.396 0.039 6.86 2.39 9.56
6/1/2022 11:45:00 AM 15.39 59.702 0.039 6.88 2.19 9.57
6/1/2022 12:00:00 PM 15.54 59.972 0.039 6.88 2.63 9.52
6/1/2022 12:15:00 PM 15.65 60.17 0.039 6.88 2.05 9.49
6/1/2022 12:30:00 PM 15.75 60.35 0.038 6.89 3.55 9.47
6/1/2022 12:45:00 PM 15.91 60.638 0.038 6.9 2.2 9.48
6/1/2022 1:00:00 PM 16.12 61.016 0.038 6.9 2.01 9.46
6/1/2022 1:15:00 PM 16.29 61.322 0.038 6.91 2.07 9.45
6/1/2022 1:30:00 PM 16.38 61.484 0.038 6.91 2.08 9.4
6/1/2022 1:45:00 PM 16.44 61.592 0.038 6.92 1.89 9.39
6/1/2022 2:00:00 PM 16.64 61.952 0.038 6.91 1.94 9.37
6/1/2022 2:15:00 PM 16.93 62.474 0.038 6.93 1.95 9.35
6/1/2022 2:30:00 PM 17.08 62.744 0.038 6.93 1.9 9.31
6/1/2022 2:45:00 PM 17.26 63.068 0.038 6.93 2.09 9.29
6/1/2022 3:00:00 PM 17.45 63.41 0.038 6.94 2.07 9.24
6/1/2022 3:15:00 PM 17.47 63.446 0.038 6.94 1.99 9.18
6/1/2022 3:30:00 PM 17.52 63.536 0.038 6.93 1.96 9.17
6/1/2022 3:45:00 PM 17.58 63.644 0.038 6.93 1.96 9.15
6/1/2022 4:00:00 PM 17.76 63.968 0.038 6.94 1.91 9.13
6/1/2022 4:15:00 PM 17.82 64.076 0.038 6.93 1.91 9.09
6/1/2022 4:30:00 PM 17.87 64.166 0.038 6.93 3.07 9.04
6/1/2022 4:45:00 PM 17.88 64.184 0.038 6.91 2.06 8.95
6/1/2022 5:00:00 PM 17.85 64.13 0.038 6.88 2.51 8.87
6/1/2022 5:15:00 PM 17.8 64.04 0.038 6.87 1.96 8.82
6/1/2022 5:30:00 PM 17.74 63.932 0.038 6.86 1.94 8.78
6/1/2022 5:45:00 PM 17.69 63.842 0.038 6.84 2.11 8.79
6/1/2022 6:00:00 PM 17.65 63.77 0.038 6.84 2.05 8.79
6/1/2022 6:15:00 PM 17.63 63.734 0.038 6.85 2.16 8.86
6/1/2022 6:30:00 PM 17.6 63.68 0.038 6.85 2.03 8.87
6/1/2022 6:45:00 PM 17.56 63.608 0.038 6.84 2.04 8.82
6/1/2022 7:00:00 PM 17.53 63.554 0.039 6.84 2.2 8.81
6/1/2022 7:15:00 PM 17.48 63.464 0.039 6.81 2.15 8.78
6/1/2022 7:30:00 PM 17.44 63.392 0.039 6.8 2.14 8.76
6/1/2022 7:45:00 PM 17.42 63.356 0.039 6.8 2.16 8.78
6/1/2022 8:00:00 PM 17.39 63.302 0.039 6.79 2.39 8.76
6/1/2022 8:15:00 PM 17.36 63.248 0.039 6.78 2.13 8.76
6/1/2022 8:30:00 PM 17.33 63.194 0.039 6.77 2.05 8.75
6/1/2022 8:45:00 PM 17.28 63.104 0.039 6.77 2.33 8.75
6/1/2022 9:00:00 PM 17.24 63.032 0.039 6.76 2.38 8.74
6/1/2022 9:15:00 PM 17.2 62.96 0.039 6.76 2.31 8.76
6/1/2022 9:30:00 PM 17.16 62.888 0.039 6.75 2.2 8.76
6/1/2022 9:45:00 PM 17.12 62.816 0.039 6.76 2.16 8.8
6/1/2022 10:00:00 PM 17.07 62.726 0.039 6.76 2.45 8.81
6/1/2022 10:15:00 PM 17.03 62.654 0.039 6.76 2.18 8.82
6/1/2022 10:30:00 PM 16.98 62.564 0.039 6.76 2.16 8.83
6/1/2022 10:45:00 PM 16.94 62.492 0.039 6.76 2.32 8.84
6/1/2022 11:00:00 PM 16.89 62.402 0.039 6.76 2.23 8.86
6/1/2022 11:15:00 PM 16.84 62.312 0.039 6.75 2.45 8.85
6/1/2022 11:30:00 PM 16.8 62.24 0.039 6.77 2.29 8.89
6/1/2022 11:45:00 PM 16.74 62.132 0.04 6.76 2.14 8.88
6/2/2022 12:00:00 AM 16.69 62.042 0.04 6.75 2.56 8.89
6/2/2022 12:15:00 AM 16.64 61.952 0.04 6.75 2.52 8.89
6/2/2022 12:30:00 AM 16.59 61.862 0.04 6.75 2.45 8.9
6/2/2022 12:45:00 AM 16.53 61.754 0.04 6.74 3.42 8.91
6/2/2022 1:00:00 AM 16.48 61.664 0.04 6.75 2.4 8.94
6/2/2022 1:15:00 AM 16.42 61.556 0.04 6.76 2.32 8.96
6/2/2022 1:30:00 AM 16.37 61.466 0.04 6.77 2.37 8.97
6/2/2022 1:45:00 AM 16.32 61.376 0.04 6.78 2.41 9
6/2/2022 2:00:00 AM 16.26 61.268 0.04 6.78 2.37 9
6/2/2022 2:15:00 AM 16.21 61.178 0.04 6.78 2.35 9
6/2/2022 2:30:00 AM 16.14 61.052 0.04 6.78 2.42 9.03
6/2/2022 2:45:00 AM 16.1 60.98 0.04 6.78 2.41 9.03
6/2/2022 3:00:00 AM 16.05 60.89 0.04 6.78 2.59 9.04
6/2/2022 3:15:00 AM 16 60.8 0.04 6.78 2.54 9.06
6/2/2022 3:30:00 AM 15.96 60.728 0.04 6.79 2.4 9.06
6/2/2022 3:45:00 AM 15.92 60.656 0.04 6.79 2.33 9.07
6/2/2022 4:00:00 AM 15.87 60.566 0.04 6.8 2.48 9.08
6/2/2022 4:15:00 AM 15.82 60.476 0.04 6.8 2.34 9.11
6/2/2022 4:30:00 AM 15.78 60.404 0.04 6.8 2.68 9.12
6/2/2022 4:45:00 AM 15.73 60.314 0.04 6.79 2.55 9.11
6/2/2022 5:00:00 AM 15.69 60.242 0.04 6.78 2.66 9.13
6/2/2022 5:15:00 AM 15.64 60.152 0.04 6.78 2.58 9.15
6/2/2022 5:30:00 AM 15.6 60.08 0.04 6.78 2.7 9.15
6/2/2022 5:45:00 AM 15.57 60.026 0.04 6.78 2.63 9.16
6/2/2022 6:00:00 AM 15.53 59.954 0.04 6.78 2.3 9.16
6/2/2022 6:15:00 AM 15.5 59.9 0.04 6.77 2.41 9.17
6/2/2022 6:30:00 AM 15.45 59.81 0.04 6.76 2.55 9.2
6/2/2022 6:45:00 AM 15.42 59.756 0.04 6.76 2.37 9.23
6/2/2022 7:00:00 AM 15.4 59.72 0.04 6.77 2.41 9.25
6/2/2022 7:15:00 AM 15.37 59.666 0.04 6.77 2.34 9.29
6/2/2022 7:30:00 AM 15.35 59.63 0.04 6.77 2.3 9.3
6/2/2022 7:45:00 AM 15.32 59.576 0.04 6.77 3 9.31
6/2/2022 8:00:00 AM 15.31 59.558 0.04 6.78 2.5 9.34
6/2/2022 8:15:00 AM 15.29 59.522 0.04 6.79 2.78 9.38
6/2/2022 8:30:00 AM 15.29 59.522 0.04 6.8 2.42 9.39
6/2/2022 8:45:00 AM 15.3 59.54 0.04 6.81 2.43 9.44
6/2/2022 9:00:00 AM 15.32 59.576 0.04 6.82 2.26 9.46
6/2/2022 9:15:00 AM 15.32 59.576 0.039 6.83 2.57 9.45
6/2/2022 9:30:00 AM 15.31 59.558 0.039 6.83 2.5 9.45
6/2/2022 9:45:00 AM 15.32 59.576 0.039 6.83 2.65 9.47
6/2/2022 10:00:00 AM 15.33 59.594 0.039 6.84 2.45 9.47
6/2/2022 10:15:00 AM 15.35 59.63 0.039 6.85 2.28 9.48
6/2/2022 10:30:00 AM 15.37 59.666 0.039 6.86 2.48 9.5
6/2/2022 10:45:00 AM 15.39 59.702 0.039 6.87 2.42 9.52
6/2/2022 11:00:00 AM 15.41 59.738 0.039 6.88 2.35 9.5
6/2/2022 11:15:00 AM 15.42 59.756 0.039 6.89 2.27 9.48
6/2/2022 11:30:00 AM 15.45 59.81 0.039 6.89 2.29 9.5
6/2/2022 11:45:00 AM 15.5 59.9 0.039 6.9 2.5 9.51
6/2/2022 12:00:00 PM 15.54 59.972 0.039 6.92 2.46 9.53
6/2/2022 12:15:00 PM 15.58 60.044 0.039 6.92 2.59 9.52
6/2/2022 12:30:00 PM 15.63 60.134 0.039 6.93 2.32 9.5
6/2/2022 12:45:00 PM 15.62 60.116 0.039 6.92 2.43 9.45
6/2/2022 1:00:00 PM 15.61 60.098 0.039 6.91 2.33 9.41
6/2/2022 1:15:00 PM 15.62 60.116 0.039 6.9 2.3 9.41
6/2/2022 1:30:00 PM 15.64 60.152 0.039 6.9 2.45 9.43
6/2/2022 1:45:00 PM 15.65 60.17 0.039 6.91 2.44 9.42
6/2/2022 2:00:00 PM 15.65 60.17 0.039 6.9 2.27 9.4
6/2/2022 2:15:00 PM 15.65 60.17 0.039 6.9 2.26 9.36
6/2/2022 2:30:00 PM 15.65 60.17 0.039 6.89 2.2 9.35
6/2/2022 2:45:00 PM 15.65 60.17 0.039 6.89 2.39 9.37
6/2/2022 3:00:00 PM 15.68 60.224 0.038 6.89 2.45 9.4
6/2/2022 3:15:00 PM 15.78 60.404 0.038 6.9 2.25 9.45
6/2/2022 3:30:00 PM 15.97 60.746 0.038 6.93 2.3 9.47
6/2/2022 3:45:00 PM 16.09 60.962 0.038 6.95 2.22 9.45
6/2/2022 4:00:00 PM 16.17 61.106 0.038 6.94 2.31 9.41
6/2/2022 4:15:00 PM 16.2 61.16 0.038 6.94 2.37 9.37
6/2/2022 4:30:00 PM 16.31 61.358 0.038 6.95 2.21 9.37
6/2/2022 4:45:00 PM 16.34 61.412 0.038 6.94 2.29 9.32
6/2/2022 5:00:00 PM 16.38 61.484 0.038 6.93 2.3 9.29
6/2/2022 5:15:00 PM 16.41 61.538 0.038 6.93 2.28 9.25
6/2/2022 5:30:00 PM 16.41 61.538 0.038 6.92 2.34 9.21
6/2/2022 5:45:00 PM 16.41 61.538 0.038 6.91 2.47 9.2
6/2/2022 6:00:00 PM 16.39 61.502 0.038 6.9 2.25 9.17
6/2/2022 6:15:00 PM 16.38 61.484 0.038 6.9 2.51 9.17
6/2/2022 6:30:00 PM 16.36 61.448 0.039 6.88 2.25 9.14
6/2/2022 6:45:00 PM 16.33 61.394 0.039 6.87 2.24 9.11
6/2/2022 7:00:00 PM 16.3 61.34 0.039 6.86 2.4 9.12
6/2/2022 7:15:00 PM 16.25 61.25 0.039 6.85 2.35 9.09
6/2/2022 7:30:00 PM 16.21 61.178 0.039 6.83 2.2 9.05
6/2/2022 7:45:00 PM 16.17 61.106 0.039 6.82 2.33 9.06
6/2/2022 8:00:00 PM 16.15 61.07 0.039 6.81 2.94 9.03
6/2/2022 8:15:00 PM 16.11 60.998 0.039 6.8 2.35 9.02
6/2/2022 8:30:00 PM 16.09 60.962 0.039 6.79 2.17 9
6/2/2022 8:45:00 PM 16.06 60.908 0.039 6.77 2.37 8.97
6/2/2022 9:00:00 PM 16.03 60.854 0.039 6.77 2.85 9
6/2/2022 9:15:00 PM 16.02 60.836 0.039 6.77 2.28 9
6/2/2022 9:30:00 PM 16 60.8 0.039 6.77 2.38 8.99
6/2/2022 9:45:00 PM 15.98 60.764 0.039 6.77 2.68 8.98
6/2/2022 10:00:00 PM 15.95 60.71 0.039 6.77 2.44 9.01
6/2/2022 10:15:00 PM 15.93 60.674 0.039 6.77 2.39 9.02
6/2/2022 10:30:00 PM 15.9 60.62 0.039 6.79 2.4 9.03
6/2/2022 10:45:00 PM 15.86 60.548 0.039 6.8 2.32 9.03
6/2/2022 11:00:00 PM 15.83 60.494 0.04 6.81 2.28 9.05
6/2/2022 11:15:00 PM 15.79 60.422 0.04 6.81 2.37 9.06
6/2/2022 11:30:00 PM 15.76 60.368 0.04 6.81 2.37 9.06
6/2/2022 11:45:00 PM 15.72 60.296 0.04 6.8 2.44 9.05
6/3/2022 12:00:00 AM 15.69 60.242 0.04 6.81 2.46 9.08
6/3/2022 12:15:00 AM 15.64 60.152 0.04 6.8 2.24 9.05
6/3/2022 12:30:00 AM 15.61 60.098 0.04 6.81 2.37 9.09
6/3/2022 12:45:00 AM 15.57 60.026 0.04 6.81 2.73 9.1
6/3/2022 1:00:00 AM 15.53 59.954 0.04 6.8 2.41 9.11
6/3/2022 1:15:00 AM 15.49 59.882 0.04 6.81 2.41 9.11
6/3/2022 1:30:00 AM 15.45 59.81 0.04 6.81 2.34 9.12
6/3/2022 1:45:00 AM 15.41 59.738 0.04 6.82 3.57 9.16
6/3/2022 2:00:00 AM 15.36 59.648 0.04 6.81 2.57 9.15
6/3/2022 2:15:00 AM 15.32 59.576 0.04 6.81 2.66 9.17
6/3/2022 2:30:00 AM 15.28 59.504 0.04 6.82 2.6 9.18
6/3/2022 2:45:00 AM 15.24 59.432 0.04 6.81 2.46 9.18
6/3/2022 3:00:00 AM 15.18 59.324 0.04 6.82 2.41 9.2
6/3/2022 3:15:00 AM 15.14 59.252 0.04 6.82 2.25 9.2
6/3/2022 3:30:00 AM 15.09 59.162 0.04 6.82 2.95 9.22
6/3/2022 3:45:00 AM 15.04 59.072 0.04 6.82 2.41 9.22
6/3/2022 4:00:00 AM 14.98 58.964 0.04 6.82 2.57 9.24
6/3/2022 4:15:00 AM 14.9 58.82 0.04 6.82 2.65 9.27
6/3/2022 4:30:00 AM 14.83 58.694 0.04 6.83 2.44 9.29
6/3/2022 4:45:00 AM 14.76 58.568 0.04 6.82 2.33 9.28
6/3/2022 5:00:00 AM 14.69 58.442 0.04 6.82 2.45 9.31
6/3/2022 5:15:00 AM 14.61 58.298 0.04 6.82 3.15 9.32
6/3/2022 5:30:00 AM 14.54 58.172 0.04 6.83 2.63 9.33
6/3/2022 5:45:00 AM 14.45 58.01 0.04 6.82 2.54 9.35
6/3/2022 6:00:00 AM 14.37 57.866 0.04 6.82 2.31 9.38
6/3/2022 6:15:00 AM 14.3 57.74 0.04 6.82 3.69 9.39
6/3/2022 6:30:00 AM 14.22 57.596 0.04 6.83 2.6 9.43
6/3/2022 6:45:00 AM 14.14 57.452 0.04 6.82 2.35 9.45
6/3/2022 7:00:00 AM 14.08 57.344 0.04 6.83 2.51 9.49
6/3/2022 7:15:00 AM 14.02 57.236 0.04 6.83 2.5 9.5
6/3/2022 7:30:00 AM 13.95 57.11 0.04 6.83 2.31 9.52
6/3/2022 7:45:00 AM 13.88 56.984 0.04 6.83 2.7 9.55
6/3/2022 8:00:00 AM 13.83 56.894 0.04 6.83 2.39 9.54
6/3/2022 8:15:00 AM 13.76 56.768 0.04 6.84 2.54 9.59
6/3/2022 8:30:00 AM 13.72 56.696 0.039 6.83 2.45 9.6
6/3/2022 8:45:00 AM 13.69 56.642 0.039 6.83 2.74 9.61
6/3/2022 9:00:00 AM 13.68 56.624 0.039 6.84 2.37 9.63
6/3/2022 9:15:00 AM 13.68 56.624 0.039 6.83 2.41 9.63
6/3/2022 9:30:00 AM 13.67 56.606 0.039 6.84 2.43 9.65
6/3/2022 9:45:00 AM 13.68 56.624 0.039 6.84 2.34 9.65
6/3/2022 10:00:00 AM 13.69 56.642 0.039 6.85 2.67 9.65
6/3/2022 10:15:00 AM 13.72 56.696 0.039 6.85 2.55 9.66
6/3/2022 10:30:00 AM 13.76 56.768 0.039 6.86 2.45 9.68
6/3/2022 10:45:00 AM 13.81 56.858 0.039 6.86 2.36 9.69
6/3/2022 11:00:00 AM 13.86 56.948 0.039 6.86 2.48 9.66
6/3/2022 11:15:00 AM 13.94 57.092 0.039 6.87 2.31 9.68
6/3/2022 11:30:00 AM 14.04 57.272 0.039 6.87 2.29 9.67
6/3/2022 11:45:00 AM 14.18 57.524 0.039 6.87 2.28 9.66
6/3/2022 12:00:00 PM 14.31 57.758 0.039 6.87 2.42 9.63
6/3/2022 12:15:00 PM 14.48 58.064 0.039 6.88 2.26 9.6
6/3/2022 12:30:00 PM 14.74 58.532 0.039 6.88 2.25 9.59
6/3/2022 12:45:00 PM 14.94 58.892 0.039 6.89 2.38 9.56
6/3/2022 1:00:00 PM 15.15 59.27 0.039 6.89 2.26 9.5
6/3/2022 1:15:00 PM 15.42 59.756 0.039 6.9 2.45 9.49
6/3/2022 1:30:00 PM 15.56 60.008 0.039 6.9 2.25 9.45
6/3/2022 1:45:00 PM 15.77 60.386 0.039 6.9 2.36 9.45
6/3/2022 2:00:00 PM 15.82 60.476 0.039 6.92 2.65 9.41
6/3/2022 2:15:00 PM 15.79 60.422 0.039 6.91 2.38 9.37
6/3/2022 2:30:00 PM 15.82 60.476 0.039 6.91 2.35 9.38
6/3/2022 2:45:00 PM 16.01 60.818 0.038 6.91 2.42 9.36
6/3/2022 3:00:00 PM 16.25 61.25 0.038 6.91 2.44 9.34
6/3/2022 3:15:00 PM 16.29 61.322 0.038 6.91 2.21 9.3
6/3/2022 3:30:00 PM 16.31 61.358 0.038 6.91 2.2 9.27
6/3/2022 3:45:00 PM 16.38 61.484 0.038 6.9 2.42 9.25
6/3/2022 4:00:00 PM 16.47 61.646 0.038 6.91 2.34 9.25
6/3/2022 4:15:00 PM 16.5 61.7 0.038 6.91 2.27 9.23
6/3/2022 4:30:00 PM 16.54 61.772 0.039 6.9 2.39 9.22
6/3/2022 4:45:00 PM 16.47 61.646 0.039 6.9 2.3 9.16
6/3/2022 5:00:00 PM 16.54 61.772 0.039 6.89 2.39 9.17
6/3/2022 5:15:00 PM 16.54 61.772 0.039 6.9 2.27 9.18
6/3/2022 5:30:00 PM 16.55 61.79 0.039 6.89 2.14 9.15
6/3/2022 5:45:00 PM 16.48 61.664 0.039 6.88 2.23 9.1
6/3/2022 6:00:00 PM 16.47 61.646 0.039 6.87 3.13 9.08
6/3/2022 6:15:00 PM 16.45 61.61 0.039 6.86 2.3 9.05
6/3/2022 6:30:00 PM 16.41 61.538 0.039 6.85 2.26 9.03
6/3/2022 6:45:00 PM 16.36 61.448 0.039 6.86 2.59 9.02
6/3/2022 7:00:00 PM 16.27 61.286 0.039 6.83 2.21 8.99
6/3/2022 7:15:00 PM 16.23 61.214 0.039 6.83 2.35 8.99
6/3/2022 7:30:00 PM 16.18 61.124 0.039 6.82 2.27 8.98
6/3/2022 7:45:00 PM 16.12 61.016 0.039 6.82 2.35 8.95
6/3/2022 8:00:00 PM 16.09 60.962 0.039 6.81 2.35 8.97
6/3/2022 8:15:00 PM 16.04 60.872 0.039 6.82 2.47 8.97
6/3/2022 8:30:00 PM 15.99 60.782 0.039 6.81 2.4 8.95
6/3/2022 8:45:00 PM 15.94 60.692 0.039 6.81 2.33 8.94
6/3/2022 9:00:00 PM 15.89 60.602 0.039 6.81 2.41 8.96
6/3/2022 9:15:00 PM 15.83 60.494 0.039 6.8 2.64 8.95
6/3/2022 9:30:00 PM 15.77 60.386 0.04 6.8 2.46 8.95
6/3/2022 9:45:00 PM 15.72 60.296 0.039 6.81 2.51 8.99
6/3/2022 10:00:00 PM 15.65 60.17 0.04 6.79 2.67 8.96
6/3/2022 10:15:00 PM 15.58 60.044 0.04 6.78 2.9 8.97
6/3/2022 10:30:00 PM 15.52 59.936 0.04 6.79 2.35 9
6/3/2022 10:45:00 PM 15.45 59.81 0.04 6.8 3.07 9.04
6/3/2022 11:00:00 PM 15.37 59.666 0.04 6.79 2.5 9.06
6/3/2022 11:15:00 PM 15.3 59.54 0.04 6.78 2.36 9.05
6/3/2022 11:30:00 PM 15.23 59.414 0.04 6.78 2.78 9.05
6/3/2022 11:45:00 PM 15.14 59.252 0.04 6.78 2.35 9.08
6/4/2022 12:00:00 AM 15.05 59.09 0.04 6.79 2.44 9.13
6/4/2022 12:15:00 AM 14.96 58.928 0.04 6.79 2.47 9.15
6/4/2022 12:30:00 AM 14.87 58.766 0.04 6.79 2.27 9.18
6/4/2022 12:45:00 AM 14.78 58.604 0.04 6.8 2.3 9.2
6/4/2022 1:00:00 AM 14.68 58.424 0.04 6.78 2.25 9.21
6/4/2022 1:15:00 AM 14.57 58.226 0.04 6.8 2.59 9.29
6/4/2022 1:30:00 AM 14.49 58.082 0.04 6.79 2.49 9.28
6/4/2022 1:45:00 AM 14.4 57.92 0.04 6.78 2.53 9.28
6/4/2022 2:00:00 AM 14.29 57.722 0.04 6.8 2.49 9.33
6/4/2022 2:15:00 AM 14.2 57.56 0.04 6.79 2.4 9.35
6/4/2022 2:30:00 AM 14.1 57.38 0.04 6.79 2.37 9.38
6/4/2022 2:45:00 AM 14.01 57.218 0.04 6.8 2.38 9.41
6/4/2022 3:00:00 AM 13.9 57.02 0.04 6.79 3.91 9.45
6/4/2022 3:15:00 AM 13.81 56.858 0.04 6.79 2.85 9.47
6/4/2022 3:30:00 AM 13.71 56.678 0.04 6.8 2.62 9.51
6/4/2022 3:45:00 AM 13.63 56.534 0.04 6.8 2.43 9.52
6/4/2022 4:00:00 AM 13.51 56.318 0.04 6.79 2.39 9.56
6/4/2022 4:15:00 AM 13.43 56.174 0.04 6.79 2.67 9.56
6/4/2022 4:30:00 AM 13.34 56.012 0.04 6.79 2.48 9.57
6/4/2022 4:45:00 AM 13.24 55.832 0.04 6.79 2.58 9.6
6/4/2022 5:00:00 AM 13.15 55.67 0.04 6.79 2.42 9.63
6/4/2022 5:15:00 AM 13.09 55.562 0.04 6.79 2.41 9.64
6/4/2022 5:30:00 AM 13.02 55.436 0.04 6.77 2.42 9.61
6/4/2022 5:45:00 AM 12.93 55.274 0.04 6.77 2.33 9.64
6/4/2022 6:00:00 AM 12.83 55.094 0.04 6.78 2.62 9.7
6/4/2022 6:15:00 AM 12.77 54.986 0.04 6.78 2.29 9.71
6/4/2022 6:30:00 AM 12.68 54.824 0.04 6.78 2.33 9.74
6/4/2022 6:45:00 AM 12.61 54.698 0.04 6.78 2.39 9.78
6/4/2022 7:00:00 AM 12.52 54.536 0.04 6.79 2.27 9.82
6/4/2022 7:15:00 AM 12.44 54.392 0.04 6.79 6.64 9.83
6/4/2022 7:30:00 AM 12.39 54.302 0.04 6.79 2.26 9.86
6/4/2022 7:45:00 AM 12.32 54.176 0.04 6.8 2.79 9.9
6/4/2022 8:00:00 AM 12.29 54.122 0.04 6.78 2.26 9.87
6/4/2022 8:15:00 AM 12.24 54.032 0.04 6.79 2.3 9.92
6/4/2022 8:30:00 AM 12.17 53.906 0.04 6.8 2.03 9.94
6/4/2022 8:45:00 AM 12.15 53.87 0.04 6.8 2.32 9.95
6/4/2022 9:00:00 AM 12.15 53.87 0.04 6.8 2.32 10
6/4/2022 9:15:00 AM 12.16 53.888 0.04 6.8 2.54 10
6/4/2022 9:30:00 AM 12.18 53.924 0.04 6.82 2.32 10.02
6/4/2022 9:45:00 AM 12.21 53.978 0.04 6.8 2.49 9.99
6/4/2022 10:00:00 AM 12.25 54.05 0.04 6.81 2.31 9.99
6/4/2022 10:15:00 AM 12.3 54.14 0.039 6.82 2.27 10.01
6/4/2022 10:30:00 AM 12.35 54.23 0.039 6.82 2.28 10
6/4/2022 10:45:00 AM 12.4 54.32 0.039 6.83 2.5 9.99
6/4/2022 11:00:00 AM 12.48 54.464 0.039 6.83 2.37 9.99
6/4/2022 11:15:00 AM 12.57 54.626 0.039 6.83 2.46 9.98
6/4/2022 11:30:00 AM 12.63 54.734 0.039 6.78 2.47 9.84
6/4/2022 11:45:00 AM 12.77 54.986 0.039 6.82 2.54 9.93
6/4/2022 12:00:00 PM 12.93 55.274 0.039 6.81 2.23 9.89
6/4/2022 12:15:00 PM 13.11 55.598 0.039 6.83 2.14 9.89
6/4/2022 12:30:00 PM 13.21 55.778 0.039 6.82 2.19 9.86
6/4/2022 12:45:00 PM 13.42 56.156 0.039 6.82 2.23 9.8
6/4/2022 1:00:00 PM 13.67 56.606 0.039 6.85 2.21 9.78
6/4/2022 1:15:00 PM 13.99 57.182 0.039 6.86 2.16 9.75
6/4/2022 1:30:00 PM 14.33 57.794 0.039 6.86 2.19 9.71
6/4/2022 1:45:00 PM 14.7 58.46 0.039 6.87 2.26 9.67
6/4/2022 2:00:00 PM 14.75 58.55 0.039 6.86 2.12 9.61
6/4/2022 2:15:00 PM 15.05 59.09 0.039 6.88 2.2 9.56
6/4/2022 2:30:00 PM 15.28 59.504 0.039 6.88 2.13 9.51
6/4/2022 2:45:00 PM 15.67 60.206 0.039 6.89 2.15 9.48
6/4/2022 3:00:00 PM 15.79 60.422 0.039 6.88 2.17 9.44
6/4/2022 3:15:00 PM 16.01 60.818 0.039 6.9 2.17 9.41
6/4/2022 3:30:00 PM 16.11 60.998 0.039 6.92 2.3 9.43
6/4/2022 3:45:00 PM 16.12 61.016 0.039 6.92 2.18 9.39
6/4/2022 4:00:00 PM 16.14 61.052 0.039 6.92 2.22 9.35
6/4/2022 4:15:00 PM 16.19 61.142 0.039 6.92 2.17 9.35
6/4/2022 4:30:00 PM 16.21 61.178 0.039 6.91 2.14 9.31
6/4/2022 4:45:00 PM 16.23 61.214 0.039 6.91 2.41 9.3
6/4/2022 5:00:00 PM 16.26 61.268 0.039 6.91 2.53 9.28
6/4/2022 5:15:00 PM 16.26 61.268 0.039 6.91 2.45 9.27
6/4/2022 5:30:00 PM 16.2 61.16 0.039 6.9 2.82 9.24
6/4/2022 5:45:00 PM 16.14 61.052 0.039 6.89 2.23 9.21
6/4/2022 6:00:00 PM 16.09 60.962 0.039 6.88 2.2 9.18
6/4/2022 6:15:00 PM 16.04 60.872 0.039 6.88 2.31 9.17
6/4/2022 6:30:00 PM 15.95 60.71 0.039 6.87 2.41 9.14
6/4/2022 6:45:00 PM 15.84 60.512 0.039 6.86 2.26 9.13
6/4/2022 7:00:00 PM 15.72 60.296 0.039 6.85 2.4 9.13
6/4/2022 7:15:00 PM 15.62 60.116 0.039 6.84 2.3 9.13
6/4/2022 7:30:00 PM 15.55 59.99 0.039 6.84 2.21 9.13
6/4/2022 7:45:00 PM 15.46 59.828 0.039 6.84 2.43 9.14
6/4/2022 8:00:00 PM 15.38 59.684 0.039 6.83 2.3 9.14
6/4/2022 8:15:00 PM 15.3 59.54 0.039 6.84 2.29 9.17
6/4/2022 8:30:00 PM 15.22 59.396 0.04 6.83 2.46 9.18
6/4/2022 8:45:00 PM 15.14 59.252 0.04 6.83 2.25 9.19
6/4/2022 9:00:00 PM 15.06 59.108 0.04 6.83 2.92 9.19
6/4/2022 9:15:00 PM 14.99 58.982 0.04 6.83 2.69 9.2
6/4/2022 9:30:00 PM 14.91 58.838 0.04 6.83 2.52 9.21
6/4/2022 9:45:00 PM 14.84 58.712 0.04 6.83 2.41 9.23
6/4/2022 10:00:00 PM 14.76 58.568 0.04 6.83 2.41 9.26
6/4/2022 10:15:00 PM 14.68 58.424 0.04 6.83 3.48 9.27
6/4/2022 10:30:00 PM 14.61 58.298 0.04 6.82 2.49 9.27
6/4/2022 10:45:00 PM 14.53 58.154 0.04 6.82 2.19 9.3
6/4/2022 11:00:00 PM 14.43 57.974 0.04 6.82 2.4 9.31
6/4/2022 11:15:00 PM 14.35 57.83 0.04 6.82 2.3 9.33
6/4/2022 11:30:00 PM 14.26 57.668 0.04 6.82 3.64 9.36
6/4/2022 11:45:00 PM 14.17 57.506 0.04 6.82 2.33 9.39
6/5/2022 12:00:00 AM 14.1 57.38 0.04 6.81 2.32 9.39
6/5/2022 12:15:00 AM 14 57.2 0.04 6.81 2.38 9.44
6/5/2022 12:30:00 AM 13.91 57.038 0.04 6.82 2.33 9.48
6/5/2022 12:45:00 AM 13.84 56.912 0.04 6.82 2.27 9.48
6/5/2022 1:00:00 AM 13.76 56.768 0.04 6.82 2.27 9.49
6/5/2022 1:15:00 AM 13.66 56.588 0.04 6.82 2.18 9.52
6/5/2022 1:30:00 AM 13.57 56.426 0.04 6.82 2.21 9.54
6/5/2022 1:45:00 AM 13.47 56.246 0.04 6.81 2.29 9.56
6/5/2022 2:00:00 AM 13.38 56.084 0.04 6.82 2.42 9.6
6/5/2022 2:15:00 AM 13.29 55.922 0.04 6.81 2.54 9.6
6/5/2022 2:30:00 AM 13.19 55.742 0.04 6.8 2.26 9.62
6/5/2022 2:45:00 AM 13.1 55.58 0.04 6.81 2.19 9.66
6/5/2022 3:00:00 AM 13 55.4 0.04 6.81 2.37 9.7
6/5/2022 3:15:00 AM 12.91 55.238 0.04 6.81 2.52 9.71
6/5/2022 3:30:00 AM 12.83 55.094 0.04 6.81 2.37 9.74
6/5/2022 3:45:00 AM 12.75 54.95 0.04 6.82 2.65 9.75
6/5/2022 4:00:00 AM 12.65 54.77 0.04 6.81 2.27 9.78
6/5/2022 4:15:00 AM 12.56 54.608 0.04 6.81 2.57 9.8
6/5/2022 4:30:00 AM 12.48 54.464 0.04 6.81 2.55 9.81
6/5/2022 4:45:00 AM 12.38 54.284 0.04 6.81 2.24 9.84
6/5/2022 5:00:00 AM 12.27 54.086 0.04 6.82 2.49 9.88
6/5/2022 5:15:00 AM 12.2 53.96 0.04 6.81 2.57 9.89
6/5/2022 5:30:00 AM 12.11 53.798 0.04 6.81 2.49 9.93
6/5/2022 5:45:00 AM 12.02 53.636 0.04 6.81 2.48 9.94
6/5/2022 6:00:00 AM 11.93 53.474 0.04 6.81 3.59 9.98
6/5/2022 6:15:00 AM 11.86 53.348 0.04 6.8 2.34 9.98
6/5/2022 6:30:00 AM 11.78 53.204 0.04 6.8 3.35 10.02
6/5/2022 6:45:00 AM 11.7 53.06 0.04 6.81 2.36 10.06
6/5/2022 7:00:00 AM 11.61 52.898 0.04 6.81 2.46 10.1
6/5/2022 7:15:00 AM 11.54 52.772 0.04 6.76 2.9 10.13
6/5/2022 7:30:00 AM 11.46 52.628 0.04 6.77 2.54 10.16
6/5/2022 7:45:00 AM 11.41 52.538 0.04 6.76 2.29 10.18
6/5/2022 8:00:00 AM 11.37 52.466 0.04 6.75 2.25 10.18
6/5/2022 8:15:00 AM 11.33 52.394 0.04 6.77 2.35 10.21
6/5/2022 8:30:00 AM 11.31 52.358 0.04 6.78 2.25 10.23
6/5/2022 8:45:00 AM 11.29 52.322 0.04 6.79 2.16 10.26
6/5/2022 9:00:00 AM 11.31 52.358 0.04 6.78 2.29 10.26
6/5/2022 9:15:00 AM 11.32 52.376 0.04 6.81 2.43 10.32
6/5/2022 9:30:00 AM 11.39 52.502 0.039 6.81 2.15 10.32
6/5/2022 9:45:00 AM 11.45 52.61 0.039 6.83 6.06 10.36
6/5/2022 10:00:00 AM 11.52 52.736 0.039 6.83 2.39 10.37
6/5/2022 10:15:00 AM 11.59 52.862 0.039 6.83 2.23 10.33
6/5/2022 10:30:00 AM 11.66 52.988 0.039 6.86 2.2 10.39
6/5/2022 10:45:00 AM 11.74 53.132 0.039 6.86 2.25 10.34
6/5/2022 11:00:00 AM 11.83 53.294 0.039 6.88 2.39 10.36
6/5/2022 11:15:00 AM 11.93 53.474 0.039 6.89 2.32 10.37
6/5/2022 11:30:00 AM 12.02 53.636 0.039 6.88 2.99 10.31
6/5/2022 11:45:00 AM 12.14 53.852 0.039 6.9 2.42 10.31
6/5/2022 12:00:00 PM 12.24 54.032 0.039 6.89 2.26 10.26
6/5/2022 12:15:00 PM 12.42 54.356 0.039 6.91 2.33 10.27
6/5/2022 12:30:00 PM 12.57 54.626 0.039 6.92 2.36 10.24
6/5/2022 12:45:00 PM 12.76 54.968 0.039 6.92 2.25 10.21
6/5/2022 1:00:00 PM 12.93 55.274 0.039 6.92 2.79 10.16
6/5/2022 1:15:00 PM 13.11 55.598 0.039 6.92 2.16 10.12
6/5/2022 1:30:00 PM 13.39 56.102 0.038 6.92 2.26 10.07
6/5/2022 1:45:00 PM 13.65 56.57 0.038 6.93 2.13 10.04
6/5/2022 2:00:00 PM 13.84 56.912 0.038 6.92 2.17 9.96
6/5/2022 2:15:00 PM 13.96 57.128 0.038 6.92 2.12 9.93
6/5/2022 2:30:00 PM 14.21 57.578 0.038 6.94 2.14 9.92
6/5/2022 2:45:00 PM 14.53 58.154 0.038 6.95 2.28 9.88
6/5/2022 3:00:00 PM 14.78 58.604 0.038 6.94 2.19 9.81
6/5/2022 3:15:00 PM 14.84 58.712 0.038 6.94 2.21 9.75
6/5/2022 3:30:00 PM 14.96 58.928 0.038 6.94 2.18 9.73
6/5/2022 3:45:00 PM 15.01 59.018 0.038 6.94 2.08 9.69
6/5/2022 4:00:00 PM 15.09 59.162 0.038 6.93 2.35 9.66
6/5/2022 4:15:00 PM 15.12 59.216 0.039 6.93 2.69 9.62
6/5/2022 4:30:00 PM 15.16 59.288 0.039 6.92 2.09 9.58
6/5/2022 4:45:00 PM 15.24 59.432 0.039 6.92 2.19 9.55
6/5/2022 5:00:00 PM 15.27 59.486 0.039 6.92 2.23 9.54
6/5/2022 5:15:00 PM 15.28 59.504 0.039 6.92 2.16 9.53
6/5/2022 5:30:00 PM 15.24 59.432 0.039 6.92 2.09 9.49
6/5/2022 5:45:00 PM 15.22 59.396 0.039 6.91 2.27 9.47
6/5/2022 6:00:00 PM 15.19 59.342 0.039 6.9 2.3 9.46
6/5/2022 6:15:00 PM 15.16 59.288 0.039 6.9 2.23 9.46
6/5/2022 6:30:00 PM 15.12 59.216 0.039 6.88 2.14 9.41
6/5/2022 6:45:00 PM 15.01 59.018 0.039 6.88 2.18 9.38
6/5/2022 7:00:00 PM 14.95 58.91 0.039 6.88 2.36 9.38
6/5/2022 7:15:00 PM 14.88 58.784 0.039 6.87 2.23 9.36
6/5/2022 7:30:00 PM 14.81 58.658 0.039 6.86 2.13 9.37
6/5/2022 7:45:00 PM 14.77 58.586 0.039 6.87 2.17 9.4
6/5/2022 8:00:00 PM 14.73 58.514 0.039 6.87 2.31 9.41
6/5/2022 8:15:00 PM 14.7 58.46 0.039 6.85 2.12 9.38
6/5/2022 8:30:00 PM 14.67 58.406 0.039 6.84 2.2 9.36
6/5/2022 8:45:00 PM 14.64 58.352 0.039 6.85 2.13 9.38
6/5/2022 9:00:00 PM 14.61 58.298 0.039 6.85 2.38 9.39
6/5/2022 9:15:00 PM 14.59 58.262 0.04 6.85 2.46 9.36
6/5/2022 9:30:00 PM 14.55 58.19 0.04 6.84 2.76 9.37
6/5/2022 9:45:00 PM 14.51 58.118 0.04 6.84 2.37 9.37
6/5/2022 10:00:00 PM 14.48 58.064 0.04 6.84 2.47 9.39
6/5/2022 10:15:00 PM 14.44 57.992 0.04 6.84 2.5 9.39
6/5/2022 10:30:00 PM 14.39 57.902 0.04 6.84 2.4 9.4
6/5/2022 10:45:00 PM 14.34 57.812 0.04 6.84 2.56 9.43
6/5/2022 11:00:00 PM 14.29 57.722 0.04 6.84 2.44 9.43
6/5/2022 11:15:00 PM 14.24 57.632 0.04 6.84 2.32 9.44
6/5/2022 11:30:00 PM 14.17 57.506 0.04 6.84 2.26 9.48
6/5/2022 11:45:00 PM 14.11 57.398 0.04 6.84 2.67 9.48
6/6/2022 12:00:00 AM 14.05 57.29 0.04 6.84 2.41 9.5
6/6/2022 12:15:00 AM 13.98 57.164 0.04 6.84 2.47 9.5
6/6/2022 12:30:00 AM 13.9 57.02 0.04 6.85 2.43 9.53
6/6/2022 12:45:00 AM 13.83 56.894 0.04 6.83 2.92 9.53
6/6/2022 1:00:00 AM 13.75 56.75 0.04 6.84 2.56 9.54
6/6/2022 1:15:00 AM 13.67 56.606 0.04 6.84 2.78 9.59
6/6/2022 1:30:00 AM 13.6 56.48 0.04 6.84 2.34 9.6
6/6/2022 1:45:00 AM 13.52 56.336 0.04 6.84 2.58 9.62
6/6/2022 2:00:00 AM 13.45 56.21 0.04 6.84 2.3 9.65
6/6/2022 2:15:00 AM 13.37 56.066 0.04 6.83 2.48 9.65
6/6/2022 2:30:00 AM 13.3 55.94 0.04 6.84 2.23 9.68
6/6/2022 2:45:00 AM 13.22 55.796 0.04 6.84 2.2 9.69
6/6/2022 3:00:00 AM 13.13 55.634 0.04 6.84 2.48 9.72
6/6/2022 3:15:00 AM 13.07 55.526 0.04 6.83 2.28 9.72
6/6/2022 3:30:00 AM 12.99 55.382 0.04 6.84 2.35 9.75
6/6/2022 3:45:00 AM 12.92 55.256 0.04 6.83 2.36 9.74
6/6/2022 4:00:00 AM 12.86 55.148 0.04 6.83 2.39 9.75
6/6/2022 4:15:00 AM 12.78 55.004 0.04 6.82 2.24 9.77
6/6/2022 4:30:00 AM 12.71 54.878 0.04 6.82 2.41 9.78
6/6/2022 4:45:00 AM 12.62 54.716 0.04 6.83 2.44 9.81
6/6/2022 5:00:00 AM 12.54 54.572 0.04 6.82 2.49 9.82
6/6/2022 5:15:00 AM 12.47 54.446 0.04 6.82 2.3 9.84
6/6/2022 5:30:00 AM 12.39 54.302 0.04 6.82 2.45 9.89
6/6/2022 5:45:00 AM 12.33 54.194 0.04 6.82 2.34 9.88
6/6/2022 6:00:00 AM 12.25 54.05 0.04 6.81 2.23 9.9
6/6/2022 6:15:00 AM 12.17 53.906 0.04 6.81 2.43 9.92
6/6/2022 6:30:00 AM 12.11 53.798 0.04 6.81 2.74 9.93
6/6/2022 6:45:00 AM 12.06 53.708 0.04 6.82 2.2 9.97
6/6/2022 7:00:00 AM 11.99 53.582 0.04 6.82 2.61 10
6/6/2022 7:15:00 AM 11.93 53.474 0.04 6.82 2.31 10.03
6/6/2022 7:30:00 AM 11.88 53.384 0.04 6.83 2.23 10.06
6/6/2022 7:45:00 AM 11.84 53.312 0.04 6.84 2.21 10.08
6/6/2022 8:00:00 AM 11.8 53.24 0.04 6.83 2.24 10.1
6/6/2022 8:15:00 AM 11.77 53.186 0.04 6.84 2.32 10.12
6/6/2022 8:30:00 AM 11.76 53.168 0.04 6.84 2.21 10.16
6/6/2022 8:45:00 AM 11.76 53.168 0.04 6.83 2.25 10.13
6/6/2022 9:00:00 AM 11.76 53.168 0.04 6.84 2.28 10.16
6/6/2022 9:15:00 AM 11.78 53.204 0.04 6.84 2.19 10.17
6/6/2022 9:30:00 AM 11.82 53.276 0.04 6.85 2.35 10.17
6/6/2022 9:45:00 AM 11.86 53.348 0.04 6.84 2.14 10.15
6/6/2022 10:00:00 AM 11.93 53.474 0.04 6.85 2.49 10.19
6/6/2022 10:15:00 AM 12.01 53.618 0.04 6.86 2.54 10.2
6/6/2022 10:30:00 AM 12.09 53.762 0.039 6.87 3.04 10.22
6/6/2022 10:45:00 AM 12.17 53.906 0.039 6.88 2.17 10.2
6/6/2022 11:00:00 AM 12.26 54.068 0.039 6.88 2.19 10.2
6/6/2022 11:15:00 AM 12.37 54.266 0.039 6.89 2.23 10.18
6/6/2022 11:30:00 AM 12.48 54.464 0.039 6.89 2.23 10.15
6/6/2022 11:45:00 AM 12.62 54.716 0.039 6.88 2.1 10.1
6/6/2022 12:00:00 PM 12.82 55.076 0.039 6.89 2.28 10.11
6/6/2022 12:15:00 PM 12.98 55.364 0.039 6.91 2.44 10.09
6/6/2022 12:30:00 PM 13.28 55.904 0.039 6.91 2.08 10.03
6/6/2022 12:45:00 PM 13.57 56.426 0.039 6.91 2.05 9.96
6/6/2022 1:00:00 PM 13.89 57.002 0.039 6.91 2.01 9.9
6/6/2022 1:15:00 PM 14.11 57.398 0.039 6.91 2.2 9.86
6/6/2022 1:30:00 PM 14.42 57.956 0.039 6.93 2.02 9.78
6/6/2022 1:45:00 PM 14.74 58.532 0.039 6.93 1.92 9.79
6/6/2022 2:00:00 PM 14.96 58.928 0.039 6.94 2.48 9.75
6/6/2022 2:15:00 PM 15.07 59.126 0.039 6.94 2.14 9.68
6/6/2022 2:30:00 PM 15.08 59.144 0.039 6.94 2.07 9.65
6/6/2022 2:45:00 PM 15.19 59.342 0.039 6.94 1.95 9.61
6/6/2022 3:00:00 PM 15.31 59.558 0.039 6.94 2.09 9.6
6/6/2022 3:15:00 PM 15.42 59.756 0.039 6.95 1.95 9.53
6/6/2022 3:30:00 PM 15.6 60.08 0.039 6.95 1.97 9.58
6/6/2022 3:45:00 PM 15.75 60.35 0.039 6.96 1.94 9.55
6/6/2022 4:00:00 PM 15.82 60.476 0.039 6.95 1.99 9.47
6/6/2022 4:15:00 PM 15.91 60.638 0.039 6.95 2.08 9.46
6/6/2022 4:30:00 PM 15.96 60.728 0.039 6.96 2.03 9.46
6/6/2022 4:45:00 PM 15.99 60.782 0.039 6.96 2.02 9.43
6/6/2022 5:00:00 PM 16.02 60.836 0.039 6.96 2.06 9.41
6/6/2022 5:15:00 PM 16.06 60.908 0.039 6.93 1.98 9.36
6/6/2022 5:30:00 PM 16.11 60.998 0.039 6.94 1.9 9.35
6/6/2022 5:45:00 PM 16.08 60.944 0.039 6.94 2.03 9.33
6/6/2022 6:00:00 PM 16.08 60.944 0.039 6.94 2.01 9.31
6/6/2022 6:15:00 PM 16.03 60.854 0.039 6.93 2 9.27
6/6/2022 6:30:00 PM 16.02 60.836 0.039 6.92 2.18 9.26
6/6/2022 6:45:00 PM 15.99 60.782 0.039 6.91 1.99 9.24
6/6/2022 7:00:00 PM 15.97 60.746 0.039 6.9 1.95 9.24
6/6/2022 7:15:00 PM 15.94 60.692 0.039 6.89 2.15 9.2
6/6/2022 7:30:00 PM 15.91 60.638 0.039 6.89 1.95 9.19
6/6/2022 7:45:00 PM 15.87 60.566 0.039 6.86 3.03 9.12
6/6/2022 8:00:00 PM 15.83 60.494 0.04 6.86 2.61 9.11
6/6/2022 8:15:00 PM 15.8 60.44 0.04 6.85 2.34 9.14
6/6/2022 8:30:00 PM 15.77 60.386 0.04 6.85 3.73 9.09
6/6/2022 8:45:00 PM 15.74 60.332 0.04 6.84 2.22 9.11
6/6/2022 9:00:00 PM 15.72 60.296 0.04 6.84 2.06 9.11
6/6/2022 9:15:00 PM 15.69 60.242 0.04 6.83 2.21 9.09
6/6/2022 9:30:00 PM 15.67 60.206 0.04 6.84 2.37 9.13
6/6/2022 9:45:00 PM 15.64 60.152 0.04 6.84 2.11 9.14
6/6/2022 10:00:00 PM 15.61 60.098 0.04 6.83 2.08 9.12
6/6/2022 10:15:00 PM 15.58 60.044 0.04 6.83 1.98 9.13
6/6/2022 10:30:00 PM 15.55 59.99 0.04 6.83 2.02 9.12
6/6/2022 10:45:00 PM 15.52 59.936 0.04 6.83 2.15 9.14
6/6/2022 11:00:00 PM 15.48 59.864 0.04 6.84 2.01 9.16
6/6/2022 11:15:00 PM 15.45 59.81 0.04 6.83 2.3 9.15
6/6/2022 11:30:00 PM 15.41 59.738 0.04 6.83 2.2 9.15
6/6/2022 11:45:00 PM 15.36 59.648 0.04 6.83 2.15 9.15
6/7/2022 12:00:00 AM 15.32 59.576 0.04 6.84 2.25 9.17
6/7/2022 12:15:00 AM 15.28 59.504 0.04 6.83 1.99 9.18
6/7/2022 12:30:00 AM 15.24 59.432 0.04 6.83 2.08 9.2
6/7/2022 12:45:00 AM 15.19 59.342 0.04 6.84 2.11 9.19
6/7/2022 1:00:00 AM 15.15 59.27 0.04 6.84 2.08 9.23
6/7/2022 1:15:00 AM 15.11 59.198 0.04 6.83 2.15 9.23
6/7/2022 1:30:00 AM 15.07 59.126 0.04 6.83 2.12 9.24
6/7/2022 1:45:00 AM 15.02 59.036 0.04 6.84 2.06 9.26
6/7/2022 2:00:00 AM 14.98 58.964 0.04 6.83 2.17 9.27
6/7/2022 2:15:00 AM 14.93 58.874 0.041 6.83 2.14 9.27
6/7/2022 2:30:00 AM 14.88 58.784 0.041 6.84 2.08 9.29
6/7/2022 2:45:00 AM 14.84 58.712 0.041 6.84 2.16 9.31
6/7/2022 3:00:00 AM 14.78 58.604 0.041 6.84 2.01 9.32
6/7/2022 3:15:00 AM 14.73 58.514 0.041 6.84 2.1 9.34
6/7/2022 3:30:00 AM 14.68 58.424 0.041 6.83 2.15 9.34
6/7/2022 3:45:00 AM 14.63 58.334 0.041 6.84 2.34 9.35
6/7/2022 4:00:00 AM 14.57 58.226 0.041 6.83 2.66 9.35
6/7/2022 4:15:00 AM 14.53 58.154 0.041 6.84 1.9 9.37
6/7/2022 4:30:00 AM 14.48 58.064 0.041 6.84 1.97 9.38
6/7/2022 4:45:00 AM 14.44 57.992 0.041 6.83 2.04 9.38
6/7/2022 5:00:00 AM 14.39 57.902 0.041 6.83 9.51 9.36
6/7/2022 5:15:00 AM 14.35 57.83 0.041 6.84 2.11 9.42
6/7/2022 5:30:00 AM 14.31 57.758 0.041 6.83 2.51 9.43
6/7/2022 5:45:00 AM 14.27 57.686 0.041 6.83 2.85 9.4
6/7/2022 6:00:00 AM 14.22 57.596 0.041 6.83 2.05 9.45
6/7/2022 6:15:00 AM 14.19 57.542 0.041 6.83 1.92 9.46
6/7/2022 6:30:00 AM 14.14 57.452 0.041 6.84 1.95 9.5
6/7/2022 6:45:00 AM 14.11 57.398 0.041 6.84 2.29 9.49
6/7/2022 7:00:00 AM 14.08 57.344 0.041 6.84 1.95 9.55
6/7/2022 7:15:00 AM 14.06 57.308 0.041 6.85 1.95 9.55
6/7/2022 7:30:00 AM 14.04 57.272 0.041 6.86 2.03 9.59
6/7/2022 7:45:00 AM 14.03 57.254 0.041 6.86 2.19 9.6
6/7/2022 8:00:00 AM 14.03 57.254 0.04 6.87 1.91 9.64
6/7/2022 8:15:00 AM 14.03 57.254 0.04 6.88 1.98 9.69
6/7/2022 8:30:00 AM 14.04 57.272 0.04 6.88 2.04 9.69
6/7/2022 8:45:00 AM 14.06 57.308 0.04 6.88 2.03 9.7
6/7/2022 9:00:00 AM 14.07 57.326 0.04 6.89 2 9.72
6/7/2022 9:15:00 AM 14.09 57.362 0.04 6.88 2.57 9.73
6/7/2022 9:30:00 AM 14.09 57.362 0.04 6.88 2.22 9.67
6/7/2022 9:45:00 AM 14.09 57.362 0.04 6.88 2.31 9.67
6/7/2022 10:00:00 AM 14.09 57.362 0.04 6.89 1.92 9.69
6/7/2022 10:15:00 AM 14.1 57.38 0.04 6.89 1.94 9.67
6/7/2022 10:30:00 AM 14.11 57.398 0.04 6.89 1.95 9.69
6/7/2022 10:45:00 AM 14.13 57.434 0.04 6.89 2.74 9.7
6/7/2022 11:00:00 AM 14.13 57.434 0.04 6.89 2.25 9.69
6/7/2022 11:15:00 AM 14.14 57.452 0.04 6.89 1.95 9.67
6/7/2022 11:30:00 AM 14.16 57.488 0.04 6.89 2.31 9.68
6/7/2022 11:45:00 AM 14.18 57.524 0.04 6.9 2.01 9.72
6/7/2022 12:00:00 PM 14.21 57.578 0.04 6.9 1.95 9.71
6/7/2022 12:15:00 PM 14.22 57.596 0.04 6.9 1.95 9.68
6/7/2022 12:30:00 PM 14.22 57.596 0.04 6.89 1.96 9.63
6/7/2022 12:45:00 PM 14.23 57.614 0.04 6.86 2.19 9.55
6/7/2022 1:00:00 PM 14.25 57.65 0.04 6.83 2.35 9.5
6/7/2022 1:15:00 PM 14.24 57.632 0.04 6.82 2.49 9.43
6/7/2022 1:30:00 PM 14.24 57.632 0.04 6.8 2.37 9.39
6/7/2022 1:45:00 PM 14.24 57.632 0.04 6.79 2.24 9.37
6/7/2022 2:00:00 PM 14.23 57.614 0.04 6.78 2.19 9.35
6/7/2022 2:15:00 PM 14.22 57.596 0.04 6.79 2.12 9.37
6/7/2022 2:30:00 PM 14.23 57.614 0.04 6.79 2.19 9.38
6/7/2022 2:45:00 PM 14.24 57.632 0.04 6.78 2.2 9.35
6/7/2022 3:00:00 PM 14.25 57.65 0.039 6.77 2.32 9.35
6/7/2022 3:15:00 PM 14.23 57.614 0.04 6.77 2.33 9.33
6/7/2022 3:30:00 PM 14.22 57.596 0.04 6.76 2.34 9.34
6/7/2022 3:45:00 PM 14.21 57.578 0.04 6.76 2.13 9.35
6/7/2022 4:00:00 PM 14.21 57.578 0.04 6.77 2.2 9.38
6/7/2022 4:15:00 PM 14.21 57.578 0.04 6.77 2.1 9.38
6/7/2022 4:30:00 PM 14.21 57.578 0.04 6.77 2.23 9.39
6/7/2022 4:45:00 PM 14.2 57.56 0.04 6.77 2.21 9.4
6/7/2022 5:00:00 PM 14.2 57.56 0.04 6.76 2.27 9.39
6/7/2022 5:15:00 PM 14.2 57.56 0.04 6.77 2.24 9.43
6/7/2022 5:30:00 PM 14.22 57.596 0.04 6.78 2.13 9.47
6/7/2022 5:45:00 PM 14.23 57.614 0.04 6.78 7.27 9.47
6/7/2022 6:00:00 PM 14.23 57.614 0.04 6.78 2.3 9.48
6/7/2022 6:15:00 PM 14.23 57.614 0.04 6.79 2.24 9.48
6/7/2022 6:30:00 PM 14.24 57.632 0.04 6.79 2.17 9.49
6/7/2022 6:45:00 PM 14.23 57.614 0.04 6.78 2.2 9.46
6/7/2022 7:00:00 PM 14.23 57.614 0.04 6.78 2.11 9.44
6/7/2022 7:15:00 PM 14.22 57.596 0.04 6.78 2.34 9.44
6/7/2022 7:30:00 PM 14.2 57.56 0.04 6.77 3.89 9.43
6/7/2022 7:45:00 PM 14.2 57.56 0.04 6.77 2.3 9.42
6/7/2022 8:00:00 PM 14.2 57.56 0.04 6.77 2.37 9.42
6/7/2022 8:15:00 PM 14.2 57.56 0.04 6.77 2.54 9.43
6/7/2022 8:30:00 PM 14.2 57.56 0.04 6.76 2.38 9.42
6/7/2022 8:45:00 PM 14.18 57.524 0.04 6.76 2.3 9.41
6/7/2022 9:00:00 PM 14.16 57.488 0.04 6.76 3.41 9.43
6/7/2022 9:15:00 PM 14.14 57.452 0.04 6.74 2.94 9.42
6/7/2022 9:30:00 PM 14.13 57.434 0.04 6.73 3.02 9.4
6/7/2022 9:45:00 PM 14.13 57.434 0.04 6.72 3.18 9.41
6/7/2022 10:00:00 PM 14.11 57.398 0.04 6.72 4.03 9.4
6/7/2022 10:15:00 PM 14.1 57.38 0.04 6.72 2.75 9.4
6/7/2022 10:30:00 PM 14.08 57.344 0.04 6.72 2.66 9.42
6/7/2022 10:45:00 PM 14.07 57.326 0.04 6.71 2.63 9.42
6/7/2022 11:00:00 PM 14.05 57.29 0.04 6.71 2.47 9.45
6/7/2022 11:15:00 PM 14.04 57.272 0.04 6.7 2.4 9.43
6/7/2022 11:30:00 PM 14.03 57.254 0.04 6.7 2.56 9.44
6/7/2022 11:45:00 PM 14.01 57.218 0.04 6.69 2.39 9.47
6/8/2022 12:00:00 AM 14.01 57.218 0.04 6.69 2.35 9.45
6/8/2022 12:15:00 AM 14 57.2 0.04 6.7 2.35 9.47
6/8/2022 12:30:00 AM 13.99 57.182 0.04 6.7 2.43 9.46
6/8/2022 12:45:00 AM 13.98 57.164 0.04 6.7 2.17 9.48
6/8/2022 1:00:00 AM 13.96 57.128 0.04 6.7 2.61 9.48
6/8/2022 1:15:00 AM 13.95 57.11 0.04 6.7 2.57 9.48
6/8/2022 1:30:00 AM 13.94 57.092 0.04 6.7 2.25 9.5
6/8/2022 1:45:00 AM 13.92 57.056 0.04 6.7 2.49 9.5
6/8/2022 2:00:00 AM 13.91 57.038 0.04 6.69 2.18 9.5
6/8/2022 2:15:00 AM 13.89 57.002 0.04 6.69 2.16 9.5
6/8/2022 2:30:00 AM 13.89 57.002 0.04 6.7 2.16 9.5
6/8/2022 2:45:00 AM 13.87 56.966 0.04 6.71 2.23 9.52
6/8/2022 3:00:00 AM 13.85 56.93 0.04 6.73 2.24 9.53
6/8/2022 3:15:00 AM 13.83 56.894 0.04 6.75 2.08 9.53
6/8/2022 3:30:00 AM 13.81 56.858 0.04 6.77 2.3 9.55
6/8/2022 3:45:00 AM 13.78 56.804 0.04 6.79 2.29 9.56
6/8/2022 4:00:00 AM 13.74 56.732 0.04 6.8 2.29 9.57
6/8/2022 4:15:00 AM 13.71 56.678 0.04 6.81 2.36 9.59
6/8/2022 4:30:00 AM 13.68 56.624 0.04 6.82 2.25 9.59
6/8/2022 4:45:00 AM 13.65 56.57 0.04 6.82 2.22 9.57
6/8/2022 5:00:00 AM 13.62 56.516 0.04 6.83 2.17 9.59
6/8/2022 5:15:00 AM 13.58 56.444 0.04 6.83 2.28 9.61
6/8/2022 5:30:00 AM 13.55 56.39 0.04 6.83 2.41 9.6
6/8/2022 5:45:00 AM 13.51 56.318 0.04 6.83 2.31 9.6
6/8/2022 6:00:00 AM 13.46 56.228 0.04 6.82 2.18 9.6
6/8/2022 6:15:00 AM 13.42 56.156 0.04 6.82 2.75 9.62
6/8/2022 6:30:00 AM 13.38 56.084 0.04 6.83 2.5 9.66
6/8/2022 6:45:00 AM 13.36 56.048 0.04 6.83 2.36 9.68
6/8/2022 7:00:00 AM 13.33 55.994 0.04 6.84 2.04 9.7
6/8/2022 7:15:00 AM 13.3 55.94 0.04 6.84 2.06 9.71
6/8/2022 7:30:00 AM 13.28 55.904 0.04 6.84 1.97 9.66
6/8/2022 7:45:00 AM 13.25 55.85 0.04 6.84 2.11 9.72
6/8/2022 8:00:00 AM 13.23 55.814 0.04 6.85 2.08 9.77
6/8/2022 8:15:00 AM 13.23 55.814 0.04 6.86 2.05 9.81
6/8/2022 8:30:00 AM 13.24 55.832 0.04 6.86 2.01 9.83
6/8/2022 8:45:00 AM 13.25 55.85 0.04 6.86 2.27 9.82
6/8/2022 9:00:00 AM 13.25 55.85 0.04 6.88 2.05 9.86
6/8/2022 9:15:00 AM 13.25 55.85 0.04 6.88 2.06 9.85
6/8/2022 9:30:00 AM 13.25 55.85 0.04 6.87 2.07 9.85
6/8/2022 9:45:00 AM 13.28 55.904 0.04 6.89 2.09 9.87
6/8/2022 10:00:00 AM 13.33 55.994 0.04 6.88 2.82 9.89
6/8/2022 10:15:00 AM 13.38 56.084 0.04 6.9 1.98 9.92
6/8/2022 10:30:00 AM 13.42 56.156 0.04 6.9 1.91 9.91
6/8/2022 10:45:00 AM 13.47 56.246 0.04 6.9 2.03 9.9
6/8/2022 11:00:00 AM 13.52 56.336 0.039 6.91 2.16 9.89
6/8/2022 11:15:00 AM 13.62 56.516 0.039 6.91 2 9.91
6/8/2022 11:30:00 AM 13.7 56.66 0.039 6.92 2.13 9.91
6/8/2022 11:45:00 AM 13.76 56.768 0.039 6.92 1.95 9.88
6/8/2022 12:00:00 PM 13.87 56.966 0.039 6.93 1.9 9.89
6/8/2022 12:15:00 PM 13.95 57.11 0.039 6.92 1.98 9.84
6/8/2022 12:30:00 PM 14.1 57.38 0.039 6.93 1.98 9.83
6/8/2022 12:45:00 PM 14.19 57.542 0.039 6.92 1.97 9.78
6/8/2022 1:00:00 PM 14.34 57.812 0.039 6.92 2.08 9.74
6/8/2022 1:15:00 PM 14.7 58.46 0.039 6.93 1.87 9.74
6/8/2022 1:30:00 PM 14.9 58.82 0.039 6.94 1.96 9.69
6/8/2022 1:45:00 PM 14.98 58.964 0.039 6.93 2.75 9.65
6/8/2022 2:00:00 PM 15.15 59.27 0.039 6.92 2.02 9.61
6/8/2022 2:15:00 PM 15.26 59.468 0.039 6.93 2.16 9.58
6/8/2022 2:30:00 PM 15.5 59.9 0.039 6.93 1.95 9.56
6/8/2022 2:45:00 PM 15.7 60.26 0.039 6.93 1.87 9.52
6/8/2022 3:00:00 PM 16.05 60.89 0.039 6.94 1.88 9.47
6/8/2022 3:15:00 PM 16.2 61.16 0.039 6.94 1.89 9.41
6/8/2022 3:30:00 PM 16.33 61.394 0.039 6.94 1.82 9.37
6/8/2022 3:45:00 PM 16.42 61.556 0.039 6.94 1.92 9.33
6/8/2022 4:00:00 PM 16.49 61.682 0.039 6.93 1.95 9.31
6/8/2022 4:15:00 PM 16.52 61.736 0.039 6.93 1.96 9.26
6/8/2022 4:30:00 PM 16.57 61.826 0.039 6.92 2.28 9.23
6/8/2022 4:45:00 PM 16.61 61.898 0.039 6.9 2.58 9.19
6/8/2022 5:00:00 PM 16.65 61.97 0.039 6.9 2.35 9.15
6/8/2022 5:15:00 PM 16.7 62.06 0.039 6.89 1.86 9.13
6/8/2022 5:30:00 PM 16.67 62.006 0.039 6.89 1.91 9.09
6/8/2022 5:45:00 PM 16.62 61.916 0.039 6.88 1.91 9.06
6/8/2022 6:00:00 PM 16.57 61.826 0.039 6.88 2.07 9.04
6/8/2022 6:15:00 PM 16.49 61.682 0.04 6.87 7.44 9.01
6/8/2022 6:30:00 PM 16.44 61.592 0.04 6.87 2.01 9.02
6/8/2022 6:45:00 PM 16.35 61.43 0.04 6.86 2.03 9.02
6/8/2022 7:00:00 PM 16.28 61.304 0.04 6.86 2.88 9.06
6/8/2022 7:15:00 PM 16.22 61.196 0.04 6.85 2.01 9.05
6/8/2022 7:30:00 PM 16.18 61.124 0.04 6.85 1.93 9.05
6/8/2022 7:45:00 PM 16.12 61.016 0.04 6.85 2.09 9.05
6/8/2022 8:00:00 PM 16.06 60.908 0.04 6.83 2.79 9.01
6/8/2022 8:15:00 PM 16.02 60.836 0.04 6.83 1.96 9.03
6/8/2022 8:30:00 PM 15.98 60.764 0.04 6.82 1.96 9.01
6/8/2022 8:45:00 PM 15.94 60.692 0.04 6.81 1.88 8.97
6/8/2022 9:00:00 PM 15.91 60.638 0.04 6.81 2.34 8.98
6/8/2022 9:15:00 PM 15.88 60.584 0.04 6.81 2.05 8.99
6/8/2022 9:30:00 PM 15.85 60.53 0.04 6.81 2.19 8.98
6/8/2022 9:45:00 PM 15.82 60.476 0.04 6.81 2.56 8.97
6/8/2022 10:00:00 PM 15.79 60.422 0.04 6.82 2.18 9
6/8/2022 10:15:00 PM 15.77 60.386 0.04 6.82 2.03 8.99
6/8/2022 10:30:00 PM 15.75 60.35 0.041 6.82 2.07 9
6/8/2022 10:45:00 PM 15.72 60.296 0.041 6.82 2.5 9.01
6/8/2022 11:00:00 PM 15.71 60.278 0.041 6.82 2.07 9
6/8/2022 11:15:00 PM 15.68 60.224 0.041 6.81 2.01 9.03
6/8/2022 11:30:00 PM 15.65 60.17 0.041 6.81 1.99 9.02
6/8/2022 11:45:00 PM 15.63 60.134 0.041 6.8 2.15 8.99
6/9/2022 12:00:00 AM 15.59 60.062 0.04 6.79 2.1 8.92
6/9/2022 12:15:00 AM 15.56 60.008 0.04 6.77 2.86 8.88
6/9/2022 12:30:00 AM 15.51 59.918 0.039 6.75 3.16 8.88
6/9/2022 12:45:00 AM 15.45 59.81 0.038 6.75 4.5 8.91
6/9/2022 1:00:00 AM 15.4 59.72 0.039 6.73 3.92 8.9
6/9/2022 1:15:00 AM 15.36 59.648 0.039 6.73 3.43 8.87
6/9/2022 1:30:00 AM 15.33 59.594 0.039 6.73 3.21 8.91
6/9/2022 1:45:00 AM 15.28 59.504 0.039 6.73 4.32 8.91
6/9/2022 2:00:00 AM 15.24 59.432 0.039 6.74 4.11 8.93
6/9/2022 2:15:00 AM 15.18 59.324 0.04 6.75 3.29 8.97
6/9/2022 2:30:00 AM 15.13 59.234 0.04 6.76 3.48 9.01
6/9/2022 2:45:00 AM 15.09 59.162 0.04 6.76 3.32 9.01
6/9/2022 3:00:00 AM 15.04 59.072 0.04 6.76 3.69 9.01
6/9/2022 3:15:00 AM 15.01 59.018 0.04 6.76 3.53 9.02
6/9/2022 3:30:00 AM 14.96 58.928 0.04 6.75 3.74 9.02
6/9/2022 3:45:00 AM 14.92 58.856 0.04 6.76 3.66 9.06
6/9/2022 4:00:00 AM 14.87 58.766 0.04 6.76 3.46 9.07
6/9/2022 4:15:00 AM 14.82 58.676 0.04 6.76 3.32 9.08
6/9/2022 4:30:00 AM 14.77 58.586 0.039 6.76 3.41 9.12
6/9/2022 4:45:00 AM 14.71 58.478 0.039 6.77 3.59 9.15
6/9/2022 5:00:00 AM 14.65 58.37 0.039 6.79 4.17 9.2
6/9/2022 5:15:00 AM 14.59 58.262 0.039 6.8 6.4 9.27
6/9/2022 5:30:00 AM 14.53 58.154 0.039 6.81 5.82 9.28
6/9/2022 5:45:00 AM 14.46 58.028 0.039 6.81 5.77 9.34
6/9/2022 6:00:00 AM 14.41 57.938 0.039 6.81 6.33 9.36
6/9/2022 6:15:00 AM 14.35 57.83 0.039 6.83 5.54 9.41
6/9/2022 6:30:00 AM 14.29 57.722 0.039 6.83 5.42 9.43
6/9/2022 6:45:00 AM 14.24 57.632 0.039 6.83 4.96 9.45
6/9/2022 7:00:00 AM 14.21 57.578 0.039 6.83 4.74 9.48
6/9/2022 7:15:00 AM 14.17 57.506 0.039 6.83 4.54 9.49
6/9/2022 7:30:00 AM 14.14 57.452 0.039 6.83 4.36 9.51
6/9/2022 7:45:00 AM 14.11 57.398 0.039 6.84 4.28 9.53
6/9/2022 8:00:00 AM 14.08 57.344 0.038 6.84 4.04 9.55
6/9/2022 8:15:00 AM 14.07 57.326 0.038 6.84 4.21 9.59
6/9/2022 8:30:00 AM 14.04 57.272 0.038 6.84 4.41 9.59
6/9/2022 8:45:00 AM 14.03 57.254 0.038 6.83 3.56 9.6
6/9/2022 9:00:00 AM 14.01 57.218 0.038 6.83 3.34 9.58
6/9/2022 9:15:00 AM 13.99 57.182 0.038 6.83 3.37 9.6
6/9/2022 9:30:00 AM 13.98 57.164 0.038 6.83 3.74 9.63
6/9/2022 9:45:00 AM 13.99 57.182 0.038 6.84 3.16 9.68
6/9/2022 10:00:00 AM 14 57.2 0.038 6.84 3.05 9.69
6/9/2022 10:15:00 AM 14.03 57.254 0.038 6.87 3.24 9.71
6/9/2022 10:30:00 AM 14.07 57.326 0.038 6.89 3.3 9.72
6/9/2022 10:45:00 AM 14.11 57.398 0.038 6.9 3.11 9.72
6/9/2022 11:00:00 AM 14.12 57.416 0.038 6.89 3.57 9.68
6/9/2022 11:15:00 AM 14.18 57.524 0.038 6.9 2.89 9.7
6/9/2022 11:30:00 AM 14.19 57.542 0.038 6.88 3.11 9.63
6/9/2022 11:45:00 AM 14.19 57.542 0.038 6.89 2.84 9.65
6/9/2022 12:00:00 PM 14.22 57.596 0.038 6.89 2.89 9.68
6/9/2022 12:15:00 PM 14.26 57.668 0.038 6.89 2.61 9.65
6/9/2022 12:30:00 PM 14.37 57.866 0.038 6.9 3.24 9.7
6/9/2022 12:45:00 PM 14.42 57.956 0.038 6.9 2.82 9.66
6/9/2022 1:00:00 PM 14.45 58.01 0.038 6.9 2.62 9.61
6/9/2022 1:15:00 PM 14.44 57.992 0.038 6.88 4.08 9.61
6/9/2022 1:30:00 PM 14.43 57.974 0.038 6.88 3.06 9.58
6/9/2022 1:45:00 PM 14.46 58.028 0.038 6.88 2.51 9.6
6/9/2022 2:00:00 PM 14.51 58.118 0.038 6.89 2.64 9.65
6/9/2022 2:15:00 PM 14.57 58.226 0.038 6.89 3.15 9.63
6/9/2022 2:30:00 PM 14.71 58.478 0.038 6.9 2.67 9.64
6/9/2022 2:45:00 PM 14.78 58.604 0.038 6.91 3.19 9.61
6/9/2022 3:00:00 PM 14.83 58.694 0.038 6.91 2.5 9.61
6/9/2022 3:15:00 PM 14.9 58.82 0.038 6.93 2.39 9.63
6/9/2022 3:30:00 PM 14.97 58.946 0.038 6.94 2.41 9.63
6/9/2022 3:45:00 PM 15.07 59.126 0.038 6.96 2.38 9.65
6/9/2022 4:00:00 PM 15.12 59.216 0.038 6.95 2.47 9.63
6/9/2022 4:15:00 PM 15.26 59.468 0.038 6.96 2.68 9.62
6/9/2022 4:30:00 PM 15.27 59.486 0.038 6.95 2.45 9.56
6/9/2022 4:45:00 PM 15.26 59.468 0.038 6.95 2.57 9.55
6/9/2022 5:00:00 PM 15.23 59.414 0.038 6.95 2.65 9.53
6/9/2022 5:15:00 PM 15.21 59.378 0.038 6.95 2.4 9.53
6/9/2022 5:30:00 PM 15.2 59.36 0.038 6.94 2.71 9.48
6/9/2022 5:45:00 PM 15.2 59.36 0.038 6.93 2.49 9.48
6/9/2022 6:00:00 PM 15.2 59.36 0.038 6.93 2.36 9.48
6/9/2022 6:15:00 PM 15.18 59.324 0.038 6.93 2.54 9.45
6/9/2022 6:30:00 PM 15.15 59.27 0.038 6.92 2.36 9.43
6/9/2022 6:45:00 PM 15.11 59.198 0.038 6.91 2.48 9.41
6/9/2022 7:00:00 PM 15.08 59.144 0.039 6.9 2.8 9.4
6/9/2022 7:15:00 PM 15.04 59.072 0.039 6.89 2.4 9.37
6/9/2022 7:30:00 PM 14.99 58.982 0.039 6.88 2.31 9.36
6/9/2022 7:45:00 PM 14.96 58.928 0.039 6.88 2.58 9.33
6/9/2022 8:00:00 PM 14.93 58.874 0.039 6.87 3.54 9.32
6/9/2022 8:15:00 PM 14.9 58.82 0.039 6.87 2.29 9.32
6/9/2022 8:30:00 PM 14.88 58.784 0.039 6.86 2.4 9.31
6/9/2022 8:45:00 PM 14.84 58.712 0.039 6.86 2.56 9.3
6/9/2022 9:00:00 PM 14.8 58.64 0.039 6.85 2.65 9.31
6/9/2022 9:15:00 PM 14.75 58.55 0.039 6.85 2.5 9.29
6/9/2022 9:30:00 PM 14.71 58.478 0.039 6.85 2.36 9.31
6/9/2022 9:45:00 PM 14.65 58.37 0.039 6.84 2.24 9.32
6/9/2022 10:00:00 PM 14.6 58.28 0.039 6.84 3.45 9.33
6/9/2022 10:15:00 PM 14.54 58.172 0.039 6.84 2.58 9.35
6/9/2022 10:30:00 PM 14.48 58.064 0.04 6.84 2.54 9.36
6/9/2022 10:45:00 PM 14.43 57.974 0.04 6.84 2.36 9.35
6/9/2022 11:00:00 PM 14.37 57.866 0.04 6.84 2.35 9.39
6/9/2022 11:15:00 PM 14.31 57.758 0.04 6.84 2.27 9.4
6/9/2022 11:30:00 PM 14.24 57.632 0.04 6.84 2.2 9.43
6/9/2022 11:45:00 PM 14.17 57.506 0.04 6.84 2.52 9.44
6/10/2022 12:00:00 AM 14.11 57.398 0.04 6.84 2.14 9.45
6/10/2022 12:15:00 AM 14.04 57.272 0.04 6.84 2.29 9.48
6/10/2022 12:30:00 AM 13.97 57.146 0.04 6.84 2.33 9.49
6/10/2022 12:45:00 AM 13.91 57.038 0.04 6.84 3.54 9.5
6/10/2022 1:00:00 AM 13.84 56.912 0.04 6.84 2.2 9.53
6/10/2022 1:15:00 AM 13.78 56.804 0.04 6.84 2.49 9.56
6/10/2022 1:30:00 AM 13.73 56.714 0.04 6.84 2.4 9.56
6/10/2022 1:45:00 AM 13.68 56.624 0.04 6.84 2.28 9.56
6/10/2022 2:00:00 AM 13.62 56.516 0.04 6.84 2.23 9.59
6/10/2022 2:15:00 AM 13.57 56.426 0.04 6.84 2.29 9.6
6/10/2022 2:30:00 AM 13.53 56.354 0.04 6.84 2.45 9.58
6/10/2022 2:45:00 AM 13.47 56.246 0.04 6.84 2.39 9.62
6/10/2022 3:00:00 AM 13.42 56.156 0.04 6.84 2.42 9.63
6/10/2022 3:15:00 AM 13.38 56.084 0.04 6.84 2.22 9.64
6/10/2022 3:30:00 AM 13.33 55.994 0.04 6.84 2.74 9.64
6/10/2022 3:45:00 AM 13.27 55.886 0.04 6.85 2.45 9.67
6/10/2022 4:00:00 AM 13.24 55.832 0.04 6.84 2.34 9.66
6/10/2022 4:15:00 AM 13.19 55.742 0.04 6.84 2.75 9.69
6/10/2022 4:30:00 AM 13.15 55.67 0.04 6.84 2.66 9.68
6/10/2022 4:45:00 AM 13.1 55.58 0.04 6.83 2.36 9.7
6/10/2022 5:00:00 AM 13.05 55.49 0.04 6.83 2.39 9.71
6/10/2022 5:15:00 AM 13.01 55.418 0.04 6.84 2.22 9.71
6/10/2022 5:30:00 AM 12.96 55.328 0.04 6.83 2.59 9.73
6/10/2022 5:45:00 AM 12.93 55.274 0.04 6.83 2.4 9.72
6/10/2022 6:00:00 AM 12.88 55.184 0.04 6.84 2.62 9.75
6/10/2022 6:15:00 AM 12.83 55.094 0.04 6.83 2.26 9.76
6/10/2022 6:30:00 AM 12.79 55.022 0.04 6.83 2.36 9.78
6/10/2022 6:45:00 AM 12.75 54.95 0.04 6.83 2.24 9.78
6/10/2022 7:00:00 AM 12.71 54.878 0.04 6.83 2.35 9.81
6/10/2022 7:15:00 AM 12.67 54.806 0.04 6.83 2.39 9.83
6/10/2022 7:30:00 AM 12.63 54.734 0.04 6.83 2.22 9.85
6/10/2022 7:45:00 AM 12.6 54.68 0.04 6.85 2.35 9.9
6/10/2022 8:00:00 AM 12.58 54.644 0.04 6.85 2.3 9.92
6/10/2022 8:15:00 AM 12.57 54.626 0.04 6.85 2.23 9.94
6/10/2022 8:30:00 AM 12.57 54.626 0.04 6.85 2.49 9.93
6/10/2022 8:45:00 AM 12.54 54.572 0.04 6.85 2.32 9.94
6/10/2022 9:00:00 AM 12.55 54.59 0.04 6.85 2.31 9.93
6/10/2022 9:15:00 AM 12.56 54.608 0.04 6.86 2.3 9.94
6/10/2022 9:30:00 AM 12.59 54.662 0.04 6.85 2.46 9.95
6/10/2022 9:45:00 AM 12.62 54.716 0.04 6.85 2.54 9.94
6/10/2022 10:00:00 AM 12.65 54.77 0.04 6.86 2.27 9.94
6/10/2022 10:15:00 AM 12.7 54.86 0.04 6.87 2.31 9.94
6/10/2022 10:30:00 AM 12.76 54.968 0.04 6.87 2.34 9.93